<?xml version="1.0" encoding="UTF-8" standalone="no" ?>
<gpx xmlns="http://www.topografix.com/GPX/1/1" xmlns:xsi="http://www.w3.org/2001/XMLSchema-instance" xsi:schemaLocation="http://www.topografix.com/GPX/1/1 http://www.topografix.com/GPX/1/1/gpx.xsd" version="1.1" creator="VisuGPX - https://www.visugpx.com">
  <metadata>
    <name>Vtt moto Andillac</name>
    <desc><![CDATA[Avec Roumègue]]></desc>
  </metadata>
  <trk>
    <name><![CDATA[MotoVttandillac4092011]]></name>
    <trkseg>
      <trkpt lat="43.9986" lon="1.88698">
        <ele>260</ele>
        <time>2011-08-28T06:45:02.000Z</time>
      </trkpt>
      <trkpt lat="43.99771" lon="1.88612">
        <ele>243</ele>
        <time>2011-08-28T06:45:12.000Z</time>
      </trkpt>
      <trkpt lat="43.99857" lon="1.88697">
        <ele>255</ele>
        <time>2011-08-28T06:45:23.000Z</time>
      </trkpt>
      <trkpt lat="43.99787" lon="1.8864">
        <ele>256</ele>
        <time>2011-08-28T06:45:33.000Z</time>
      </trkpt>
      <trkpt lat="43.99695" lon="1.88539">
        <ele>258</ele>
        <time>2011-08-28T06:45:43.000Z</time>
      </trkpt>
      <trkpt lat="43.99736" lon="1.88602">
        <ele>259</ele>
        <time>2011-08-28T06:45:54.000Z</time>
      </trkpt>
      <trkpt lat="43.99787" lon="1.88667">
        <ele>262</ele>
        <time>2011-08-28T06:46:04.000Z</time>
      </trkpt>
      <trkpt lat="43.99787" lon="1.88707">
        <ele>264</ele>
        <time>2011-08-28T06:46:14.000Z</time>
      </trkpt>
      <trkpt lat="43.99828" lon="1.88781">
        <ele>273</ele>
        <time>2011-08-28T06:46:24.000Z</time>
      </trkpt>
      <trkpt lat="43.99715" lon="1.88733">
        <ele>277</ele>
        <time>2011-08-28T06:46:35.000Z</time>
      </trkpt>
      <trkpt lat="43.99701" lon="1.88767">
        <ele>274</ele>
        <time>2011-08-28T06:46:45.000Z</time>
      </trkpt>
      <trkpt lat="43.99685" lon="1.88834">
        <ele>264</ele>
        <time>2011-08-28T06:46:55.000Z</time>
      </trkpt>
      <trkpt lat="43.99726" lon="1.88859">
        <ele>254</ele>
        <time>2011-08-28T06:47:05.000Z</time>
      </trkpt>
      <trkpt lat="43.99737" lon="1.88919">
        <ele>244</ele>
        <time>2011-08-28T06:47:15.000Z</time>
      </trkpt>
      <trkpt lat="43.99709" lon="1.89038">
        <ele>234</ele>
        <time>2011-08-28T06:47:25.000Z</time>
      </trkpt>
      <trkpt lat="43.99752" lon="1.89097">
        <ele>224</ele>
        <time>2011-08-28T06:47:35.000Z</time>
      </trkpt>
      <trkpt lat="43.99792" lon="1.89164">
        <ele>219</ele>
        <time>2011-08-28T06:47:45.000Z</time>
      </trkpt>
      <trkpt lat="43.99794" lon="1.89253">
        <ele>217</ele>
        <time>2011-08-28T06:47:55.000Z</time>
      </trkpt>
      <trkpt lat="43.99795" lon="1.89315">
        <ele>210</ele>
        <time>2011-08-28T06:48:05.000Z</time>
      </trkpt>
      <trkpt lat="43.99779" lon="1.89368">
        <ele>204</ele>
        <time>2011-08-28T06:48:15.000Z</time>
      </trkpt>
      <trkpt lat="43.9973" lon="1.89421">
        <ele>198</ele>
        <time>2011-08-28T06:48:25.000Z</time>
      </trkpt>
      <trkpt lat="43.99687" lon="1.89415">
        <ele>196</ele>
        <time>2011-08-28T06:48:35.000Z</time>
      </trkpt>
      <trkpt lat="43.99647" lon="1.89401">
        <ele>195</ele>
        <time>2011-08-28T06:48:45.000Z</time>
      </trkpt>
      <trkpt lat="43.99602" lon="1.89404">
        <ele>195</ele>
        <time>2011-08-28T06:48:55.000Z</time>
      </trkpt>
      <trkpt lat="43.99576" lon="1.89434">
        <ele>195</ele>
        <time>2011-08-28T06:49:05.000Z</time>
      </trkpt>
      <trkpt lat="43.99568" lon="1.89464">
        <ele>195</ele>
        <time>2011-08-28T06:49:15.000Z</time>
      </trkpt>
      <trkpt lat="43.99553" lon="1.895">
        <ele>196</ele>
        <time>2011-08-28T06:49:25.000Z</time>
      </trkpt>
      <trkpt lat="43.99541" lon="1.89523">
        <ele>195</ele>
        <time>2011-08-28T06:49:36.000Z</time>
      </trkpt>
      <trkpt lat="43.99544" lon="1.89527">
        <ele>192</ele>
        <time>2011-08-28T06:49:50.000Z</time>
      </trkpt>
      <trkpt lat="43.99544" lon="1.89548">
        <ele>191</ele>
        <time>2011-08-28T06:50:00.000Z</time>
      </trkpt>
      <trkpt lat="43.9954" lon="1.89569">
        <ele>192</ele>
        <time>2011-08-28T06:50:10.000Z</time>
      </trkpt>
      <trkpt lat="43.99536" lon="1.89588">
        <ele>201</ele>
        <time>2011-08-28T06:50:20.000Z</time>
      </trkpt>
      <trkpt lat="43.99542" lon="1.89607">
        <ele>206</ele>
        <time>2011-08-28T06:50:30.000Z</time>
      </trkpt>
      <trkpt lat="43.9955" lon="1.89627">
        <ele>207</ele>
        <time>2011-08-28T06:50:40.000Z</time>
      </trkpt>
      <trkpt lat="43.99559" lon="1.89646">
        <ele>208</ele>
        <time>2011-08-28T06:50:50.000Z</time>
      </trkpt>
      <trkpt lat="43.99557" lon="1.89666">
        <ele>208</ele>
        <time>2011-08-28T06:51:00.000Z</time>
      </trkpt>
      <trkpt lat="43.9955" lon="1.89687">
        <ele>208</ele>
        <time>2011-08-28T06:51:10.000Z</time>
      </trkpt>
      <trkpt lat="43.99543" lon="1.89705">
        <ele>208</ele>
        <time>2011-08-28T06:51:20.000Z</time>
      </trkpt>
      <trkpt lat="43.99536" lon="1.89723">
        <ele>208</ele>
        <time>2011-08-28T06:51:30.000Z</time>
      </trkpt>
      <trkpt lat="43.99527" lon="1.89743">
        <ele>208</ele>
        <time>2011-08-28T06:51:40.000Z</time>
      </trkpt>
      <trkpt lat="43.9952" lon="1.8976">
        <ele>208</ele>
        <time>2011-08-28T06:51:50.000Z</time>
      </trkpt>
      <trkpt lat="43.99511" lon="1.89777">
        <ele>209</ele>
        <time>2011-08-28T06:52:00.000Z</time>
      </trkpt>
      <trkpt lat="43.99502" lon="1.89796">
        <ele>213</ele>
        <time>2011-08-28T06:52:10.000Z</time>
      </trkpt>
      <trkpt lat="43.99494" lon="1.89823">
        <ele>213</ele>
        <time>2011-08-28T06:52:20.000Z</time>
      </trkpt>
      <trkpt lat="43.99492" lon="1.89843">
        <ele>214</ele>
        <time>2011-08-28T06:52:30.000Z</time>
      </trkpt>
      <trkpt lat="43.99491" lon="1.89868">
        <ele>216</ele>
        <time>2011-08-28T06:52:40.000Z</time>
      </trkpt>
      <trkpt lat="43.9949" lon="1.89892">
        <ele>216</ele>
        <time>2011-08-28T06:52:50.000Z</time>
      </trkpt>
      <trkpt lat="43.99482" lon="1.89909">
        <ele>216</ele>
        <time>2011-08-28T06:53:00.000Z</time>
      </trkpt>
      <trkpt lat="43.99472" lon="1.89926">
        <ele>217</ele>
        <time>2011-08-28T06:53:10.000Z</time>
      </trkpt>
      <trkpt lat="43.99465" lon="1.89942">
        <ele>223</ele>
        <time>2011-08-28T06:53:20.000Z</time>
      </trkpt>
      <trkpt lat="43.9946" lon="1.8996">
        <ele>228</ele>
        <time>2011-08-28T06:53:30.000Z</time>
      </trkpt>
      <trkpt lat="43.99451" lon="1.89978">
        <ele>233</ele>
        <time>2011-08-28T06:53:40.000Z</time>
      </trkpt>
      <trkpt lat="43.99444" lon="1.89994">
        <ele>235</ele>
        <time>2011-08-28T06:53:50.000Z</time>
      </trkpt>
      <trkpt lat="43.99434" lon="1.90014">
        <ele>235</ele>
        <time>2011-08-28T06:54:00.000Z</time>
      </trkpt>
      <trkpt lat="43.99428" lon="1.90029">
        <ele>235</ele>
        <time>2011-08-28T06:54:10.000Z</time>
      </trkpt>
      <trkpt lat="43.99432" lon="1.90042">
        <ele>234</ele>
        <time>2011-08-28T06:54:20.000Z</time>
      </trkpt>
      <trkpt lat="43.9943" lon="1.90042">
        <ele>232</ele>
        <time>2011-08-28T06:54:34.000Z</time>
      </trkpt>
      <trkpt lat="43.99429" lon="1.90041">
        <ele>231</ele>
        <time>2011-08-28T06:54:44.000Z</time>
      </trkpt>
      <trkpt lat="43.99427" lon="1.90043">
        <ele>228</ele>
        <time>2011-08-28T06:54:54.000Z</time>
      </trkpt>
      <trkpt lat="43.99432" lon="1.90057">
        <ele>227</ele>
        <time>2011-08-28T06:55:04.000Z</time>
      </trkpt>
      <trkpt lat="43.99448" lon="1.90066">
        <ele>227</ele>
        <time>2011-08-28T06:55:14.000Z</time>
      </trkpt>
      <trkpt lat="43.99465" lon="1.90078">
        <ele>233</ele>
        <time>2011-08-28T06:55:24.000Z</time>
      </trkpt>
      <trkpt lat="43.99485" lon="1.90092">
        <ele>236</ele>
        <time>2011-08-28T06:55:34.000Z</time>
      </trkpt>
      <trkpt lat="43.99503" lon="1.90105">
        <ele>239</ele>
        <time>2011-08-28T06:55:44.000Z</time>
      </trkpt>
      <trkpt lat="43.99524" lon="1.90122">
        <ele>242</ele>
        <time>2011-08-28T06:55:54.000Z</time>
      </trkpt>
      <trkpt lat="43.99552" lon="1.90147">
        <ele>242</ele>
        <time>2011-08-28T06:56:04.000Z</time>
      </trkpt>
      <trkpt lat="43.9958" lon="1.9017">
        <ele>243</ele>
        <time>2011-08-28T06:56:14.000Z</time>
      </trkpt>
      <trkpt lat="43.99613" lon="1.90204">
        <ele>243</ele>
        <time>2011-08-28T06:56:24.000Z</time>
      </trkpt>
      <trkpt lat="43.9965" lon="1.90244">
        <ele>243</ele>
        <time>2011-08-28T06:56:34.000Z</time>
      </trkpt>
      <trkpt lat="43.99689" lon="1.90283">
        <ele>243</ele>
        <time>2011-08-28T06:56:44.000Z</time>
      </trkpt>
      <trkpt lat="43.99714" lon="1.90261">
        <ele>241</ele>
        <time>2011-08-28T06:56:54.000Z</time>
      </trkpt>
      <trkpt lat="43.99744" lon="1.90209">
        <ele>240</ele>
        <time>2011-08-28T06:57:04.000Z</time>
      </trkpt>
      <trkpt lat="43.99782" lon="1.90115">
        <ele>232</ele>
        <time>2011-08-28T06:57:14.000Z</time>
      </trkpt>
      <trkpt lat="43.99775" lon="1.89969">
        <ele>222</ele>
        <time>2011-08-28T06:57:24.000Z</time>
      </trkpt>
      <trkpt lat="43.99751" lon="1.89858">
        <ele>218</ele>
        <time>2011-08-28T06:57:34.000Z</time>
      </trkpt>
      <trkpt lat="43.99777" lon="1.89761">
        <ele>212</ele>
        <time>2011-08-28T06:57:44.000Z</time>
      </trkpt>
      <trkpt lat="43.99824" lon="1.89753">
        <ele>205</ele>
        <time>2011-08-28T06:57:54.000Z</time>
      </trkpt>
      <trkpt lat="43.99863" lon="1.8975">
        <ele>205</ele>
        <time>2011-08-28T06:58:04.000Z</time>
      </trkpt>
      <trkpt lat="43.99902" lon="1.89752">
        <ele>205</ele>
        <time>2011-08-28T06:58:14.000Z</time>
      </trkpt>
      <trkpt lat="43.99939" lon="1.89787">
        <ele>205</ele>
        <time>2011-08-28T06:58:24.000Z</time>
      </trkpt>
      <trkpt lat="43.99957" lon="1.89834">
        <ele>200</ele>
        <time>2011-08-28T06:58:34.000Z</time>
      </trkpt>
      <trkpt lat="43.99979" lon="1.89881">
        <ele>198</ele>
        <time>2011-08-28T06:58:44.000Z</time>
      </trkpt>
      <trkpt lat="44.00002" lon="1.89942">
        <ele>199</ele>
        <time>2011-08-28T06:58:54.000Z</time>
      </trkpt>
      <trkpt lat="44.00016" lon="1.89999">
        <ele>202</ele>
        <time>2011-08-28T06:59:04.000Z</time>
      </trkpt>
      <trkpt lat="44.00039" lon="1.90055">
        <ele>206</ele>
        <time>2011-08-28T06:59:14.000Z</time>
      </trkpt>
      <trkpt lat="44.00057" lon="1.90106">
        <ele>207</ele>
        <time>2011-08-28T06:59:24.000Z</time>
      </trkpt>
      <trkpt lat="44.00093" lon="1.90159">
        <ele>207</ele>
        <time>2011-08-28T06:59:34.000Z</time>
      </trkpt>
      <trkpt lat="44.00134" lon="1.90193">
        <ele>205</ele>
        <time>2011-08-28T06:59:44.000Z</time>
      </trkpt>
      <trkpt lat="44.00153" lon="1.90204">
        <ele>205</ele>
        <time>2011-08-28T06:59:55.000Z</time>
      </trkpt>
      <trkpt lat="44.00174" lon="1.90209">
        <ele>205</ele>
        <time>2011-08-28T07:00:05.000Z</time>
      </trkpt>
      <trkpt lat="44.00202" lon="1.90208">
        <ele>205</ele>
        <time>2011-08-28T07:00:15.000Z</time>
      </trkpt>
      <trkpt lat="44.00234" lon="1.902">
        <ele>201</ele>
        <time>2011-08-28T07:00:25.000Z</time>
      </trkpt>
      <trkpt lat="44.0026" lon="1.90191">
        <ele>201</ele>
        <time>2011-08-28T07:00:35.000Z</time>
      </trkpt>
      <trkpt lat="44.00279" lon="1.90182">
        <ele>209</ele>
        <time>2011-08-28T07:00:45.000Z</time>
      </trkpt>
      <trkpt lat="44.00293" lon="1.90173">
        <ele>209</ele>
        <time>2011-08-28T07:00:55.000Z</time>
      </trkpt>
      <trkpt lat="44.00312" lon="1.90154">
        <ele>209</ele>
        <time>2011-08-28T07:01:05.000Z</time>
      </trkpt>
      <trkpt lat="44.00326" lon="1.9013">
        <ele>213</ele>
        <time>2011-08-28T07:01:15.000Z</time>
      </trkpt>
      <trkpt lat="44.00341" lon="1.90119">
        <ele>218</ele>
        <time>2011-08-28T07:01:25.000Z</time>
      </trkpt>
      <trkpt lat="44.00355" lon="1.90104">
        <ele>218</ele>
        <time>2011-08-28T07:01:36.000Z</time>
      </trkpt>
      <trkpt lat="44.00361" lon="1.90086">
        <ele>217</ele>
        <time>2011-08-28T07:01:46.000Z</time>
      </trkpt>
      <trkpt lat="44.00378" lon="1.90049">
        <ele>214</ele>
        <time>2011-08-28T07:01:56.000Z</time>
      </trkpt>
      <trkpt lat="44.00398" lon="1.90008">
        <ele>213</ele>
        <time>2011-08-28T07:02:06.000Z</time>
      </trkpt>
      <trkpt lat="44.00425" lon="1.8999">
        <ele>211</ele>
        <time>2011-08-28T07:02:16.000Z</time>
      </trkpt>
      <trkpt lat="44.00461" lon="1.89953">
        <ele>205</ele>
        <time>2011-08-28T07:02:26.000Z</time>
      </trkpt>
      <trkpt lat="44.00486" lon="1.89931">
        <ele>199</ele>
        <time>2011-08-28T07:02:36.000Z</time>
      </trkpt>
      <trkpt lat="44.00504" lon="1.89929">
        <ele>193</ele>
        <time>2011-08-28T07:02:46.000Z</time>
      </trkpt>
      <trkpt lat="44.00522" lon="1.89929">
        <ele>195</ele>
        <time>2011-08-28T07:02:56.000Z</time>
      </trkpt>
      <trkpt lat="44.00539" lon="1.89929">
        <ele>202</ele>
        <time>2011-08-28T07:03:06.000Z</time>
      </trkpt>
      <trkpt lat="44.00556" lon="1.89932">
        <ele>205</ele>
        <time>2011-08-28T07:03:16.000Z</time>
      </trkpt>
      <trkpt lat="44.00572" lon="1.8994">
        <ele>206</ele>
        <time>2011-08-28T07:03:26.000Z</time>
      </trkpt>
      <trkpt lat="44.00589" lon="1.89955">
        <ele>210</ele>
        <time>2011-08-28T07:03:36.000Z</time>
      </trkpt>
      <trkpt lat="44.00609" lon="1.89978">
        <ele>210</ele>
        <time>2011-08-28T07:03:46.000Z</time>
      </trkpt>
      <trkpt lat="44.00633" lon="1.89999">
        <ele>210</ele>
        <time>2011-08-28T07:03:56.000Z</time>
      </trkpt>
      <trkpt lat="44.00656" lon="1.90005">
        <ele>210</ele>
        <time>2011-08-28T07:04:06.000Z</time>
      </trkpt>
      <trkpt lat="44.00674" lon="1.90017">
        <ele>210</ele>
        <time>2011-08-28T07:04:16.000Z</time>
      </trkpt>
      <trkpt lat="44.00704" lon="1.9004">
        <ele>213</ele>
        <time>2011-08-28T07:04:26.000Z</time>
      </trkpt>
      <trkpt lat="44.00739" lon="1.90026">
        <ele>213</ele>
        <time>2011-08-28T07:04:36.000Z</time>
      </trkpt>
      <trkpt lat="44.00769" lon="1.9">
        <ele>206</ele>
        <time>2011-08-28T07:04:46.000Z</time>
      </trkpt>
      <trkpt lat="44.00789" lon="1.89973">
        <ele>203</ele>
        <time>2011-08-28T07:04:56.000Z</time>
      </trkpt>
      <trkpt lat="44.00806" lon="1.89948">
        <ele>203</ele>
        <time>2011-08-28T07:05:06.000Z</time>
      </trkpt>
      <trkpt lat="44.00823" lon="1.89923">
        <ele>204</ele>
        <time>2011-08-28T07:05:16.000Z</time>
      </trkpt>
      <trkpt lat="44.00834" lon="1.89915">
        <ele>211</ele>
        <time>2011-08-28T07:05:27.000Z</time>
      </trkpt>
      <trkpt lat="44.0084" lon="1.89918">
        <ele>214</ele>
        <time>2011-08-28T07:05:38.000Z</time>
      </trkpt>
      <trkpt lat="44.00839" lon="1.8992">
        <ele>213</ele>
        <time>2011-08-28T07:05:51.000Z</time>
      </trkpt>
      <trkpt lat="44.00839" lon="1.89921">
        <ele>215</ele>
        <time>2011-08-28T07:06:08.000Z</time>
      </trkpt>
      <trkpt lat="44.0085" lon="1.89919">
        <ele>215</ele>
        <time>2011-08-28T07:06:19.000Z</time>
      </trkpt>
      <trkpt lat="44.0086" lon="1.89915">
        <ele>215</ele>
        <time>2011-08-28T07:06:29.000Z</time>
      </trkpt>
      <trkpt lat="44.00872" lon="1.89895">
        <ele>215</ele>
        <time>2011-08-28T07:06:39.000Z</time>
      </trkpt>
      <trkpt lat="44.00882" lon="1.89875">
        <ele>215</ele>
        <time>2011-08-28T07:06:49.000Z</time>
      </trkpt>
      <trkpt lat="44.00892" lon="1.89851">
        <ele>215</ele>
        <time>2011-08-28T07:06:59.000Z</time>
      </trkpt>
      <trkpt lat="44.00901" lon="1.89821">
        <ele>215</ele>
        <time>2011-08-28T07:07:09.000Z</time>
      </trkpt>
      <trkpt lat="44.00907" lon="1.8978">
        <ele>215</ele>
        <time>2011-08-28T07:07:19.000Z</time>
      </trkpt>
      <trkpt lat="44.00927" lon="1.89729">
        <ele>213</ele>
        <time>2011-08-28T07:07:29.000Z</time>
      </trkpt>
      <trkpt lat="44.00941" lon="1.89686">
        <ele>213</ele>
        <time>2011-08-28T07:07:39.000Z</time>
      </trkpt>
      <trkpt lat="44.00964" lon="1.89657">
        <ele>210</ele>
        <time>2011-08-28T07:07:49.000Z</time>
      </trkpt>
      <trkpt lat="44.00991" lon="1.89694">
        <ele>207</ele>
        <time>2011-08-28T07:07:59.000Z</time>
      </trkpt>
      <trkpt lat="44.01006" lon="1.89707">
        <ele>204</ele>
        <time>2011-08-28T07:08:09.000Z</time>
      </trkpt>
      <trkpt lat="44.01019" lon="1.8969">
        <ele>205</ele>
        <time>2011-08-28T07:08:20.000Z</time>
      </trkpt>
      <trkpt lat="44.01031" lon="1.89685">
        <ele>215</ele>
        <time>2011-08-28T07:08:32.000Z</time>
      </trkpt>
      <trkpt lat="44.01035" lon="1.89692">
        <ele>225</ele>
        <time>2011-08-28T07:08:42.000Z</time>
      </trkpt>
      <trkpt lat="44.01032" lon="1.89713">
        <ele>226</ele>
        <time>2011-08-28T07:08:52.000Z</time>
      </trkpt>
      <trkpt lat="44.01028" lon="1.89737">
        <ele>228</ele>
        <time>2011-08-28T07:09:02.000Z</time>
      </trkpt>
      <trkpt lat="44.01019" lon="1.89763">
        <ele>235</ele>
        <time>2011-08-28T07:09:12.000Z</time>
      </trkpt>
      <trkpt lat="44.01011" lon="1.89789">
        <ele>235</ele>
        <time>2011-08-28T07:09:22.000Z</time>
      </trkpt>
      <trkpt lat="44.01011" lon="1.89812">
        <ele>235</ele>
        <time>2011-08-28T07:09:32.000Z</time>
      </trkpt>
      <trkpt lat="44.01021" lon="1.89822">
        <ele>234</ele>
        <time>2011-08-28T07:09:43.000Z</time>
      </trkpt>
      <trkpt lat="44.0103" lon="1.8982">
        <ele>227</ele>
        <time>2011-08-28T07:09:54.000Z</time>
      </trkpt>
      <trkpt lat="44.01042" lon="1.8982">
        <ele>227</ele>
        <time>2011-08-28T07:10:04.000Z</time>
      </trkpt>
      <trkpt lat="44.01058" lon="1.89817">
        <ele>230</ele>
        <time>2011-08-28T07:10:14.000Z</time>
      </trkpt>
      <trkpt lat="44.01072" lon="1.89804">
        <ele>231</ele>
        <time>2011-08-28T07:10:24.000Z</time>
      </trkpt>
      <trkpt lat="44.01077" lon="1.89784">
        <ele>233</ele>
        <time>2011-08-28T07:10:34.000Z</time>
      </trkpt>
      <trkpt lat="44.01075" lon="1.89756">
        <ele>233</ele>
        <time>2011-08-28T07:10:44.000Z</time>
      </trkpt>
      <trkpt lat="44.01088" lon="1.89715">
        <ele>229</ele>
        <time>2011-08-28T07:10:54.000Z</time>
      </trkpt>
      <trkpt lat="44.0111" lon="1.89679">
        <ele>225</ele>
        <time>2011-08-28T07:11:04.000Z</time>
      </trkpt>
      <trkpt lat="44.01144" lon="1.89651">
        <ele>225</ele>
        <time>2011-08-28T07:11:14.000Z</time>
      </trkpt>
      <trkpt lat="44.01179" lon="1.89621">
        <ele>224</ele>
        <time>2011-08-28T07:11:24.000Z</time>
      </trkpt>
      <trkpt lat="44.01212" lon="1.89593">
        <ele>224</ele>
        <time>2011-08-28T07:11:34.000Z</time>
      </trkpt>
      <trkpt lat="44.01232" lon="1.89587">
        <ele>221</ele>
        <time>2011-08-28T07:11:44.000Z</time>
      </trkpt>
      <trkpt lat="44.01244" lon="1.896">
        <ele>229</ele>
        <time>2011-08-28T07:11:54.000Z</time>
      </trkpt>
      <trkpt lat="44.01255" lon="1.8962">
        <ele>237</ele>
        <time>2011-08-28T07:12:04.000Z</time>
      </trkpt>
      <trkpt lat="44.01262" lon="1.89642">
        <ele>243</ele>
        <time>2011-08-28T07:12:14.000Z</time>
      </trkpt>
      <trkpt lat="44.01261" lon="1.89662">
        <ele>243</ele>
        <time>2011-08-28T07:12:24.000Z</time>
      </trkpt>
      <trkpt lat="44.01257" lon="1.89691">
        <ele>243</ele>
        <time>2011-08-28T07:12:34.000Z</time>
      </trkpt>
      <trkpt lat="44.01267" lon="1.8972">
        <ele>245</ele>
        <time>2011-08-28T07:12:44.000Z</time>
      </trkpt>
      <trkpt lat="44.01282" lon="1.89749">
        <ele>250</ele>
        <time>2011-08-28T07:12:54.000Z</time>
      </trkpt>
      <trkpt lat="44.01286" lon="1.8977">
        <ele>250</ele>
        <time>2011-08-28T07:13:04.000Z</time>
      </trkpt>
      <trkpt lat="44.013" lon="1.89787">
        <ele>250</ele>
        <time>2011-08-28T07:13:14.000Z</time>
      </trkpt>
      <trkpt lat="44.01322" lon="1.89812">
        <ele>250</ele>
        <time>2011-08-28T07:13:24.000Z</time>
      </trkpt>
      <trkpt lat="44.0135" lon="1.89837">
        <ele>250</ele>
        <time>2011-08-28T07:13:34.000Z</time>
      </trkpt>
      <trkpt lat="44.01371" lon="1.89893">
        <ele>248</ele>
        <time>2011-08-28T07:13:44.000Z</time>
      </trkpt>
      <trkpt lat="44.01351" lon="1.90007">
        <ele>239</ele>
        <time>2011-08-28T07:13:54.000Z</time>
      </trkpt>
      <trkpt lat="44.01317" lon="1.90092">
        <ele>231</ele>
        <time>2011-08-28T07:14:04.000Z</time>
      </trkpt>
      <trkpt lat="44.01337" lon="1.90095">
        <ele>227</ele>
        <time>2011-08-28T07:14:14.000Z</time>
      </trkpt>
      <trkpt lat="44.01379" lon="1.90112">
        <ele>224</ele>
        <time>2011-08-28T07:14:24.000Z</time>
      </trkpt>
      <trkpt lat="44.01335" lon="1.90201">
        <ele>215</ele>
        <time>2011-08-28T07:14:34.000Z</time>
      </trkpt>
      <trkpt lat="44.01352" lon="1.9028">
        <ele>210</ele>
        <time>2011-08-28T07:14:44.000Z</time>
      </trkpt>
      <trkpt lat="44.01381" lon="1.9031">
        <ele>208</ele>
        <time>2011-08-28T07:14:54.000Z</time>
      </trkpt>
      <trkpt lat="44.01368" lon="1.90349">
        <ele>214</ele>
        <time>2011-08-28T07:15:04.000Z</time>
      </trkpt>
      <trkpt lat="44.01352" lon="1.90377">
        <ele>214</ele>
        <time>2011-08-28T07:15:14.000Z</time>
      </trkpt>
      <trkpt lat="44.01334" lon="1.9038">
        <ele>214</ele>
        <time>2011-08-28T07:15:24.000Z</time>
      </trkpt>
      <trkpt lat="44.01321" lon="1.90385">
        <ele>214</ele>
        <time>2011-08-28T07:15:35.000Z</time>
      </trkpt>
      <trkpt lat="44.01312" lon="1.90386">
        <ele>211</ele>
        <time>2011-08-28T07:15:45.000Z</time>
      </trkpt>
      <trkpt lat="44.01306" lon="1.9039">
        <ele>211</ele>
        <time>2011-08-28T07:15:58.000Z</time>
      </trkpt>
      <trkpt lat="44.01305" lon="1.90391">
        <ele>211</ele>
        <time>2011-08-28T07:16:09.000Z</time>
      </trkpt>
      <trkpt lat="44.01306" lon="1.90391">
        <ele>216</ele>
        <time>2011-08-28T07:16:28.000Z</time>
      </trkpt>
      <trkpt lat="44.01307" lon="1.90391">
        <ele>216</ele>
        <time>2011-08-28T07:16:39.000Z</time>
      </trkpt>
      <trkpt lat="44.01311" lon="1.90393">
        <ele>219</ele>
        <time>2011-08-28T07:16:50.000Z</time>
      </trkpt>
      <trkpt lat="44.01308" lon="1.9039">
        <ele>219</ele>
        <time>2011-08-28T07:17:05.000Z</time>
      </trkpt>
      <trkpt lat="44.01308" lon="1.90389">
        <ele>219</ele>
        <time>2011-08-28T07:17:52.000Z</time>
      </trkpt>
      <trkpt lat="44.01309" lon="1.90388">
        <ele>219</ele>
        <time>2011-08-28T07:18:33.000Z</time>
      </trkpt>
      <trkpt lat="44.01308" lon="1.9039">
        <ele>225</ele>
        <time>2011-08-28T07:19:02.000Z</time>
      </trkpt>
      <trkpt lat="44.01312" lon="1.90411">
        <ele>225</ele>
        <time>2011-08-28T07:19:12.000Z</time>
      </trkpt>
      <trkpt lat="44.01331" lon="1.90466">
        <ele>222</ele>
        <time>2011-08-28T07:19:22.000Z</time>
      </trkpt>
      <trkpt lat="44.0137" lon="1.90509">
        <ele>217</ele>
        <time>2011-08-28T07:19:32.000Z</time>
      </trkpt>
      <trkpt lat="44.01403" lon="1.90536">
        <ele>216</ele>
        <time>2011-08-28T07:19:42.000Z</time>
      </trkpt>
      <trkpt lat="44.01446" lon="1.90563">
        <ele>216</ele>
        <time>2011-08-28T07:19:52.000Z</time>
      </trkpt>
      <trkpt lat="44.01491" lon="1.90592">
        <ele>216</ele>
        <time>2011-08-28T07:20:02.000Z</time>
      </trkpt>
      <trkpt lat="44.01533" lon="1.90598">
        <ele>216</ele>
        <time>2011-08-28T07:20:12.000Z</time>
      </trkpt>
      <trkpt lat="44.01577" lon="1.90618">
        <ele>216</ele>
        <time>2011-08-28T07:20:22.000Z</time>
      </trkpt>
      <trkpt lat="44.01597" lon="1.90664">
        <ele>215</ele>
        <time>2011-08-28T07:20:32.000Z</time>
      </trkpt>
      <trkpt lat="44.01621" lon="1.90702">
        <ele>217</ele>
        <time>2011-08-28T07:20:42.000Z</time>
      </trkpt>
      <trkpt lat="44.01651" lon="1.90738">
        <ele>218</ele>
        <time>2011-08-28T07:20:52.000Z</time>
      </trkpt>
      <trkpt lat="44.01687" lon="1.90757">
        <ele>224</ele>
        <time>2011-08-28T07:21:02.000Z</time>
      </trkpt>
      <trkpt lat="44.01719" lon="1.90776">
        <ele>225</ele>
        <time>2011-08-28T07:21:12.000Z</time>
      </trkpt>
      <trkpt lat="44.01746" lon="1.9081">
        <ele>225</ele>
        <time>2011-08-28T07:21:22.000Z</time>
      </trkpt>
      <trkpt lat="44.01749" lon="1.90869">
        <ele>225</ele>
        <time>2011-08-28T07:21:32.000Z</time>
      </trkpt>
      <trkpt lat="44.01758" lon="1.90927">
        <ele>225</ele>
        <time>2011-08-28T07:21:42.000Z</time>
      </trkpt>
      <trkpt lat="44.01782" lon="1.90972">
        <ele>225</ele>
        <time>2011-08-28T07:21:52.000Z</time>
      </trkpt>
      <trkpt lat="44.01814" lon="1.91005">
        <ele>225</ele>
        <time>2011-08-28T07:22:02.000Z</time>
      </trkpt>
      <trkpt lat="44.01845" lon="1.91046">
        <ele>225</ele>
        <time>2011-08-28T07:22:12.000Z</time>
      </trkpt>
      <trkpt lat="44.01851" lon="1.91083">
        <ele>225</ele>
        <time>2011-08-28T07:22:22.000Z</time>
      </trkpt>
      <trkpt lat="44.01872" lon="1.91076">
        <ele>225</ele>
        <time>2011-08-28T07:22:32.000Z</time>
      </trkpt>
      <trkpt lat="44.01919" lon="1.91063">
        <ele>228</ele>
        <time>2011-08-28T07:22:42.000Z</time>
      </trkpt>
      <trkpt lat="44.01948" lon="1.91054">
        <ele>231</ele>
        <time>2011-08-28T07:22:52.000Z</time>
      </trkpt>
      <trkpt lat="44.01979" lon="1.91069">
        <ele>232</ele>
        <time>2011-08-28T07:23:02.000Z</time>
      </trkpt>
      <trkpt lat="44.02007" lon="1.91091">
        <ele>224</ele>
        <time>2011-08-28T07:23:12.000Z</time>
      </trkpt>
      <trkpt lat="44.02039" lon="1.91126">
        <ele>222</ele>
        <time>2011-08-28T07:23:23.000Z</time>
      </trkpt>
      <trkpt lat="44.02057" lon="1.91165">
        <ele>227</ele>
        <time>2011-08-28T07:23:33.000Z</time>
      </trkpt>
      <trkpt lat="44.02071" lon="1.91207">
        <ele>228</ele>
        <time>2011-08-28T07:23:43.000Z</time>
      </trkpt>
      <trkpt lat="44.02089" lon="1.9123">
        <ele>228</ele>
        <time>2011-08-28T07:23:53.000Z</time>
      </trkpt>
      <trkpt lat="44.02095" lon="1.91239">
        <ele>228</ele>
        <time>2011-08-28T07:24:05.000Z</time>
      </trkpt>
      <trkpt lat="44.02101" lon="1.91239">
        <ele>229</ele>
        <time>2011-08-28T07:24:15.000Z</time>
      </trkpt>
      <trkpt lat="44.02099" lon="1.91236">
        <ele>232</ele>
        <time>2011-08-28T07:24:25.000Z</time>
      </trkpt>
      <trkpt lat="44.02105" lon="1.91246">
        <ele>235</ele>
        <time>2011-08-28T07:24:38.000Z</time>
      </trkpt>
      <trkpt lat="44.02111" lon="1.9125">
        <ele>231</ele>
        <time>2011-08-28T07:24:49.000Z</time>
      </trkpt>
      <trkpt lat="44.02127" lon="1.91253">
        <ele>230</ele>
        <time>2011-08-28T07:25:00.000Z</time>
      </trkpt>
      <trkpt lat="44.02155" lon="1.91258">
        <ele>232</ele>
        <time>2011-08-28T07:25:11.000Z</time>
      </trkpt>
      <trkpt lat="44.02183" lon="1.9127">
        <ele>234</ele>
        <time>2011-08-28T07:25:21.000Z</time>
      </trkpt>
      <trkpt lat="44.0221" lon="1.91294">
        <ele>234</ele>
        <time>2011-08-28T07:25:31.000Z</time>
      </trkpt>
      <trkpt lat="44.02238" lon="1.91328">
        <ele>237</ele>
        <time>2011-08-28T07:25:42.000Z</time>
      </trkpt>
      <trkpt lat="44.02271" lon="1.91368">
        <ele>243</ele>
        <time>2011-08-28T07:25:52.000Z</time>
      </trkpt>
      <trkpt lat="44.02307" lon="1.91388">
        <ele>250</ele>
        <time>2011-08-28T07:26:02.000Z</time>
      </trkpt>
      <trkpt lat="44.02343" lon="1.91406">
        <ele>255</ele>
        <time>2011-08-28T07:26:12.000Z</time>
      </trkpt>
      <trkpt lat="44.0237" lon="1.91416">
        <ele>255</ele>
        <time>2011-08-28T07:26:22.000Z</time>
      </trkpt>
      <trkpt lat="44.02388" lon="1.91419">
        <ele>255</ele>
        <time>2011-08-28T07:26:33.000Z</time>
      </trkpt>
      <trkpt lat="44.02405" lon="1.91421">
        <ele>254</ele>
        <time>2011-08-28T07:26:43.000Z</time>
      </trkpt>
      <trkpt lat="44.02422" lon="1.91424">
        <ele>254</ele>
        <time>2011-08-28T07:26:54.000Z</time>
      </trkpt>
      <trkpt lat="44.02438" lon="1.91425">
        <ele>258</ele>
        <time>2011-08-28T07:27:04.000Z</time>
      </trkpt>
      <trkpt lat="44.02455" lon="1.91426">
        <ele>266</ele>
        <time>2011-08-28T07:27:15.000Z</time>
      </trkpt>
      <trkpt lat="44.02459" lon="1.91431">
        <ele>266</ele>
        <time>2011-08-28T07:27:29.000Z</time>
      </trkpt>
      <trkpt lat="44.02459" lon="1.91432">
        <ele>266</ele>
        <time>2011-08-28T07:27:41.000Z</time>
      </trkpt>
      <trkpt lat="44.02476" lon="1.91436">
        <ele>266</ele>
        <time>2011-08-28T07:27:51.000Z</time>
      </trkpt>
      <trkpt lat="44.02493" lon="1.91438">
        <ele>268</ele>
        <time>2011-08-28T07:28:01.000Z</time>
      </trkpt>
      <trkpt lat="44.02509" lon="1.91437">
        <ele>271</ele>
        <time>2011-08-28T07:28:12.000Z</time>
      </trkpt>
      <trkpt lat="44.02527" lon="1.91439">
        <ele>272</ele>
        <time>2011-08-28T07:28:22.000Z</time>
      </trkpt>
      <trkpt lat="44.02546" lon="1.91442">
        <ele>272</ele>
        <time>2011-08-28T07:28:32.000Z</time>
      </trkpt>
      <trkpt lat="44.02564" lon="1.91446">
        <ele>274</ele>
        <time>2011-08-28T07:28:42.000Z</time>
      </trkpt>
      <trkpt lat="44.02583" lon="1.9145">
        <ele>275</ele>
        <time>2011-08-28T07:28:52.000Z</time>
      </trkpt>
      <trkpt lat="44.02606" lon="1.91463">
        <ele>279</ele>
        <time>2011-08-28T07:29:02.000Z</time>
      </trkpt>
      <trkpt lat="44.02645" lon="1.91485">
        <ele>283</ele>
        <time>2011-08-28T07:29:12.000Z</time>
      </trkpt>
      <trkpt lat="44.02687" lon="1.915">
        <ele>283</ele>
        <time>2011-08-28T07:29:22.000Z</time>
      </trkpt>
      <trkpt lat="44.02724" lon="1.91494">
        <ele>283</ele>
        <time>2011-08-28T07:29:32.000Z</time>
      </trkpt>
      <trkpt lat="44.02756" lon="1.9149">
        <ele>283</ele>
        <time>2011-08-28T07:29:42.000Z</time>
      </trkpt>
      <trkpt lat="44.02786" lon="1.91511">
        <ele>283</ele>
        <time>2011-08-28T07:29:52.000Z</time>
      </trkpt>
      <trkpt lat="44.02805" lon="1.91582">
        <ele>278</ele>
        <time>2011-08-28T07:30:02.000Z</time>
      </trkpt>
      <trkpt lat="44.02832" lon="1.91658">
        <ele>272</ele>
        <time>2011-08-28T07:30:13.000Z</time>
      </trkpt>
      <trkpt lat="44.02863" lon="1.91727">
        <ele>270</ele>
        <time>2011-08-28T07:30:24.000Z</time>
      </trkpt>
      <trkpt lat="44.02895" lon="1.91808">
        <ele>264</ele>
        <time>2011-08-28T07:30:34.000Z</time>
      </trkpt>
      <trkpt lat="44.02927" lon="1.91883">
        <ele>261</ele>
        <time>2011-08-28T07:30:44.000Z</time>
      </trkpt>
      <trkpt lat="44.02955" lon="1.91929">
        <ele>261</ele>
        <time>2011-08-28T07:30:54.000Z</time>
      </trkpt>
      <trkpt lat="44.02981" lon="1.91969">
        <ele>269</ele>
        <time>2011-08-28T07:31:04.000Z</time>
      </trkpt>
      <trkpt lat="44.03" lon="1.92001">
        <ele>278</ele>
        <time>2011-08-28T07:31:14.000Z</time>
      </trkpt>
      <trkpt lat="44.03015" lon="1.92028">
        <ele>281</ele>
        <time>2011-08-28T07:31:24.000Z</time>
      </trkpt>
      <trkpt lat="44.03032" lon="1.92056">
        <ele>287</ele>
        <time>2011-08-28T07:31:35.000Z</time>
      </trkpt>
      <trkpt lat="44.03048" lon="1.92092">
        <ele>289</ele>
        <time>2011-08-28T07:31:45.000Z</time>
      </trkpt>
      <trkpt lat="44.0304" lon="1.92153">
        <ele>289</ele>
        <time>2011-08-28T07:31:55.000Z</time>
      </trkpt>
      <trkpt lat="44.03031" lon="1.92227">
        <ele>289</ele>
        <time>2011-08-28T07:32:06.000Z</time>
      </trkpt>
      <trkpt lat="44.03014" lon="1.923">
        <ele>281</ele>
        <time>2011-08-28T07:32:16.000Z</time>
      </trkpt>
      <trkpt lat="44.03017" lon="1.92373">
        <ele>271</ele>
        <time>2011-08-28T07:32:26.000Z</time>
      </trkpt>
      <trkpt lat="44.03056" lon="1.92439">
        <ele>270</ele>
        <time>2011-08-28T07:32:36.000Z</time>
      </trkpt>
      <trkpt lat="44.03086" lon="1.92495">
        <ele>275</ele>
        <time>2011-08-28T07:32:46.000Z</time>
      </trkpt>
      <trkpt lat="44.0311" lon="1.92542">
        <ele>282</ele>
        <time>2011-08-28T07:32:56.000Z</time>
      </trkpt>
      <trkpt lat="44.03124" lon="1.92531">
        <ele>283</ele>
        <time>2011-08-28T07:33:06.000Z</time>
      </trkpt>
      <trkpt lat="44.03136" lon="1.92478">
        <ele>281</ele>
        <time>2011-08-28T07:33:16.000Z</time>
      </trkpt>
      <trkpt lat="44.03148" lon="1.92419">
        <ele>277</ele>
        <time>2011-08-28T07:33:26.000Z</time>
      </trkpt>
      <trkpt lat="44.03163" lon="1.92357">
        <ele>276</ele>
        <time>2011-08-28T07:33:36.000Z</time>
      </trkpt>
      <trkpt lat="44.03187" lon="1.92292">
        <ele>274</ele>
        <time>2011-08-28T07:33:46.000Z</time>
      </trkpt>
      <trkpt lat="44.03222" lon="1.9222">
        <ele>271</ele>
        <time>2011-08-28T07:33:56.000Z</time>
      </trkpt>
      <trkpt lat="44.03294" lon="1.92151">
        <ele>266</ele>
        <time>2011-08-28T07:34:06.000Z</time>
      </trkpt>
      <trkpt lat="44.03339" lon="1.92096">
        <ele>257</ele>
        <time>2011-08-28T07:34:16.000Z</time>
      </trkpt>
      <trkpt lat="44.03388" lon="1.92106">
        <ele>252</ele>
        <time>2011-08-28T07:34:26.000Z</time>
      </trkpt>
      <trkpt lat="44.03444" lon="1.92154">
        <ele>246</ele>
        <time>2011-08-28T07:34:36.000Z</time>
      </trkpt>
      <trkpt lat="44.03497" lon="1.92172">
        <ele>241</ele>
        <time>2011-08-28T07:34:46.000Z</time>
      </trkpt>
      <trkpt lat="44.0359" lon="1.92156">
        <ele>239</ele>
        <time>2011-08-28T07:34:56.000Z</time>
      </trkpt>
      <trkpt lat="44.03684" lon="1.92159">
        <ele>233</ele>
        <time>2011-08-28T07:35:06.000Z</time>
      </trkpt>
      <trkpt lat="44.03766" lon="1.92179">
        <ele>226</ele>
        <time>2011-08-28T07:35:16.000Z</time>
      </trkpt>
      <trkpt lat="44.03834" lon="1.92166">
        <ele>213</ele>
        <time>2011-08-28T07:35:26.000Z</time>
      </trkpt>
      <trkpt lat="44.03905" lon="1.92145">
        <ele>209</ele>
        <time>2011-08-28T07:35:36.000Z</time>
      </trkpt>
      <trkpt lat="44.03919" lon="1.92156">
        <ele>213</ele>
        <time>2011-08-28T07:35:46.000Z</time>
      </trkpt>
      <trkpt lat="44.03919" lon="1.92157">
        <ele>217</ele>
        <time>2011-08-28T07:35:57.000Z</time>
      </trkpt>
      <trkpt lat="44.03917" lon="1.92159">
        <ele>217</ele>
        <time>2011-08-28T07:36:08.000Z</time>
      </trkpt>
      <trkpt lat="44.03917" lon="1.92161">
        <ele>215</ele>
        <time>2011-08-28T07:36:18.000Z</time>
      </trkpt>
      <trkpt lat="44.03919" lon="1.92168">
        <ele>215</ele>
        <time>2011-08-28T07:36:28.000Z</time>
      </trkpt>
      <trkpt lat="44.03923" lon="1.92179">
        <ele>212</ele>
        <time>2011-08-28T07:36:39.000Z</time>
      </trkpt>
      <trkpt lat="44.03929" lon="1.92181">
        <ele>206</ele>
        <time>2011-08-28T07:36:49.000Z</time>
      </trkpt>
      <trkpt lat="44.03936" lon="1.92186">
        <ele>206</ele>
        <time>2011-08-28T07:37:00.000Z</time>
      </trkpt>
      <trkpt lat="44.03943" lon="1.9219">
        <ele>206</ele>
        <time>2011-08-28T07:37:10.000Z</time>
      </trkpt>
      <trkpt lat="44.0395" lon="1.92192">
        <ele>206</ele>
        <time>2011-08-28T07:37:20.000Z</time>
      </trkpt>
      <trkpt lat="44.03962" lon="1.92194">
        <ele>206</ele>
        <time>2011-08-28T07:37:31.000Z</time>
      </trkpt>
      <trkpt lat="44.03976" lon="1.92194">
        <ele>204</ele>
        <time>2011-08-28T07:37:42.000Z</time>
      </trkpt>
      <trkpt lat="44.03994" lon="1.92187">
        <ele>203</ele>
        <time>2011-08-28T07:37:52.000Z</time>
      </trkpt>
      <trkpt lat="44.04011" lon="1.92185">
        <ele>205</ele>
        <time>2011-08-28T07:38:02.000Z</time>
      </trkpt>
      <trkpt lat="44.04023" lon="1.92198">
        <ele>205</ele>
        <time>2011-08-28T07:38:12.000Z</time>
      </trkpt>
      <trkpt lat="44.04027" lon="1.92197">
        <ele>205</ele>
        <time>2011-08-28T07:38:22.000Z</time>
      </trkpt>
      <trkpt lat="44.0403" lon="1.92199">
        <ele>209</ele>
        <time>2011-08-28T07:38:32.000Z</time>
      </trkpt>
      <trkpt lat="44.04039" lon="1.92207">
        <ele>209</ele>
        <time>2011-08-28T07:38:42.000Z</time>
      </trkpt>
      <trkpt lat="44.04042" lon="1.92206">
        <ele>209</ele>
        <time>2011-08-28T07:38:52.000Z</time>
      </trkpt>
      <trkpt lat="44.0406" lon="1.92202">
        <ele>209</ele>
        <time>2011-08-28T07:39:02.000Z</time>
      </trkpt>
      <trkpt lat="44.04093" lon="1.92191">
        <ele>209</ele>
        <time>2011-08-28T07:39:12.000Z</time>
      </trkpt>
      <trkpt lat="44.04125" lon="1.92157">
        <ele>209</ele>
        <time>2011-08-28T07:39:22.000Z</time>
      </trkpt>
      <trkpt lat="44.04157" lon="1.92099">
        <ele>217</ele>
        <time>2011-08-28T07:39:32.000Z</time>
      </trkpt>
      <trkpt lat="44.04182" lon="1.92039">
        <ele>223</ele>
        <time>2011-08-28T07:39:42.000Z</time>
      </trkpt>
      <trkpt lat="44.04212" lon="1.91984">
        <ele>226</ele>
        <time>2011-08-28T07:39:52.000Z</time>
      </trkpt>
      <trkpt lat="44.04243" lon="1.91951">
        <ele>222</ele>
        <time>2011-08-28T07:40:02.000Z</time>
      </trkpt>
      <trkpt lat="44.04262" lon="1.91937">
        <ele>222</ele>
        <time>2011-08-28T07:40:12.000Z</time>
      </trkpt>
      <trkpt lat="44.04279" lon="1.91926">
        <ele>225</ele>
        <time>2011-08-28T07:40:22.000Z</time>
      </trkpt>
      <trkpt lat="44.04298" lon="1.91914">
        <ele>225</ele>
        <time>2011-08-28T07:40:32.000Z</time>
      </trkpt>
      <trkpt lat="44.04314" lon="1.91899">
        <ele>225</ele>
        <time>2011-08-28T07:40:42.000Z</time>
      </trkpt>
      <trkpt lat="44.04329" lon="1.91891">
        <ele>225</ele>
        <time>2011-08-28T07:40:52.000Z</time>
      </trkpt>
      <trkpt lat="44.04343" lon="1.91884">
        <ele>228</ele>
        <time>2011-08-28T07:41:02.000Z</time>
      </trkpt>
      <trkpt lat="44.04356" lon="1.91879">
        <ele>232</ele>
        <time>2011-08-28T07:41:13.000Z</time>
      </trkpt>
      <trkpt lat="44.04369" lon="1.91873">
        <ele>235</ele>
        <time>2011-08-28T07:41:23.000Z</time>
      </trkpt>
      <trkpt lat="44.04381" lon="1.91869">
        <ele>238</ele>
        <time>2011-08-28T07:41:33.000Z</time>
      </trkpt>
      <trkpt lat="44.04392" lon="1.91861">
        <ele>238</ele>
        <time>2011-08-28T07:41:43.000Z</time>
      </trkpt>
      <trkpt lat="44.04405" lon="1.91853">
        <ele>243</ele>
        <time>2011-08-28T07:41:53.000Z</time>
      </trkpt>
      <trkpt lat="44.04417" lon="1.91841">
        <ele>248</ele>
        <time>2011-08-28T07:42:03.000Z</time>
      </trkpt>
      <trkpt lat="44.04432" lon="1.91826">
        <ele>254</ele>
        <time>2011-08-28T07:42:13.000Z</time>
      </trkpt>
      <trkpt lat="44.04446" lon="1.91817">
        <ele>257</ele>
        <time>2011-08-28T07:42:23.000Z</time>
      </trkpt>
      <trkpt lat="44.04461" lon="1.91819">
        <ele>257</ele>
        <time>2011-08-28T07:42:33.000Z</time>
      </trkpt>
      <trkpt lat="44.04483" lon="1.91816">
        <ele>253</ele>
        <time>2011-08-28T07:42:43.000Z</time>
      </trkpt>
      <trkpt lat="44.04499" lon="1.91817">
        <ele>253</ele>
        <time>2011-08-28T07:42:53.000Z</time>
      </trkpt>
      <trkpt lat="44.04514" lon="1.91821">
        <ele>253</ele>
        <time>2011-08-28T07:43:03.000Z</time>
      </trkpt>
      <trkpt lat="44.04533" lon="1.91807">
        <ele>255</ele>
        <time>2011-08-28T07:43:13.000Z</time>
      </trkpt>
      <trkpt lat="44.04574" lon="1.91764">
        <ele>256</ele>
        <time>2011-08-28T07:43:23.000Z</time>
      </trkpt>
      <trkpt lat="44.04667" lon="1.91725">
        <ele>250</ele>
        <time>2011-08-28T07:43:33.000Z</time>
      </trkpt>
      <trkpt lat="44.04762" lon="1.91684">
        <ele>246</ele>
        <time>2011-08-28T07:43:43.000Z</time>
      </trkpt>
      <trkpt lat="44.04814" lon="1.91733">
        <ele>237</ele>
        <time>2011-08-28T07:43:53.000Z</time>
      </trkpt>
      <trkpt lat="44.04832" lon="1.91814">
        <ele>230</ele>
        <time>2011-08-28T07:44:03.000Z</time>
      </trkpt>
      <trkpt lat="44.04822" lon="1.91905">
        <ele>220</ele>
        <time>2011-08-28T07:44:13.000Z</time>
      </trkpt>
      <trkpt lat="44.04791" lon="1.91999">
        <ele>214</ele>
        <time>2011-08-28T07:44:23.000Z</time>
      </trkpt>
      <trkpt lat="44.04764" lon="1.92082">
        <ele>215</ele>
        <time>2011-08-28T07:44:33.000Z</time>
      </trkpt>
      <trkpt lat="44.04715" lon="1.92153">
        <ele>221</ele>
        <time>2011-08-28T07:44:43.000Z</time>
      </trkpt>
      <trkpt lat="44.04658" lon="1.92183">
        <ele>221</ele>
        <time>2011-08-28T07:44:53.000Z</time>
      </trkpt>
      <trkpt lat="44.04649" lon="1.92198">
        <ele>228</ele>
        <time>2011-08-28T07:45:03.000Z</time>
      </trkpt>
      <trkpt lat="44.04657" lon="1.92233">
        <ele>231</ele>
        <time>2011-08-28T07:45:13.000Z</time>
      </trkpt>
      <trkpt lat="44.04679" lon="1.92278">
        <ele>231</ele>
        <time>2011-08-28T07:45:23.000Z</time>
      </trkpt>
      <trkpt lat="44.04689" lon="1.92325">
        <ele>231</ele>
        <time>2011-08-28T07:45:33.000Z</time>
      </trkpt>
      <trkpt lat="44.04691" lon="1.92377">
        <ele>231</ele>
        <time>2011-08-28T07:45:43.000Z</time>
      </trkpt>
      <trkpt lat="44.04693" lon="1.9244">
        <ele>231</ele>
        <time>2011-08-28T07:45:53.000Z</time>
      </trkpt>
      <trkpt lat="44.04681" lon="1.92512">
        <ele>228</ele>
        <time>2011-08-28T07:46:03.000Z</time>
      </trkpt>
      <trkpt lat="44.04657" lon="1.92546">
        <ele>231</ele>
        <time>2011-08-28T07:46:13.000Z</time>
      </trkpt>
      <trkpt lat="44.04638" lon="1.92573">
        <ele>232</ele>
        <time>2011-08-28T07:46:23.000Z</time>
      </trkpt>
      <trkpt lat="44.04633" lon="1.92649">
        <ele>232</ele>
        <time>2011-08-28T07:46:33.000Z</time>
      </trkpt>
      <trkpt lat="44.04598" lon="1.92736">
        <ele>230</ele>
        <time>2011-08-28T07:46:43.000Z</time>
      </trkpt>
      <trkpt lat="44.04561" lon="1.92797">
        <ele>223</ele>
        <time>2011-08-28T07:46:53.000Z</time>
      </trkpt>
      <trkpt lat="44.04543" lon="1.92817">
        <ele>224</ele>
        <time>2011-08-28T07:47:03.000Z</time>
      </trkpt>
      <trkpt lat="44.04525" lon="1.92893">
        <ele>224</ele>
        <time>2011-08-28T07:47:13.000Z</time>
      </trkpt>
      <trkpt lat="44.04509" lon="1.92939">
        <ele>224</ele>
        <time>2011-08-28T07:47:23.000Z</time>
      </trkpt>
      <trkpt lat="44.0449" lon="1.92965">
        <ele>224</ele>
        <time>2011-08-28T07:47:33.000Z</time>
      </trkpt>
      <trkpt lat="44.04477" lon="1.92993">
        <ele>224</ele>
        <time>2011-08-28T07:47:43.000Z</time>
      </trkpt>
      <trkpt lat="44.04447" lon="1.93068">
        <ele>217</ele>
        <time>2011-08-28T07:47:53.000Z</time>
      </trkpt>
      <trkpt lat="44.04407" lon="1.93143">
        <ele>207</ele>
        <time>2011-08-28T07:48:03.000Z</time>
      </trkpt>
      <trkpt lat="44.04415" lon="1.93133">
        <ele>207</ele>
        <time>2011-08-28T07:48:15.000Z</time>
      </trkpt>
      <trkpt lat="44.04416" lon="1.93133">
        <ele>211</ele>
        <time>2011-08-28T07:48:29.000Z</time>
      </trkpt>
      <trkpt lat="44.04415" lon="1.93134">
        <ele>214</ele>
        <time>2011-08-28T07:48:52.000Z</time>
      </trkpt>
      <trkpt lat="44.04416" lon="1.93134">
        <ele>211</ele>
        <time>2011-08-28T07:49:24.000Z</time>
      </trkpt>
      <trkpt lat="44.04417" lon="1.93136">
        <ele>211</ele>
        <time>2011-08-28T07:49:51.000Z</time>
      </trkpt>
      <trkpt lat="44.04417" lon="1.93137">
        <ele>217</ele>
        <time>2011-08-28T07:50:16.000Z</time>
      </trkpt>
      <trkpt lat="44.04415" lon="1.93141">
        <ele>218</ele>
        <time>2011-08-28T07:50:26.000Z</time>
      </trkpt>
      <trkpt lat="44.04412" lon="1.93144">
        <ele>222</ele>
        <time>2011-08-28T07:50:38.000Z</time>
      </trkpt>
      <trkpt lat="44.04409" lon="1.93147">
        <ele>228</ele>
        <time>2011-08-28T07:50:51.000Z</time>
      </trkpt>
      <trkpt lat="44.04411" lon="1.93147">
        <ele>222</ele>
        <time>2011-08-28T07:51:29.000Z</time>
      </trkpt>
      <trkpt lat="44.04411" lon="1.93145">
        <ele>220</ele>
        <time>2011-08-28T07:51:40.000Z</time>
      </trkpt>
      <trkpt lat="44.04411" lon="1.93147">
        <ele>216</ele>
        <time>2011-08-28T07:52:26.000Z</time>
      </trkpt>
      <trkpt lat="44.0441" lon="1.93147">
        <ele>214</ele>
        <time>2011-08-28T07:52:37.000Z</time>
      </trkpt>
      <trkpt lat="44.04409" lon="1.93149">
        <ele>203</ele>
        <time>2011-08-28T07:52:55.000Z</time>
      </trkpt>
      <trkpt lat="44.04412" lon="1.93148">
        <ele>203</ele>
        <time>2011-08-28T07:53:05.000Z</time>
      </trkpt>
      <trkpt lat="44.04414" lon="1.93147">
        <ele>203</ele>
        <time>2011-08-28T07:53:18.000Z</time>
      </trkpt>
      <trkpt lat="44.04415" lon="1.93145">
        <ele>203</ele>
        <time>2011-08-28T07:53:30.000Z</time>
      </trkpt>
      <trkpt lat="44.04416" lon="1.93139">
        <ele>207</ele>
        <time>2011-08-28T07:53:40.000Z</time>
      </trkpt>
      <trkpt lat="44.04414" lon="1.93129">
        <ele>218</ele>
        <time>2011-08-28T07:53:52.000Z</time>
      </trkpt>
      <trkpt lat="44.04415" lon="1.93135">
        <ele>219</ele>
        <time>2011-08-28T07:54:03.000Z</time>
      </trkpt>
      <trkpt lat="44.04413" lon="1.93135">
        <ele>213</ele>
        <time>2011-08-28T07:54:18.000Z</time>
      </trkpt>
      <trkpt lat="44.04415" lon="1.93136">
        <ele>213</ele>
        <time>2011-08-28T07:54:28.000Z</time>
      </trkpt>
      <trkpt lat="44.04417" lon="1.93139">
        <ele>215</ele>
        <time>2011-08-28T07:54:41.000Z</time>
      </trkpt>
      <trkpt lat="44.04419" lon="1.93142">
        <ele>215</ele>
        <time>2011-08-28T07:54:51.000Z</time>
      </trkpt>
      <trkpt lat="44.04421" lon="1.9314">
        <ele>212</ele>
        <time>2011-08-28T07:55:02.000Z</time>
      </trkpt>
      <trkpt lat="44.04427" lon="1.93145">
        <ele>209</ele>
        <time>2011-08-28T07:55:12.000Z</time>
      </trkpt>
      <trkpt lat="44.0444" lon="1.93157">
        <ele>209</ele>
        <time>2011-08-28T07:55:22.000Z</time>
      </trkpt>
      <trkpt lat="44.04452" lon="1.93188">
        <ele>209</ele>
        <time>2011-08-28T07:55:32.000Z</time>
      </trkpt>
      <trkpt lat="44.04454" lon="1.93222">
        <ele>209</ele>
        <time>2011-08-28T07:55:42.000Z</time>
      </trkpt>
      <trkpt lat="44.04449" lon="1.93248">
        <ele>209</ele>
        <time>2011-08-28T07:55:52.000Z</time>
      </trkpt>
      <trkpt lat="44.04442" lon="1.9329">
        <ele>209</ele>
        <time>2011-08-28T07:56:02.000Z</time>
      </trkpt>
      <trkpt lat="44.04429" lon="1.93334">
        <ele>209</ele>
        <time>2011-08-28T07:56:12.000Z</time>
      </trkpt>
      <trkpt lat="44.04395" lon="1.93373">
        <ele>208</ele>
        <time>2011-08-28T07:56:22.000Z</time>
      </trkpt>
      <trkpt lat="44.04433" lon="1.93389">
        <ele>207</ele>
        <time>2011-08-28T07:56:32.000Z</time>
      </trkpt>
      <trkpt lat="44.04499" lon="1.93434">
        <ele>199</ele>
        <time>2011-08-28T07:56:42.000Z</time>
      </trkpt>
      <trkpt lat="44.04563" lon="1.93467">
        <ele>198</ele>
        <time>2011-08-28T07:56:52.000Z</time>
      </trkpt>
      <trkpt lat="44.04589" lon="1.93483">
        <ele>196</ele>
        <time>2011-08-28T07:57:02.000Z</time>
      </trkpt>
      <trkpt lat="44.04592" lon="1.93522">
        <ele>196</ele>
        <time>2011-08-28T07:57:12.000Z</time>
      </trkpt>
      <trkpt lat="44.0459" lon="1.9356">
        <ele>196</ele>
        <time>2011-08-28T07:57:22.000Z</time>
      </trkpt>
      <trkpt lat="44.04589" lon="1.93601">
        <ele>196</ele>
        <time>2011-08-28T07:57:32.000Z</time>
      </trkpt>
      <trkpt lat="44.04588" lon="1.93644">
        <ele>196</ele>
        <time>2011-08-28T07:57:42.000Z</time>
      </trkpt>
      <trkpt lat="44.04588" lon="1.93682">
        <ele>196</ele>
        <time>2011-08-28T07:57:52.000Z</time>
      </trkpt>
      <trkpt lat="44.04586" lon="1.9372">
        <ele>196</ele>
        <time>2011-08-28T07:58:02.000Z</time>
      </trkpt>
      <trkpt lat="44.04599" lon="1.93754">
        <ele>197</ele>
        <time>2011-08-28T07:58:12.000Z</time>
      </trkpt>
      <trkpt lat="44.04601" lon="1.93793">
        <ele>199</ele>
        <time>2011-08-28T07:58:22.000Z</time>
      </trkpt>
      <trkpt lat="44.04609" lon="1.938">
        <ele>202</ele>
        <time>2011-08-28T07:58:32.000Z</time>
      </trkpt>
      <trkpt lat="44.04619" lon="1.93812">
        <ele>204</ele>
        <time>2011-08-28T07:58:42.000Z</time>
      </trkpt>
      <trkpt lat="44.04622" lon="1.93832">
        <ele>204</ele>
        <time>2011-08-28T07:58:52.000Z</time>
      </trkpt>
      <trkpt lat="44.04619" lon="1.93848">
        <ele>204</ele>
        <time>2011-08-28T07:59:02.000Z</time>
      </trkpt>
      <trkpt lat="44.04616" lon="1.93859">
        <ele>209</ele>
        <time>2011-08-28T07:59:12.000Z</time>
      </trkpt>
      <trkpt lat="44.04613" lon="1.93871">
        <ele>212</ele>
        <time>2011-08-28T07:59:22.000Z</time>
      </trkpt>
      <trkpt lat="44.04612" lon="1.93881">
        <ele>214</ele>
        <time>2011-08-28T07:59:32.000Z</time>
      </trkpt>
      <trkpt lat="44.04611" lon="1.93892">
        <ele>215</ele>
        <time>2011-08-28T07:59:42.000Z</time>
      </trkpt>
      <trkpt lat="44.04612" lon="1.93904">
        <ele>217</ele>
        <time>2011-08-28T07:59:52.000Z</time>
      </trkpt>
      <trkpt lat="44.04611" lon="1.93917">
        <ele>218</ele>
        <time>2011-08-28T08:00:02.000Z</time>
      </trkpt>
      <trkpt lat="44.0461" lon="1.93934">
        <ele>223</ele>
        <time>2011-08-28T08:00:12.000Z</time>
      </trkpt>
      <trkpt lat="44.04608" lon="1.93949">
        <ele>225</ele>
        <time>2011-08-28T08:00:23.000Z</time>
      </trkpt>
      <trkpt lat="44.04607" lon="1.93962">
        <ele>225</ele>
        <time>2011-08-28T08:00:34.000Z</time>
      </trkpt>
      <trkpt lat="44.04607" lon="1.93977">
        <ele>225</ele>
        <time>2011-08-28T08:00:44.000Z</time>
      </trkpt>
      <trkpt lat="44.04606" lon="1.93984">
        <ele>228</ele>
        <time>2011-08-28T08:00:54.000Z</time>
      </trkpt>
      <trkpt lat="44.04602" lon="1.94">
        <ele>234</ele>
        <time>2011-08-28T08:01:04.000Z</time>
      </trkpt>
      <trkpt lat="44.04605" lon="1.9402">
        <ele>239</ele>
        <time>2011-08-28T08:01:14.000Z</time>
      </trkpt>
      <trkpt lat="44.04603" lon="1.94031">
        <ele>240</ele>
        <time>2011-08-28T08:01:30.000Z</time>
      </trkpt>
      <trkpt lat="44.04601" lon="1.94029">
        <ele>240</ele>
        <time>2011-08-28T08:01:57.000Z</time>
      </trkpt>
      <trkpt lat="44.046" lon="1.9403">
        <ele>241</ele>
        <time>2011-08-28T08:02:09.000Z</time>
      </trkpt>
      <trkpt lat="44.04604" lon="1.94054">
        <ele>241</ele>
        <time>2011-08-28T08:02:19.000Z</time>
      </trkpt>
      <trkpt lat="44.04608" lon="1.94083">
        <ele>241</ele>
        <time>2011-08-28T08:02:29.000Z</time>
      </trkpt>
      <trkpt lat="44.04614" lon="1.94107">
        <ele>241</ele>
        <time>2011-08-28T08:02:39.000Z</time>
      </trkpt>
      <trkpt lat="44.04616" lon="1.94132">
        <ele>241</ele>
        <time>2011-08-28T08:02:49.000Z</time>
      </trkpt>
      <trkpt lat="44.04615" lon="1.94157">
        <ele>241</ele>
        <time>2011-08-28T08:02:59.000Z</time>
      </trkpt>
      <trkpt lat="44.04617" lon="1.94177">
        <ele>242</ele>
        <time>2011-08-28T08:03:09.000Z</time>
      </trkpt>
      <trkpt lat="44.04622" lon="1.94197">
        <ele>244</ele>
        <time>2011-08-28T08:03:19.000Z</time>
      </trkpt>
      <trkpt lat="44.04623" lon="1.94217">
        <ele>247</ele>
        <time>2011-08-28T08:03:29.000Z</time>
      </trkpt>
      <trkpt lat="44.04615" lon="1.94239">
        <ele>247</ele>
        <time>2011-08-28T08:03:39.000Z</time>
      </trkpt>
      <trkpt lat="44.04607" lon="1.94253">
        <ele>247</ele>
        <time>2011-08-28T08:03:49.000Z</time>
      </trkpt>
      <trkpt lat="44.04597" lon="1.94267">
        <ele>253</ele>
        <time>2011-08-28T08:03:59.000Z</time>
      </trkpt>
      <trkpt lat="44.04581" lon="1.94271">
        <ele>257</ele>
        <time>2011-08-28T08:04:10.000Z</time>
      </trkpt>
      <trkpt lat="44.04567" lon="1.94275">
        <ele>258</ele>
        <time>2011-08-28T08:04:20.000Z</time>
      </trkpt>
      <trkpt lat="44.04552" lon="1.94277">
        <ele>258</ele>
        <time>2011-08-28T08:04:30.000Z</time>
      </trkpt>
      <trkpt lat="44.04538" lon="1.9428">
        <ele>258</ele>
        <time>2011-08-28T08:04:40.000Z</time>
      </trkpt>
      <trkpt lat="44.04523" lon="1.94284">
        <ele>258</ele>
        <time>2011-08-28T08:04:50.000Z</time>
      </trkpt>
      <trkpt lat="44.04506" lon="1.94289">
        <ele>258</ele>
        <time>2011-08-28T08:05:00.000Z</time>
      </trkpt>
      <trkpt lat="44.04497" lon="1.94303">
        <ele>258</ele>
        <time>2011-08-28T08:05:10.000Z</time>
      </trkpt>
      <trkpt lat="44.04491" lon="1.94321">
        <ele>260</ele>
        <time>2011-08-28T08:05:20.000Z</time>
      </trkpt>
      <trkpt lat="44.0449" lon="1.94343">
        <ele>267</ele>
        <time>2011-08-28T08:05:30.000Z</time>
      </trkpt>
      <trkpt lat="44.0449" lon="1.94367">
        <ele>271</ele>
        <time>2011-08-28T08:05:40.000Z</time>
      </trkpt>
      <trkpt lat="44.04488" lon="1.9439">
        <ele>271</ele>
        <time>2011-08-28T08:05:50.000Z</time>
      </trkpt>
      <trkpt lat="44.04487" lon="1.94413">
        <ele>275</ele>
        <time>2011-08-28T08:06:00.000Z</time>
      </trkpt>
      <trkpt lat="44.04482" lon="1.94435">
        <ele>276</ele>
        <time>2011-08-28T08:06:10.000Z</time>
      </trkpt>
      <trkpt lat="44.04482" lon="1.94456">
        <ele>277</ele>
        <time>2011-08-28T08:06:20.000Z</time>
      </trkpt>
      <trkpt lat="44.04486" lon="1.94476">
        <ele>281</ele>
        <time>2011-08-28T08:06:30.000Z</time>
      </trkpt>
      <trkpt lat="44.04486" lon="1.94495">
        <ele>287</ele>
        <time>2011-08-28T08:06:40.000Z</time>
      </trkpt>
      <trkpt lat="44.04493" lon="1.94512">
        <ele>287</ele>
        <time>2011-08-28T08:06:50.000Z</time>
      </trkpt>
      <trkpt lat="44.04493" lon="1.94538">
        <ele>287</ele>
        <time>2011-08-28T08:07:00.000Z</time>
      </trkpt>
      <trkpt lat="44.04481" lon="1.94557">
        <ele>288</ele>
        <time>2011-08-28T08:07:10.000Z</time>
      </trkpt>
      <trkpt lat="44.04461" lon="1.94581">
        <ele>287</ele>
        <time>2011-08-28T08:07:20.000Z</time>
      </trkpt>
      <trkpt lat="44.04459" lon="1.94613">
        <ele>283</ele>
        <time>2011-08-28T08:07:30.000Z</time>
      </trkpt>
      <trkpt lat="44.04441" lon="1.94644">
        <ele>283</ele>
        <time>2011-08-28T08:07:40.000Z</time>
      </trkpt>
      <trkpt lat="44.04428" lon="1.94674">
        <ele>283</ele>
        <time>2011-08-28T08:07:50.000Z</time>
      </trkpt>
      <trkpt lat="44.04413" lon="1.94691">
        <ele>280</ele>
        <time>2011-08-28T08:08:00.000Z</time>
      </trkpt>
      <trkpt lat="44.04394" lon="1.94724">
        <ele>276</ele>
        <time>2011-08-28T08:08:10.000Z</time>
      </trkpt>
      <trkpt lat="44.0439" lon="1.94748">
        <ele>276</ele>
        <time>2011-08-28T08:08:20.000Z</time>
      </trkpt>
      <trkpt lat="44.0438" lon="1.94775">
        <ele>276</ele>
        <time>2011-08-28T08:08:30.000Z</time>
      </trkpt>
      <trkpt lat="44.04386" lon="1.94805">
        <ele>276</ele>
        <time>2011-08-28T08:08:40.000Z</time>
      </trkpt>
      <trkpt lat="44.04384" lon="1.94826">
        <ele>276</ele>
        <time>2011-08-28T08:08:50.000Z</time>
      </trkpt>
      <trkpt lat="44.04381" lon="1.94835">
        <ele>276</ele>
        <time>2011-08-28T08:09:03.000Z</time>
      </trkpt>
      <trkpt lat="44.04383" lon="1.94844">
        <ele>274</ele>
        <time>2011-08-28T08:09:13.000Z</time>
      </trkpt>
      <trkpt lat="44.04392" lon="1.94847">
        <ele>274</ele>
        <time>2011-08-28T08:09:23.000Z</time>
      </trkpt>
      <trkpt lat="44.04392" lon="1.94862">
        <ele>275</ele>
        <time>2011-08-28T08:09:34.000Z</time>
      </trkpt>
      <trkpt lat="44.0439" lon="1.94885">
        <ele>275</ele>
        <time>2011-08-28T08:09:44.000Z</time>
      </trkpt>
      <trkpt lat="44.04399" lon="1.94898">
        <ele>275</ele>
        <time>2011-08-28T08:09:54.000Z</time>
      </trkpt>
      <trkpt lat="44.04406" lon="1.94921">
        <ele>275</ele>
        <time>2011-08-28T08:10:04.000Z</time>
      </trkpt>
      <trkpt lat="44.04415" lon="1.94939">
        <ele>284</ele>
        <time>2011-08-28T08:10:16.000Z</time>
      </trkpt>
      <trkpt lat="44.04419" lon="1.94939">
        <ele>286</ele>
        <time>2011-08-28T08:10:26.000Z</time>
      </trkpt>
      <trkpt lat="44.04422" lon="1.94932">
        <ele>286</ele>
        <time>2011-08-28T08:10:36.000Z</time>
      </trkpt>
      <trkpt lat="44.04422" lon="1.94925">
        <ele>284</ele>
        <time>2011-08-28T08:11:00.000Z</time>
      </trkpt>
      <trkpt lat="44.04423" lon="1.94928">
        <ele>284</ele>
        <time>2011-08-28T08:11:12.000Z</time>
      </trkpt>
      <trkpt lat="44.04424" lon="1.9493">
        <ele>288</ele>
        <time>2011-08-28T08:11:23.000Z</time>
      </trkpt>
      <trkpt lat="44.04425" lon="1.94933">
        <ele>291</ele>
        <time>2011-08-28T08:11:49.000Z</time>
      </trkpt>
      <trkpt lat="44.04418" lon="1.94952">
        <ele>290</ele>
        <time>2011-08-28T08:11:59.000Z</time>
      </trkpt>
      <trkpt lat="44.04428" lon="1.9497">
        <ele>287</ele>
        <time>2011-08-28T08:12:09.000Z</time>
      </trkpt>
      <trkpt lat="44.04439" lon="1.94988">
        <ele>287</ele>
        <time>2011-08-28T08:12:19.000Z</time>
      </trkpt>
      <trkpt lat="44.04434" lon="1.95021">
        <ele>285</ele>
        <time>2011-08-28T08:12:29.000Z</time>
      </trkpt>
      <trkpt lat="44.04426" lon="1.95053">
        <ele>284</ele>
        <time>2011-08-28T08:12:39.000Z</time>
      </trkpt>
      <trkpt lat="44.04409" lon="1.95087">
        <ele>284</ele>
        <time>2011-08-28T08:12:49.000Z</time>
      </trkpt>
      <trkpt lat="44.04408" lon="1.95119">
        <ele>284</ele>
        <time>2011-08-28T08:12:59.000Z</time>
      </trkpt>
      <trkpt lat="44.04409" lon="1.95158">
        <ele>284</ele>
        <time>2011-08-28T08:13:09.000Z</time>
      </trkpt>
      <trkpt lat="44.04404" lon="1.95199">
        <ele>280</ele>
        <time>2011-08-28T08:13:19.000Z</time>
      </trkpt>
      <trkpt lat="44.04405" lon="1.95257">
        <ele>280</ele>
        <time>2011-08-28T08:13:29.000Z</time>
      </trkpt>
      <trkpt lat="44.04405" lon="1.95304">
        <ele>280</ele>
        <time>2011-08-28T08:13:39.000Z</time>
      </trkpt>
      <trkpt lat="44.04403" lon="1.95344">
        <ele>280</ele>
        <time>2011-08-28T08:13:49.000Z</time>
      </trkpt>
      <trkpt lat="44.04398" lon="1.95391">
        <ele>280</ele>
        <time>2011-08-28T08:13:59.000Z</time>
      </trkpt>
      <trkpt lat="44.04395" lon="1.95438">
        <ele>280</ele>
        <time>2011-08-28T08:14:09.000Z</time>
      </trkpt>
      <trkpt lat="44.0439" lon="1.95481">
        <ele>280</ele>
        <time>2011-08-28T08:14:19.000Z</time>
      </trkpt>
      <trkpt lat="44.04386" lon="1.9552">
        <ele>281</ele>
        <time>2011-08-28T08:14:29.000Z</time>
      </trkpt>
      <trkpt lat="44.04396" lon="1.95535">
        <ele>282</ele>
        <time>2011-08-28T08:14:39.000Z</time>
      </trkpt>
      <trkpt lat="44.04417" lon="1.95544">
        <ele>286</ele>
        <time>2011-08-28T08:14:49.000Z</time>
      </trkpt>
      <trkpt lat="44.04442" lon="1.95554">
        <ele>288</ele>
        <time>2011-08-28T08:14:59.000Z</time>
      </trkpt>
      <trkpt lat="44.04464" lon="1.95563">
        <ele>289</ele>
        <time>2011-08-28T08:15:09.000Z</time>
      </trkpt>
      <trkpt lat="44.04487" lon="1.9557">
        <ele>289</ele>
        <time>2011-08-28T08:15:19.000Z</time>
      </trkpt>
      <trkpt lat="44.04514" lon="1.95593">
        <ele>289</ele>
        <time>2011-08-28T08:15:29.000Z</time>
      </trkpt>
      <trkpt lat="44.04539" lon="1.95616">
        <ele>289</ele>
        <time>2011-08-28T08:15:39.000Z</time>
      </trkpt>
      <trkpt lat="44.04565" lon="1.95639">
        <ele>289</ele>
        <time>2011-08-28T08:15:49.000Z</time>
      </trkpt>
      <trkpt lat="44.04595" lon="1.9567">
        <ele>289</ele>
        <time>2011-08-28T08:15:59.000Z</time>
      </trkpt>
      <trkpt lat="44.04632" lon="1.95708">
        <ele>289</ele>
        <time>2011-08-28T08:16:09.000Z</time>
      </trkpt>
      <trkpt lat="44.04668" lon="1.95752">
        <ele>289</ele>
        <time>2011-08-28T08:16:19.000Z</time>
      </trkpt>
      <trkpt lat="44.04709" lon="1.95808">
        <ele>289</ele>
        <time>2011-08-28T08:16:29.000Z</time>
      </trkpt>
      <trkpt lat="44.04767" lon="1.95899">
        <ele>284</ele>
        <time>2011-08-28T08:16:39.000Z</time>
      </trkpt>
      <trkpt lat="44.04834" lon="1.95897">
        <ele>284</ele>
        <time>2011-08-28T08:16:49.000Z</time>
      </trkpt>
      <trkpt lat="44.0486" lon="1.95894">
        <ele>292</ele>
        <time>2011-08-28T08:16:59.000Z</time>
      </trkpt>
      <trkpt lat="44.04878" lon="1.95893">
        <ele>296</ele>
        <time>2011-08-28T08:17:09.000Z</time>
      </trkpt>
      <trkpt lat="44.04896" lon="1.95887">
        <ele>296</ele>
        <time>2011-08-28T08:17:19.000Z</time>
      </trkpt>
      <trkpt lat="44.04914" lon="1.95882">
        <ele>296</ele>
        <time>2011-08-28T08:17:29.000Z</time>
      </trkpt>
      <trkpt lat="44.04933" lon="1.95883">
        <ele>297</ele>
        <time>2011-08-28T08:17:40.000Z</time>
      </trkpt>
      <trkpt lat="44.04952" lon="1.95884">
        <ele>299</ele>
        <time>2011-08-28T08:17:50.000Z</time>
      </trkpt>
      <trkpt lat="44.04971" lon="1.95868">
        <ele>301</ele>
        <time>2011-08-28T08:18:00.000Z</time>
      </trkpt>
      <trkpt lat="44.04998" lon="1.95848">
        <ele>302</ele>
        <time>2011-08-28T08:18:10.000Z</time>
      </trkpt>
      <trkpt lat="44.05027" lon="1.9582">
        <ele>302</ele>
        <time>2011-08-28T08:18:20.000Z</time>
      </trkpt>
      <trkpt lat="44.05059" lon="1.95789">
        <ele>302</ele>
        <time>2011-08-28T08:18:30.000Z</time>
      </trkpt>
      <trkpt lat="44.05112" lon="1.95769">
        <ele>302</ele>
        <time>2011-08-28T08:18:40.000Z</time>
      </trkpt>
      <trkpt lat="44.05183" lon="1.95749">
        <ele>296</ele>
        <time>2011-08-28T08:18:50.000Z</time>
      </trkpt>
      <trkpt lat="44.05249" lon="1.95756">
        <ele>293</ele>
        <time>2011-08-28T08:19:00.000Z</time>
      </trkpt>
      <trkpt lat="44.05313" lon="1.95799">
        <ele>287</ele>
        <time>2011-08-28T08:19:10.000Z</time>
      </trkpt>
      <trkpt lat="44.05379" lon="1.9584">
        <ele>277</ele>
        <time>2011-08-28T08:19:20.000Z</time>
      </trkpt>
      <trkpt lat="44.05425" lon="1.95893">
        <ele>265</ele>
        <time>2011-08-28T08:19:30.000Z</time>
      </trkpt>
      <trkpt lat="44.05484" lon="1.95898">
        <ele>247</ele>
        <time>2011-08-28T08:19:40.000Z</time>
      </trkpt>
      <trkpt lat="44.05544" lon="1.95889">
        <ele>234</ele>
        <time>2011-08-28T08:19:50.000Z</time>
      </trkpt>
      <trkpt lat="44.05605" lon="1.95888">
        <ele>224</ele>
        <time>2011-08-28T08:20:00.000Z</time>
      </trkpt>
      <trkpt lat="44.05695" lon="1.95892">
        <ele>213</ele>
        <time>2011-08-28T08:20:11.000Z</time>
      </trkpt>
      <trkpt lat="44.05784" lon="1.95883">
        <ele>202</ele>
        <time>2011-08-28T08:20:22.000Z</time>
      </trkpt>
      <trkpt lat="44.05854" lon="1.95845">
        <ele>192</ele>
        <time>2011-08-28T08:20:32.000Z</time>
      </trkpt>
      <trkpt lat="44.05941" lon="1.958">
        <ele>186</ele>
        <time>2011-08-28T08:20:42.000Z</time>
      </trkpt>
      <trkpt lat="44.05982" lon="1.95743">
        <ele>181</ele>
        <time>2011-08-28T08:20:52.000Z</time>
      </trkpt>
      <trkpt lat="44.05967" lon="1.95718">
        <ele>181</ele>
        <time>2011-08-28T08:21:02.000Z</time>
      </trkpt>
      <trkpt lat="44.05952" lon="1.95679">
        <ele>181</ele>
        <time>2011-08-28T08:21:13.000Z</time>
      </trkpt>
      <trkpt lat="44.05935" lon="1.95621">
        <ele>181</ele>
        <time>2011-08-28T08:21:23.000Z</time>
      </trkpt>
      <trkpt lat="44.0591" lon="1.95561">
        <ele>181</ele>
        <time>2011-08-28T08:21:34.000Z</time>
      </trkpt>
      <trkpt lat="44.05893" lon="1.95504">
        <ele>181</ele>
        <time>2011-08-28T08:21:44.000Z</time>
      </trkpt>
      <trkpt lat="44.05874" lon="1.95442">
        <ele>181</ele>
        <time>2011-08-28T08:21:55.000Z</time>
      </trkpt>
      <trkpt lat="44.0585" lon="1.95392">
        <ele>181</ele>
        <time>2011-08-28T08:22:05.000Z</time>
      </trkpt>
      <trkpt lat="44.0583" lon="1.95324">
        <ele>182</ele>
        <time>2011-08-28T08:22:16.000Z</time>
      </trkpt>
      <trkpt lat="44.05828" lon="1.95262">
        <ele>183</ele>
        <time>2011-08-28T08:22:27.000Z</time>
      </trkpt>
      <trkpt lat="44.05837" lon="1.95176">
        <ele>183</ele>
        <time>2011-08-28T08:22:38.000Z</time>
      </trkpt>
      <trkpt lat="44.05832" lon="1.95091">
        <ele>182</ele>
        <time>2011-08-28T08:22:48.000Z</time>
      </trkpt>
      <trkpt lat="44.0587" lon="1.95079">
        <ele>182</ele>
        <time>2011-08-28T08:22:58.000Z</time>
      </trkpt>
      <trkpt lat="44.0594" lon="1.95092">
        <ele>182</ele>
        <time>2011-08-28T08:23:08.000Z</time>
      </trkpt>
      <trkpt lat="44.0603" lon="1.95121">
        <ele>178</ele>
        <time>2011-08-28T08:23:19.000Z</time>
      </trkpt>
      <trkpt lat="44.0607" lon="1.9514">
        <ele>178</ele>
        <time>2011-08-28T08:23:29.000Z</time>
      </trkpt>
      <trkpt lat="44.06095" lon="1.95152">
        <ele>183</ele>
        <time>2011-08-28T08:23:39.000Z</time>
      </trkpt>
      <trkpt lat="44.06113" lon="1.95144">
        <ele>188</ele>
        <time>2011-08-28T08:23:49.000Z</time>
      </trkpt>
      <trkpt lat="44.06119" lon="1.95122">
        <ele>192</ele>
        <time>2011-08-28T08:23:59.000Z</time>
      </trkpt>
      <trkpt lat="44.06126" lon="1.95097">
        <ele>198</ele>
        <time>2011-08-28T08:24:09.000Z</time>
      </trkpt>
      <trkpt lat="44.06141" lon="1.95076">
        <ele>198</ele>
        <time>2011-08-28T08:24:20.000Z</time>
      </trkpt>
      <trkpt lat="44.06154" lon="1.95058">
        <ele>197</ele>
        <time>2011-08-28T08:24:30.000Z</time>
      </trkpt>
      <trkpt lat="44.06167" lon="1.95041">
        <ele>197</ele>
        <time>2011-08-28T08:24:40.000Z</time>
      </trkpt>
      <trkpt lat="44.06175" lon="1.95025">
        <ele>197</ele>
        <time>2011-08-28T08:24:50.000Z</time>
      </trkpt>
      <trkpt lat="44.06178" lon="1.95006">
        <ele>203</ele>
        <time>2011-08-28T08:25:00.000Z</time>
      </trkpt>
      <trkpt lat="44.06181" lon="1.94984">
        <ele>208</ele>
        <time>2011-08-28T08:25:10.000Z</time>
      </trkpt>
      <trkpt lat="44.06184" lon="1.94962">
        <ele>209</ele>
        <time>2011-08-28T08:25:20.000Z</time>
      </trkpt>
      <trkpt lat="44.06186" lon="1.94937">
        <ele>213</ele>
        <time>2011-08-28T08:25:30.000Z</time>
      </trkpt>
      <trkpt lat="44.0619" lon="1.94914">
        <ele>215</ele>
        <time>2011-08-28T08:25:40.000Z</time>
      </trkpt>
      <trkpt lat="44.06197" lon="1.94888">
        <ele>216</ele>
        <time>2011-08-28T08:25:51.000Z</time>
      </trkpt>
      <trkpt lat="44.06209" lon="1.94862">
        <ele>216</ele>
        <time>2011-08-28T08:26:01.000Z</time>
      </trkpt>
      <trkpt lat="44.06224" lon="1.94831">
        <ele>216</ele>
        <time>2011-08-28T08:26:11.000Z</time>
      </trkpt>
      <trkpt lat="44.06239" lon="1.94806">
        <ele>216</ele>
        <time>2011-08-28T08:26:21.000Z</time>
      </trkpt>
      <trkpt lat="44.06245" lon="1.94829">
        <ele>217</ele>
        <time>2011-08-28T08:26:31.000Z</time>
      </trkpt>
      <trkpt lat="44.06241" lon="1.94852">
        <ele>217</ele>
        <time>2011-08-28T08:26:42.000Z</time>
      </trkpt>
      <trkpt lat="44.06241" lon="1.94877">
        <ele>218</ele>
        <time>2011-08-28T08:26:52.000Z</time>
      </trkpt>
      <trkpt lat="44.06241" lon="1.949">
        <ele>221</ele>
        <time>2011-08-28T08:27:02.000Z</time>
      </trkpt>
      <trkpt lat="44.06243" lon="1.94923">
        <ele>224</ele>
        <time>2011-08-28T08:27:12.000Z</time>
      </trkpt>
      <trkpt lat="44.06246" lon="1.94946">
        <ele>225</ele>
        <time>2011-08-28T08:27:22.000Z</time>
      </trkpt>
      <trkpt lat="44.06253" lon="1.94936">
        <ele>227</ele>
        <time>2011-08-28T08:27:32.000Z</time>
      </trkpt>
      <trkpt lat="44.06263" lon="1.9492">
        <ele>231</ele>
        <time>2011-08-28T08:27:42.000Z</time>
      </trkpt>
      <trkpt lat="44.06274" lon="1.94899">
        <ele>235</ele>
        <time>2011-08-28T08:27:52.000Z</time>
      </trkpt>
      <trkpt lat="44.06286" lon="1.94877">
        <ele>236</ele>
        <time>2011-08-28T08:28:02.000Z</time>
      </trkpt>
      <trkpt lat="44.06294" lon="1.94851">
        <ele>238</ele>
        <time>2011-08-28T08:28:12.000Z</time>
      </trkpt>
      <trkpt lat="44.06305" lon="1.94825">
        <ele>239</ele>
        <time>2011-08-28T08:28:22.000Z</time>
      </trkpt>
      <trkpt lat="44.06323" lon="1.94813">
        <ele>242</ele>
        <time>2011-08-28T08:28:32.000Z</time>
      </trkpt>
      <trkpt lat="44.06342" lon="1.94801">
        <ele>243</ele>
        <time>2011-08-28T08:28:42.000Z</time>
      </trkpt>
      <trkpt lat="44.0636" lon="1.94798">
        <ele>246</ele>
        <time>2011-08-28T08:28:52.000Z</time>
      </trkpt>
      <trkpt lat="44.06394" lon="1.948">
        <ele>247</ele>
        <time>2011-08-28T08:29:02.000Z</time>
      </trkpt>
      <trkpt lat="44.06441" lon="1.9481">
        <ele>239</ele>
        <time>2011-08-28T08:29:12.000Z</time>
      </trkpt>
      <trkpt lat="44.06428" lon="1.94751">
        <ele>230</ele>
        <time>2011-08-28T08:29:22.000Z</time>
      </trkpt>
      <trkpt lat="44.06364" lon="1.94718">
        <ele>225</ele>
        <time>2011-08-28T08:29:32.000Z</time>
      </trkpt>
      <trkpt lat="44.06324" lon="1.9465">
        <ele>218</ele>
        <time>2011-08-28T08:29:42.000Z</time>
      </trkpt>
      <trkpt lat="44.06322" lon="1.94534">
        <ele>207</ele>
        <time>2011-08-28T08:29:52.000Z</time>
      </trkpt>
      <trkpt lat="44.06303" lon="1.94453">
        <ele>190</ele>
        <time>2011-08-28T08:30:02.000Z</time>
      </trkpt>
      <trkpt lat="44.06281" lon="1.94386">
        <ele>177</ele>
        <time>2011-08-28T08:30:12.000Z</time>
      </trkpt>
      <trkpt lat="44.06269" lon="1.94289">
        <ele>170</ele>
        <time>2011-08-28T08:30:22.000Z</time>
      </trkpt>
      <trkpt lat="44.06236" lon="1.94232">
        <ele>169</ele>
        <time>2011-08-28T08:30:32.000Z</time>
      </trkpt>
      <trkpt lat="44.06238" lon="1.94177">
        <ele>169</ele>
        <time>2011-08-28T08:30:42.000Z</time>
      </trkpt>
      <trkpt lat="44.06285" lon="1.94132">
        <ele>169</ele>
        <time>2011-08-28T08:30:52.000Z</time>
      </trkpt>
      <trkpt lat="44.06292" lon="1.94086">
        <ele>171</ele>
        <time>2011-08-28T08:31:02.000Z</time>
      </trkpt>
      <trkpt lat="44.06279" lon="1.94047">
        <ele>174</ele>
        <time>2011-08-28T08:31:12.000Z</time>
      </trkpt>
      <trkpt lat="44.06262" lon="1.94012">
        <ele>184</ele>
        <time>2011-08-28T08:31:22.000Z</time>
      </trkpt>
      <trkpt lat="44.06251" lon="1.93978">
        <ele>191</ele>
        <time>2011-08-28T08:31:32.000Z</time>
      </trkpt>
      <trkpt lat="44.06249" lon="1.93951">
        <ele>194</ele>
        <time>2011-08-28T08:31:42.000Z</time>
      </trkpt>
      <trkpt lat="44.06246" lon="1.93925">
        <ele>196</ele>
        <time>2011-08-28T08:31:52.000Z</time>
      </trkpt>
      <trkpt lat="44.06248" lon="1.93898">
        <ele>201</ele>
        <time>2011-08-28T08:32:02.000Z</time>
      </trkpt>
      <trkpt lat="44.06257" lon="1.93875">
        <ele>202</ele>
        <time>2011-08-28T08:32:12.000Z</time>
      </trkpt>
      <trkpt lat="44.06265" lon="1.93849">
        <ele>201</ele>
        <time>2011-08-28T08:32:22.000Z</time>
      </trkpt>
      <trkpt lat="44.06279" lon="1.93821">
        <ele>197</ele>
        <time>2011-08-28T08:32:32.000Z</time>
      </trkpt>
      <trkpt lat="44.06296" lon="1.93798">
        <ele>196</ele>
        <time>2011-08-28T08:32:42.000Z</time>
      </trkpt>
      <trkpt lat="44.06316" lon="1.9377">
        <ele>193</ele>
        <time>2011-08-28T08:32:52.000Z</time>
      </trkpt>
      <trkpt lat="44.06339" lon="1.93738">
        <ele>192</ele>
        <time>2011-08-28T08:33:02.000Z</time>
      </trkpt>
      <trkpt lat="44.06342" lon="1.93698">
        <ele>192</ele>
        <time>2011-08-28T08:33:12.000Z</time>
      </trkpt>
      <trkpt lat="44.06341" lon="1.93658">
        <ele>192</ele>
        <time>2011-08-28T08:33:22.000Z</time>
      </trkpt>
      <trkpt lat="44.06352" lon="1.93621">
        <ele>197</ele>
        <time>2011-08-28T08:33:32.000Z</time>
      </trkpt>
      <trkpt lat="44.06368" lon="1.93585">
        <ele>197</ele>
        <time>2011-08-28T08:33:42.000Z</time>
      </trkpt>
      <trkpt lat="44.06382" lon="1.93551">
        <ele>197</ele>
        <time>2011-08-28T08:33:52.000Z</time>
      </trkpt>
      <trkpt lat="44.06393" lon="1.93517">
        <ele>197</ele>
        <time>2011-08-28T08:34:02.000Z</time>
      </trkpt>
      <trkpt lat="44.06391" lon="1.93487">
        <ele>197</ele>
        <time>2011-08-28T08:34:12.000Z</time>
      </trkpt>
      <trkpt lat="44.06375" lon="1.93448">
        <ele>197</ele>
        <time>2011-08-28T08:34:22.000Z</time>
      </trkpt>
      <trkpt lat="44.06352" lon="1.93416">
        <ele>197</ele>
        <time>2011-08-28T08:34:32.000Z</time>
      </trkpt>
      <trkpt lat="44.06326" lon="1.9338">
        <ele>197</ele>
        <time>2011-08-28T08:34:42.000Z</time>
      </trkpt>
      <trkpt lat="44.06298" lon="1.93338">
        <ele>197</ele>
        <time>2011-08-28T08:34:52.000Z</time>
      </trkpt>
      <trkpt lat="44.06277" lon="1.93297">
        <ele>198</ele>
        <time>2011-08-28T08:35:02.000Z</time>
      </trkpt>
      <trkpt lat="44.06276" lon="1.93266">
        <ele>200</ele>
        <time>2011-08-28T08:35:12.000Z</time>
      </trkpt>
      <trkpt lat="44.06279" lon="1.93232">
        <ele>202</ele>
        <time>2011-08-28T08:35:22.000Z</time>
      </trkpt>
      <trkpt lat="44.06292" lon="1.93196">
        <ele>202</ele>
        <time>2011-08-28T08:35:32.000Z</time>
      </trkpt>
      <trkpt lat="44.06317" lon="1.93155">
        <ele>202</ele>
        <time>2011-08-28T08:35:42.000Z</time>
      </trkpt>
      <trkpt lat="44.06355" lon="1.93097">
        <ele>201</ele>
        <time>2011-08-28T08:35:52.000Z</time>
      </trkpt>
      <trkpt lat="44.06395" lon="1.93007">
        <ele>197</ele>
        <time>2011-08-28T08:36:02.000Z</time>
      </trkpt>
      <trkpt lat="44.0635" lon="1.92908">
        <ele>194</ele>
        <time>2011-08-28T08:36:12.000Z</time>
      </trkpt>
      <trkpt lat="44.06313" lon="1.92838">
        <ele>194</ele>
        <time>2011-08-28T08:36:22.000Z</time>
      </trkpt>
      <trkpt lat="44.06268" lon="1.92755">
        <ele>190</ele>
        <time>2011-08-28T08:36:32.000Z</time>
      </trkpt>
      <trkpt lat="44.06218" lon="1.92664">
        <ele>184</ele>
        <time>2011-08-28T08:36:42.000Z</time>
      </trkpt>
      <trkpt lat="44.06212" lon="1.92592">
        <ele>181</ele>
        <time>2011-08-28T08:36:52.000Z</time>
      </trkpt>
      <trkpt lat="44.06222" lon="1.92562">
        <ele>180</ele>
        <time>2011-08-28T08:37:02.000Z</time>
      </trkpt>
      <trkpt lat="44.0623" lon="1.92537">
        <ele>180</ele>
        <time>2011-08-28T08:37:12.000Z</time>
      </trkpt>
      <trkpt lat="44.06237" lon="1.92511">
        <ele>184</ele>
        <time>2011-08-28T08:37:22.000Z</time>
      </trkpt>
      <trkpt lat="44.06244" lon="1.92479">
        <ele>186</ele>
        <time>2011-08-28T08:37:32.000Z</time>
      </trkpt>
      <trkpt lat="44.06253" lon="1.92448">
        <ele>189</ele>
        <time>2011-08-28T08:37:42.000Z</time>
      </trkpt>
      <trkpt lat="44.0629" lon="1.92359">
        <ele>185</ele>
        <time>2011-08-28T08:37:52.000Z</time>
      </trkpt>
      <trkpt lat="44.06343" lon="1.92241">
        <ele>175</ele>
        <time>2011-08-28T08:38:02.000Z</time>
      </trkpt>
      <trkpt lat="44.06319" lon="1.921">
        <ele>174</ele>
        <time>2011-08-28T08:38:12.000Z</time>
      </trkpt>
      <trkpt lat="44.06317" lon="1.92046">
        <ele>174</ele>
        <time>2011-08-28T08:38:23.000Z</time>
      </trkpt>
      <trkpt lat="44.06318" lon="1.92078">
        <ele>174</ele>
        <time>2011-08-28T08:38:33.000Z</time>
      </trkpt>
      <trkpt lat="44.06339" lon="1.92157">
        <ele>174</ele>
        <time>2011-08-28T08:38:43.000Z</time>
      </trkpt>
      <trkpt lat="44.06401" lon="1.92164">
        <ele>174</ele>
        <time>2011-08-28T08:38:53.000Z</time>
      </trkpt>
      <trkpt lat="44.06474" lon="1.92167">
        <ele>171</ele>
        <time>2011-08-28T08:39:03.000Z</time>
      </trkpt>
      <trkpt lat="44.06538" lon="1.92151">
        <ele>169</ele>
        <time>2011-08-28T08:39:13.000Z</time>
      </trkpt>
      <trkpt lat="44.06566" lon="1.92194">
        <ele>167</ele>
        <time>2011-08-28T08:39:23.000Z</time>
      </trkpt>
      <trkpt lat="44.06614" lon="1.92174">
        <ele>166</ele>
        <time>2011-08-28T08:39:33.000Z</time>
      </trkpt>
      <trkpt lat="44.06659" lon="1.92163">
        <ele>165</ele>
        <time>2011-08-28T08:39:43.000Z</time>
      </trkpt>
      <trkpt lat="44.06673" lon="1.9221">
        <ele>165</ele>
        <time>2011-08-28T08:39:53.000Z</time>
      </trkpt>
      <trkpt lat="44.06679" lon="1.92199">
        <ele>165</ele>
        <time>2011-08-28T08:40:03.000Z</time>
      </trkpt>
      <trkpt lat="44.06665" lon="1.92154">
        <ele>165</ele>
        <time>2011-08-28T08:40:13.000Z</time>
      </trkpt>
      <trkpt lat="44.06671" lon="1.92146">
        <ele>165</ele>
        <time>2011-08-28T08:40:26.000Z</time>
      </trkpt>
      <trkpt lat="44.06672" lon="1.92151">
        <ele>165</ele>
        <time>2011-08-28T08:40:43.000Z</time>
      </trkpt>
      <trkpt lat="44.06673" lon="1.92152">
        <ele>165</ele>
        <time>2011-08-28T08:41:14.000Z</time>
      </trkpt>
      <trkpt lat="44.06675" lon="1.92154">
        <ele>162</ele>
        <time>2011-08-28T08:41:28.000Z</time>
      </trkpt>
      <trkpt lat="44.06673" lon="1.92151">
        <ele>162</ele>
        <time>2011-08-28T08:42:03.000Z</time>
      </trkpt>
      <trkpt lat="44.06674" lon="1.9215">
        <ele>162</ele>
        <time>2011-08-28T08:42:26.000Z</time>
      </trkpt>
      <trkpt lat="44.06674" lon="1.92149">
        <ele>166</ele>
        <time>2011-08-28T08:42:50.000Z</time>
      </trkpt>
      <trkpt lat="44.06673" lon="1.9215">
        <ele>166</ele>
        <time>2011-08-28T08:43:07.000Z</time>
      </trkpt>
      <trkpt lat="44.06671" lon="1.92154">
        <ele>164</ele>
        <time>2011-08-28T08:43:24.000Z</time>
      </trkpt>
      <trkpt lat="44.06673" lon="1.92153">
        <ele>161</ele>
        <time>2011-08-28T08:43:42.000Z</time>
      </trkpt>
      <trkpt lat="44.06675" lon="1.92151">
        <ele>160</ele>
        <time>2011-08-28T08:43:54.000Z</time>
      </trkpt>
      <trkpt lat="44.06676" lon="1.92152">
        <ele>157</ele>
        <time>2011-08-28T08:44:05.000Z</time>
      </trkpt>
      <trkpt lat="44.06677" lon="1.92151">
        <ele>155</ele>
        <time>2011-08-28T08:44:17.000Z</time>
      </trkpt>
      <trkpt lat="44.06676" lon="1.9215">
        <ele>156</ele>
        <time>2011-08-28T08:44:32.000Z</time>
      </trkpt>
      <trkpt lat="44.06675" lon="1.9215">
        <ele>156</ele>
        <time>2011-08-28T08:44:42.000Z</time>
      </trkpt>
      <trkpt lat="44.06673" lon="1.92152">
        <ele>155</ele>
        <time>2011-08-28T08:44:52.000Z</time>
      </trkpt>
      <trkpt lat="44.06673" lon="1.92154">
        <ele>155</ele>
        <time>2011-08-28T08:45:12.000Z</time>
      </trkpt>
      <trkpt lat="44.06674" lon="1.92158">
        <ele>155</ele>
        <time>2011-08-28T08:45:27.000Z</time>
      </trkpt>
      <trkpt lat="44.06674" lon="1.92159">
        <ele>158</ele>
        <time>2011-08-28T08:46:11.000Z</time>
      </trkpt>
      <trkpt lat="44.06677" lon="1.92162">
        <ele>158</ele>
        <time>2011-08-28T08:46:21.000Z</time>
      </trkpt>
      <trkpt lat="44.06678" lon="1.92166">
        <ele>157</ele>
        <time>2011-08-28T08:46:35.000Z</time>
      </trkpt>
      <trkpt lat="44.06674" lon="1.92164">
        <ele>157</ele>
        <time>2011-08-28T08:46:50.000Z</time>
      </trkpt>
      <trkpt lat="44.06674" lon="1.92166">
        <ele>157</ele>
        <time>2011-08-28T08:47:03.000Z</time>
      </trkpt>
      <trkpt lat="44.06675" lon="1.92166">
        <ele>156</ele>
        <time>2011-08-28T08:47:25.000Z</time>
      </trkpt>
      <trkpt lat="44.06676" lon="1.92163">
        <ele>162</ele>
        <time>2011-08-28T08:47:43.000Z</time>
      </trkpt>
      <trkpt lat="44.06675" lon="1.92165">
        <ele>162</ele>
        <time>2011-08-28T08:47:58.000Z</time>
      </trkpt>
      <trkpt lat="44.06675" lon="1.92165">
        <ele>162</ele>
        <time>2011-08-28T08:48:34.000Z</time>
      </trkpt>
      <trkpt lat="44.06678" lon="1.92164">
        <ele>162</ele>
        <time>2011-08-28T08:48:51.000Z</time>
      </trkpt>
      <trkpt lat="44.06679" lon="1.92163">
        <ele>162</ele>
        <time>2011-08-28T08:49:02.000Z</time>
      </trkpt>
      <trkpt lat="44.06678" lon="1.92162">
        <ele>162</ele>
        <time>2011-08-28T08:49:30.000Z</time>
      </trkpt>
      <trkpt lat="44.06676" lon="1.9216">
        <ele>163</ele>
        <time>2011-08-28T08:49:43.000Z</time>
      </trkpt>
      <trkpt lat="44.06674" lon="1.92158">
        <ele>169</ele>
        <time>2011-08-28T08:50:05.000Z</time>
      </trkpt>
      <trkpt lat="44.06677" lon="1.92159">
        <ele>169</ele>
        <time>2011-08-28T08:50:25.000Z</time>
      </trkpt>
      <trkpt lat="44.06679" lon="1.92163">
        <ele>169</ele>
        <time>2011-08-28T08:50:37.000Z</time>
      </trkpt>
      <trkpt lat="44.06687" lon="1.92186">
        <ele>168</ele>
        <time>2011-08-28T08:50:47.000Z</time>
      </trkpt>
      <trkpt lat="44.06699" lon="1.92219">
        <ele>166</ele>
        <time>2011-08-28T08:50:57.000Z</time>
      </trkpt>
      <trkpt lat="44.06708" lon="1.92255">
        <ele>156</ele>
        <time>2011-08-28T08:51:07.000Z</time>
      </trkpt>
      <trkpt lat="44.06718" lon="1.92292">
        <ele>151</ele>
        <time>2011-08-28T08:51:17.000Z</time>
      </trkpt>
      <trkpt lat="44.06727" lon="1.92336">
        <ele>150</ele>
        <time>2011-08-28T08:51:27.000Z</time>
      </trkpt>
      <trkpt lat="44.06753" lon="1.92351">
        <ele>149</ele>
        <time>2011-08-28T08:51:37.000Z</time>
      </trkpt>
      <trkpt lat="44.06789" lon="1.92334">
        <ele>154</ele>
        <time>2011-08-28T08:51:47.000Z</time>
      </trkpt>
      <trkpt lat="44.06831" lon="1.92314">
        <ele>155</ele>
        <time>2011-08-28T08:51:57.000Z</time>
      </trkpt>
      <trkpt lat="44.06879" lon="1.92287">
        <ele>156</ele>
        <time>2011-08-28T08:52:07.000Z</time>
      </trkpt>
      <trkpt lat="44.06922" lon="1.9226">
        <ele>156</ele>
        <time>2011-08-28T08:52:17.000Z</time>
      </trkpt>
      <trkpt lat="44.06975" lon="1.92236">
        <ele>156</ele>
        <time>2011-08-28T08:52:27.000Z</time>
      </trkpt>
      <trkpt lat="44.07019" lon="1.92215">
        <ele>156</ele>
        <time>2011-08-28T08:52:37.000Z</time>
      </trkpt>
      <trkpt lat="44.07044" lon="1.92198">
        <ele>156</ele>
        <time>2011-08-28T08:52:47.000Z</time>
      </trkpt>
      <trkpt lat="44.07062" lon="1.92246">
        <ele>156</ele>
        <time>2011-08-28T08:52:57.000Z</time>
      </trkpt>
      <trkpt lat="44.07076" lon="1.92295">
        <ele>156</ele>
        <time>2011-08-28T08:53:07.000Z</time>
      </trkpt>
      <trkpt lat="44.07092" lon="1.92346">
        <ele>156</ele>
        <time>2011-08-28T08:53:17.000Z</time>
      </trkpt>
      <trkpt lat="44.07108" lon="1.92393">
        <ele>156</ele>
        <time>2011-08-28T08:53:27.000Z</time>
      </trkpt>
      <trkpt lat="44.07138" lon="1.92376">
        <ele>156</ele>
        <time>2011-08-28T08:53:37.000Z</time>
      </trkpt>
      <trkpt lat="44.07172" lon="1.92357">
        <ele>156</ele>
        <time>2011-08-28T08:53:47.000Z</time>
      </trkpt>
      <trkpt lat="44.07181" lon="1.92349">
        <ele>157</ele>
        <time>2011-08-28T08:53:57.000Z</time>
      </trkpt>
      <trkpt lat="44.07193" lon="1.92338">
        <ele>161</ele>
        <time>2011-08-28T08:54:07.000Z</time>
      </trkpt>
      <trkpt lat="44.07229" lon="1.9234">
        <ele>162</ele>
        <time>2011-08-28T08:54:17.000Z</time>
      </trkpt>
      <trkpt lat="44.0724" lon="1.92377">
        <ele>163</ele>
        <time>2011-08-28T08:54:27.000Z</time>
      </trkpt>
      <trkpt lat="44.07258" lon="1.92428">
        <ele>165</ele>
        <time>2011-08-28T08:54:37.000Z</time>
      </trkpt>
      <trkpt lat="44.07278" lon="1.92478">
        <ele>160</ele>
        <time>2011-08-28T08:54:47.000Z</time>
      </trkpt>
      <trkpt lat="44.07287" lon="1.92546">
        <ele>159</ele>
        <time>2011-08-28T08:54:57.000Z</time>
      </trkpt>
      <trkpt lat="44.0728" lon="1.9261">
        <ele>158</ele>
        <time>2011-08-28T08:55:07.000Z</time>
      </trkpt>
      <trkpt lat="44.07272" lon="1.92667">
        <ele>154</ele>
        <time>2011-08-28T08:55:17.000Z</time>
      </trkpt>
      <trkpt lat="44.07295" lon="1.92659">
        <ele>154</ele>
        <time>2011-08-28T08:55:27.000Z</time>
      </trkpt>
      <trkpt lat="44.07322" lon="1.92646">
        <ele>157</ele>
        <time>2011-08-28T08:55:37.000Z</time>
      </trkpt>
      <trkpt lat="44.07345" lon="1.92648">
        <ele>160</ele>
        <time>2011-08-28T08:55:47.000Z</time>
      </trkpt>
      <trkpt lat="44.07361" lon="1.92651">
        <ele>163</ele>
        <time>2011-08-28T08:55:57.000Z</time>
      </trkpt>
      <trkpt lat="44.07379" lon="1.92665">
        <ele>164</ele>
        <time>2011-08-28T08:56:07.000Z</time>
      </trkpt>
      <trkpt lat="44.07393" lon="1.92677">
        <ele>164</ele>
        <time>2011-08-28T08:56:17.000Z</time>
      </trkpt>
      <trkpt lat="44.0741" lon="1.92696">
        <ele>164</ele>
        <time>2011-08-28T08:56:27.000Z</time>
      </trkpt>
      <trkpt lat="44.07425" lon="1.92708">
        <ele>163</ele>
        <time>2011-08-28T08:56:37.000Z</time>
      </trkpt>
      <trkpt lat="44.07433" lon="1.92712">
        <ele>162</ele>
        <time>2011-08-28T08:56:50.000Z</time>
      </trkpt>
      <trkpt lat="44.07438" lon="1.92711">
        <ele>162</ele>
        <time>2011-08-28T08:57:00.000Z</time>
      </trkpt>
      <trkpt lat="44.0744" lon="1.92708">
        <ele>166</ele>
        <time>2011-08-28T08:57:15.000Z</time>
      </trkpt>
      <trkpt lat="44.07443" lon="1.92706">
        <ele>170</ele>
        <time>2011-08-28T08:57:32.000Z</time>
      </trkpt>
      <trkpt lat="44.07447" lon="1.927">
        <ele>173</ele>
        <time>2011-08-28T08:57:43.000Z</time>
      </trkpt>
      <trkpt lat="44.07451" lon="1.92692">
        <ele>176</ele>
        <time>2011-08-28T08:57:54.000Z</time>
      </trkpt>
      <trkpt lat="44.07455" lon="1.92686">
        <ele>180</ele>
        <time>2011-08-28T08:58:06.000Z</time>
      </trkpt>
      <trkpt lat="44.07462" lon="1.92684">
        <ele>180</ele>
        <time>2011-08-28T08:58:16.000Z</time>
      </trkpt>
      <trkpt lat="44.07467" lon="1.92682">
        <ele>181</ele>
        <time>2011-08-28T08:58:27.000Z</time>
      </trkpt>
      <trkpt lat="44.07474" lon="1.92677">
        <ele>184</ele>
        <time>2011-08-28T08:58:40.000Z</time>
      </trkpt>
      <trkpt lat="44.07478" lon="1.92673">
        <ele>188</ele>
        <time>2011-08-28T08:58:56.000Z</time>
      </trkpt>
      <trkpt lat="44.07478" lon="1.92677">
        <ele>192</ele>
        <time>2011-08-28T08:59:07.000Z</time>
      </trkpt>
      <trkpt lat="44.07482" lon="1.92674">
        <ele>193</ele>
        <time>2011-08-28T08:59:18.000Z</time>
      </trkpt>
      <trkpt lat="44.0749" lon="1.92668">
        <ele>192</ele>
        <time>2011-08-28T08:59:29.000Z</time>
      </trkpt>
      <trkpt lat="44.07496" lon="1.92666">
        <ele>192</ele>
        <time>2011-08-28T08:59:39.000Z</time>
      </trkpt>
      <trkpt lat="44.07501" lon="1.92661">
        <ele>192</ele>
        <time>2011-08-28T08:59:51.000Z</time>
      </trkpt>
      <trkpt lat="44.07502" lon="1.92656">
        <ele>195</ele>
        <time>2011-08-28T09:00:02.000Z</time>
      </trkpt>
      <trkpt lat="44.07502" lon="1.9265">
        <ele>200</ele>
        <time>2011-08-28T09:00:14.000Z</time>
      </trkpt>
      <trkpt lat="44.07502" lon="1.92642">
        <ele>203</ele>
        <time>2011-08-28T09:00:26.000Z</time>
      </trkpt>
      <trkpt lat="44.07503" lon="1.92637">
        <ele>203</ele>
        <time>2011-08-28T09:00:36.000Z</time>
      </trkpt>
      <trkpt lat="44.07504" lon="1.92628">
        <ele>204</ele>
        <time>2011-08-28T09:00:47.000Z</time>
      </trkpt>
      <trkpt lat="44.07506" lon="1.92621">
        <ele>205</ele>
        <time>2011-08-28T09:00:57.000Z</time>
      </trkpt>
      <trkpt lat="44.07509" lon="1.9261">
        <ele>205</ele>
        <time>2011-08-28T09:01:08.000Z</time>
      </trkpt>
      <trkpt lat="44.07514" lon="1.92601">
        <ele>205</ele>
        <time>2011-08-28T09:01:18.000Z</time>
      </trkpt>
      <trkpt lat="44.0752" lon="1.92593">
        <ele>206</ele>
        <time>2011-08-28T09:01:28.000Z</time>
      </trkpt>
      <trkpt lat="44.07525" lon="1.92587">
        <ele>206</ele>
        <time>2011-08-28T09:01:38.000Z</time>
      </trkpt>
      <trkpt lat="44.07536" lon="1.92575">
        <ele>206</ele>
        <time>2011-08-28T09:01:48.000Z</time>
      </trkpt>
      <trkpt lat="44.07545" lon="1.92562">
        <ele>208</ele>
        <time>2011-08-28T09:01:58.000Z</time>
      </trkpt>
      <trkpt lat="44.07554" lon="1.92549">
        <ele>210</ele>
        <time>2011-08-28T09:02:09.000Z</time>
      </trkpt>
      <trkpt lat="44.07563" lon="1.92539">
        <ele>211</ele>
        <time>2011-08-28T09:02:20.000Z</time>
      </trkpt>
      <trkpt lat="44.07571" lon="1.92527">
        <ele>213</ele>
        <time>2011-08-28T09:02:30.000Z</time>
      </trkpt>
      <trkpt lat="44.07578" lon="1.92519">
        <ele>214</ele>
        <time>2011-08-28T09:02:40.000Z</time>
      </trkpt>
      <trkpt lat="44.07586" lon="1.92511">
        <ele>215</ele>
        <time>2011-08-28T09:02:51.000Z</time>
      </trkpt>
      <trkpt lat="44.07592" lon="1.92501">
        <ele>216</ele>
        <time>2011-08-28T09:03:01.000Z</time>
      </trkpt>
      <trkpt lat="44.07595" lon="1.92493">
        <ele>218</ele>
        <time>2011-08-28T09:03:11.000Z</time>
      </trkpt>
      <trkpt lat="44.07602" lon="1.92479">
        <ele>220</ele>
        <time>2011-08-28T09:03:21.000Z</time>
      </trkpt>
      <trkpt lat="44.07608" lon="1.92469">
        <ele>222</ele>
        <time>2011-08-28T09:03:31.000Z</time>
      </trkpt>
      <trkpt lat="44.07613" lon="1.92459">
        <ele>223</ele>
        <time>2011-08-28T09:03:41.000Z</time>
      </trkpt>
      <trkpt lat="44.07618" lon="1.92447">
        <ele>227</ele>
        <time>2011-08-28T09:03:52.000Z</time>
      </trkpt>
      <trkpt lat="44.07626" lon="1.92434">
        <ele>231</ele>
        <time>2011-08-28T09:04:02.000Z</time>
      </trkpt>
      <trkpt lat="44.07632" lon="1.92418">
        <ele>234</ele>
        <time>2011-08-28T09:04:12.000Z</time>
      </trkpt>
      <trkpt lat="44.07638" lon="1.92417">
        <ele>234</ele>
        <time>2011-08-28T09:04:28.000Z</time>
      </trkpt>
      <trkpt lat="44.07638" lon="1.92416">
        <ele>234</ele>
        <time>2011-08-28T09:04:42.000Z</time>
      </trkpt>
      <trkpt lat="44.07637" lon="1.92414">
        <ele>230</ele>
        <time>2011-08-28T09:04:53.000Z</time>
      </trkpt>
      <trkpt lat="44.07633" lon="1.92409">
        <ele>231</ele>
        <time>2011-08-28T09:05:05.000Z</time>
      </trkpt>
      <trkpt lat="44.07635" lon="1.92406">
        <ele>232</ele>
        <time>2011-08-28T09:05:15.000Z</time>
      </trkpt>
      <trkpt lat="44.07642" lon="1.92397">
        <ele>235</ele>
        <time>2011-08-28T09:05:26.000Z</time>
      </trkpt>
      <trkpt lat="44.07645" lon="1.92392">
        <ele>236</ele>
        <time>2011-08-28T09:05:38.000Z</time>
      </trkpt>
      <trkpt lat="44.07646" lon="1.92395">
        <ele>236</ele>
        <time>2011-08-28T09:05:49.000Z</time>
      </trkpt>
      <trkpt lat="44.07646" lon="1.92393">
        <ele>231</ele>
        <time>2011-08-28T09:06:09.000Z</time>
      </trkpt>
      <trkpt lat="44.07649" lon="1.92389">
        <ele>232</ele>
        <time>2011-08-28T09:06:20.000Z</time>
      </trkpt>
      <trkpt lat="44.07651" lon="1.92381">
        <ele>232</ele>
        <time>2011-08-28T09:06:31.000Z</time>
      </trkpt>
      <trkpt lat="44.07655" lon="1.92371">
        <ele>237</ele>
        <time>2011-08-28T09:06:41.000Z</time>
      </trkpt>
      <trkpt lat="44.0766" lon="1.9236">
        <ele>241</ele>
        <time>2011-08-28T09:06:51.000Z</time>
      </trkpt>
      <trkpt lat="44.07664" lon="1.92348">
        <ele>243</ele>
        <time>2011-08-28T09:07:01.000Z</time>
      </trkpt>
      <trkpt lat="44.07669" lon="1.92339">
        <ele>245</ele>
        <time>2011-08-28T09:07:11.000Z</time>
      </trkpt>
      <trkpt lat="44.07674" lon="1.9233">
        <ele>247</ele>
        <time>2011-08-28T09:07:21.000Z</time>
      </trkpt>
      <trkpt lat="44.07682" lon="1.92321">
        <ele>248</ele>
        <time>2011-08-28T09:07:31.000Z</time>
      </trkpt>
      <trkpt lat="44.07691" lon="1.92313">
        <ele>248</ele>
        <time>2011-08-28T09:07:41.000Z</time>
      </trkpt>
      <trkpt lat="44.07697" lon="1.92304">
        <ele>248</ele>
        <time>2011-08-28T09:07:52.000Z</time>
      </trkpt>
      <trkpt lat="44.07701" lon="1.92293">
        <ele>251</ele>
        <time>2011-08-28T09:08:03.000Z</time>
      </trkpt>
      <trkpt lat="44.07706" lon="1.92282">
        <ele>254</ele>
        <time>2011-08-28T09:08:13.000Z</time>
      </trkpt>
      <trkpt lat="44.07711" lon="1.9227">
        <ele>261</ele>
        <time>2011-08-28T09:08:24.000Z</time>
      </trkpt>
      <trkpt lat="44.07715" lon="1.92262">
        <ele>262</ele>
        <time>2011-08-28T09:08:34.000Z</time>
      </trkpt>
      <trkpt lat="44.07718" lon="1.92252">
        <ele>262</ele>
        <time>2011-08-28T09:08:44.000Z</time>
      </trkpt>
      <trkpt lat="44.07722" lon="1.92245">
        <ele>262</ele>
        <time>2011-08-28T09:08:54.000Z</time>
      </trkpt>
      <trkpt lat="44.07725" lon="1.92234">
        <ele>262</ele>
        <time>2011-08-28T09:09:04.000Z</time>
      </trkpt>
      <trkpt lat="44.07727" lon="1.92218">
        <ele>264</ele>
        <time>2011-08-28T09:09:14.000Z</time>
      </trkpt>
      <trkpt lat="44.07729" lon="1.92197">
        <ele>266</ele>
        <time>2011-08-28T09:09:24.000Z</time>
      </trkpt>
      <trkpt lat="44.07735" lon="1.9218">
        <ele>266</ele>
        <time>2011-08-28T09:09:34.000Z</time>
      </trkpt>
      <trkpt lat="44.07737" lon="1.92164">
        <ele>267</ele>
        <time>2011-08-28T09:09:44.000Z</time>
      </trkpt>
      <trkpt lat="44.07742" lon="1.92148">
        <ele>272</ele>
        <time>2011-08-28T09:09:54.000Z</time>
      </trkpt>
      <trkpt lat="44.07747" lon="1.92136">
        <ele>275</ele>
        <time>2011-08-28T09:10:04.000Z</time>
      </trkpt>
      <trkpt lat="44.07752" lon="1.92118">
        <ele>278</ele>
        <time>2011-08-28T09:10:14.000Z</time>
      </trkpt>
      <trkpt lat="44.07756" lon="1.92099">
        <ele>280</ele>
        <time>2011-08-28T09:10:24.000Z</time>
      </trkpt>
      <trkpt lat="44.07762" lon="1.92084">
        <ele>282</ele>
        <time>2011-08-28T09:10:34.000Z</time>
      </trkpt>
      <trkpt lat="44.07769" lon="1.92077">
        <ele>282</ele>
        <time>2011-08-28T09:10:45.000Z</time>
      </trkpt>
      <trkpt lat="44.07775" lon="1.92075">
        <ele>284</ele>
        <time>2011-08-28T09:10:55.000Z</time>
      </trkpt>
      <trkpt lat="44.0778" lon="1.92068">
        <ele>285</ele>
        <time>2011-08-28T09:11:05.000Z</time>
      </trkpt>
      <trkpt lat="44.07784" lon="1.92058">
        <ele>285</ele>
        <time>2011-08-28T09:11:15.000Z</time>
      </trkpt>
      <trkpt lat="44.07786" lon="1.92041">
        <ele>287</ele>
        <time>2011-08-28T09:11:25.000Z</time>
      </trkpt>
      <trkpt lat="44.07787" lon="1.92016">
        <ele>293</ele>
        <time>2011-08-28T09:11:35.000Z</time>
      </trkpt>
      <trkpt lat="44.07791" lon="1.91991">
        <ele>297</ele>
        <time>2011-08-28T09:11:45.000Z</time>
      </trkpt>
      <trkpt lat="44.07802" lon="1.91949">
        <ele>294</ele>
        <time>2011-08-28T09:11:55.000Z</time>
      </trkpt>
      <trkpt lat="44.07819" lon="1.91905">
        <ele>290</ele>
        <time>2011-08-28T09:12:05.000Z</time>
      </trkpt>
      <trkpt lat="44.07834" lon="1.91877">
        <ele>288</ele>
        <time>2011-08-28T09:12:15.000Z</time>
      </trkpt>
      <trkpt lat="44.07839" lon="1.91826">
        <ele>288</ele>
        <time>2011-08-28T09:12:25.000Z</time>
      </trkpt>
      <trkpt lat="44.07842" lon="1.91794">
        <ele>285</ele>
        <time>2011-08-28T09:12:35.000Z</time>
      </trkpt>
      <trkpt lat="44.07838" lon="1.91791">
        <ele>278</ele>
        <time>2011-08-28T09:12:52.000Z</time>
      </trkpt>
      <trkpt lat="44.07836" lon="1.91788">
        <ele>279</ele>
        <time>2011-08-28T09:13:21.000Z</time>
      </trkpt>
      <trkpt lat="44.07838" lon="1.91788">
        <ele>279</ele>
        <time>2011-08-28T09:13:54.000Z</time>
      </trkpt>
      <trkpt lat="44.07839" lon="1.91788">
        <ele>280</ele>
        <time>2011-08-28T09:14:23.000Z</time>
      </trkpt>
      <trkpt lat="44.0784" lon="1.9179">
        <ele>281</ele>
        <time>2011-08-28T09:14:47.000Z</time>
      </trkpt>
      <trkpt lat="44.07841" lon="1.91789">
        <ele>281</ele>
        <time>2011-08-28T09:14:57.000Z</time>
      </trkpt>
      <trkpt lat="44.07842" lon="1.91789">
        <ele>280</ele>
        <time>2011-08-28T09:15:09.000Z</time>
      </trkpt>
      <trkpt lat="44.07842" lon="1.91792">
        <ele>280</ele>
        <time>2011-08-28T09:15:21.000Z</time>
      </trkpt>
      <trkpt lat="44.07841" lon="1.91796">
        <ele>280</ele>
        <time>2011-08-28T09:15:33.000Z</time>
      </trkpt>
      <trkpt lat="44.07841" lon="1.91795">
        <ele>281</ele>
        <time>2011-08-28T09:16:11.000Z</time>
      </trkpt>
      <trkpt lat="44.07841" lon="1.91792">
        <ele>280</ele>
        <time>2011-08-28T09:16:25.000Z</time>
      </trkpt>
      <trkpt lat="44.07841" lon="1.91793">
        <ele>280</ele>
        <time>2011-08-28T09:16:37.000Z</time>
      </trkpt>
      <trkpt lat="44.0784" lon="1.91798">
        <ele>280</ele>
        <time>2011-08-28T09:16:55.000Z</time>
      </trkpt>
      <trkpt lat="44.07839" lon="1.91799">
        <ele>282</ele>
        <time>2011-08-28T09:17:12.000Z</time>
      </trkpt>
      <trkpt lat="44.07838" lon="1.91801">
        <ele>283</ele>
        <time>2011-08-28T09:17:42.000Z</time>
      </trkpt>
      <trkpt lat="44.0784" lon="1.918">
        <ele>284</ele>
        <time>2011-08-28T09:18:00.000Z</time>
      </trkpt>
      <trkpt lat="44.07842" lon="1.91795">
        <ele>284</ele>
        <time>2011-08-28T09:18:13.000Z</time>
      </trkpt>
      <trkpt lat="44.07842" lon="1.91792">
        <ele>284</ele>
        <time>2011-08-28T09:18:33.000Z</time>
      </trkpt>
      <trkpt lat="44.07843" lon="1.91789">
        <ele>284</ele>
        <time>2011-08-28T09:19:11.000Z</time>
      </trkpt>
      <trkpt lat="44.07844" lon="1.91788">
        <ele>279</ele>
        <time>2011-08-28T09:19:22.000Z</time>
      </trkpt>
      <trkpt lat="44.07853" lon="1.91777">
        <ele>279</ele>
        <time>2011-08-28T09:19:32.000Z</time>
      </trkpt>
      <trkpt lat="44.07857" lon="1.91779">
        <ele>279</ele>
        <time>2011-08-28T09:19:42.000Z</time>
      </trkpt>
      <trkpt lat="44.07869" lon="1.91787">
        <ele>279</ele>
        <time>2011-08-28T09:19:52.000Z</time>
      </trkpt>
      <trkpt lat="44.0789" lon="1.9179">
        <ele>279</ele>
        <time>2011-08-28T09:20:02.000Z</time>
      </trkpt>
      <trkpt lat="44.07914" lon="1.91776">
        <ele>279</ele>
        <time>2011-08-28T09:20:12.000Z</time>
      </trkpt>
      <trkpt lat="44.07936" lon="1.91764">
        <ele>281</ele>
        <time>2011-08-28T09:20:22.000Z</time>
      </trkpt>
      <trkpt lat="44.07953" lon="1.9175">
        <ele>284</ele>
        <time>2011-08-28T09:20:32.000Z</time>
      </trkpt>
      <trkpt lat="44.07967" lon="1.91725">
        <ele>285</ele>
        <time>2011-08-28T09:20:42.000Z</time>
      </trkpt>
      <trkpt lat="44.07985" lon="1.91717">
        <ele>287</ele>
        <time>2011-08-28T09:20:52.000Z</time>
      </trkpt>
      <trkpt lat="44.08008" lon="1.91728">
        <ele>288</ele>
        <time>2011-08-28T09:21:02.000Z</time>
      </trkpt>
      <trkpt lat="44.08031" lon="1.91738">
        <ele>289</ele>
        <time>2011-08-28T09:21:12.000Z</time>
      </trkpt>
      <trkpt lat="44.0805" lon="1.91748">
        <ele>291</ele>
        <time>2011-08-28T09:21:22.000Z</time>
      </trkpt>
      <trkpt lat="44.08069" lon="1.91759">
        <ele>291</ele>
        <time>2011-08-28T09:21:32.000Z</time>
      </trkpt>
      <trkpt lat="44.08093" lon="1.91771">
        <ele>291</ele>
        <time>2011-08-28T09:21:42.000Z</time>
      </trkpt>
      <trkpt lat="44.08121" lon="1.91764">
        <ele>291</ele>
        <time>2011-08-28T09:21:52.000Z</time>
      </trkpt>
      <trkpt lat="44.0815" lon="1.91723">
        <ele>291</ele>
        <time>2011-08-28T09:22:02.000Z</time>
      </trkpt>
      <trkpt lat="44.08186" lon="1.91678">
        <ele>291</ele>
        <time>2011-08-28T09:22:12.000Z</time>
      </trkpt>
      <trkpt lat="44.08221" lon="1.91634">
        <ele>291</ele>
        <time>2011-08-28T09:22:22.000Z</time>
      </trkpt>
      <trkpt lat="44.08257" lon="1.91601">
        <ele>291</ele>
        <time>2011-08-28T09:22:32.000Z</time>
      </trkpt>
      <trkpt lat="44.08279" lon="1.91552">
        <ele>294</ele>
        <time>2011-08-28T09:22:42.000Z</time>
      </trkpt>
      <trkpt lat="44.08271" lon="1.91501">
        <ele>294</ele>
        <time>2011-08-28T09:22:52.000Z</time>
      </trkpt>
      <trkpt lat="44.08233" lon="1.91463">
        <ele>294</ele>
        <time>2011-08-28T09:23:02.000Z</time>
      </trkpt>
      <trkpt lat="44.08198" lon="1.91408">
        <ele>294</ele>
        <time>2011-08-28T09:23:12.000Z</time>
      </trkpt>
      <trkpt lat="44.08216" lon="1.91315">
        <ele>294</ele>
        <time>2011-08-28T09:23:22.000Z</time>
      </trkpt>
      <trkpt lat="44.08202" lon="1.91203">
        <ele>286</ele>
        <time>2011-08-28T09:23:32.000Z</time>
      </trkpt>
      <trkpt lat="44.08196" lon="1.91078">
        <ele>278</ele>
        <time>2011-08-28T09:23:42.000Z</time>
      </trkpt>
      <trkpt lat="44.08175" lon="1.91054">
        <ele>270</ele>
        <time>2011-08-28T09:23:52.000Z</time>
      </trkpt>
      <trkpt lat="44.08149" lon="1.91079">
        <ele>270</ele>
        <time>2011-08-28T09:24:02.000Z</time>
      </trkpt>
      <trkpt lat="44.08117" lon="1.91099">
        <ele>271</ele>
        <time>2011-08-28T09:24:12.000Z</time>
      </trkpt>
      <trkpt lat="44.08081" lon="1.91119">
        <ele>271</ele>
        <time>2011-08-28T09:24:22.000Z</time>
      </trkpt>
      <trkpt lat="44.08042" lon="1.91132">
        <ele>271</ele>
        <time>2011-08-28T09:24:32.000Z</time>
      </trkpt>
      <trkpt lat="44.08005" lon="1.91093">
        <ele>269</ele>
        <time>2011-08-28T09:24:42.000Z</time>
      </trkpt>
      <trkpt lat="44.07983" lon="1.9098">
        <ele>268</ele>
        <time>2011-08-28T09:24:52.000Z</time>
      </trkpt>
      <trkpt lat="44.07959" lon="1.90952">
        <ele>263</ele>
        <time>2011-08-28T09:25:02.000Z</time>
      </trkpt>
      <trkpt lat="44.07914" lon="1.9099">
        <ele>259</ele>
        <time>2011-08-28T09:25:12.000Z</time>
      </trkpt>
      <trkpt lat="44.07872" lon="1.91014">
        <ele>253</ele>
        <time>2011-08-28T09:25:22.000Z</time>
      </trkpt>
      <trkpt lat="44.07824" lon="1.91046">
        <ele>248</ele>
        <time>2011-08-28T09:25:32.000Z</time>
      </trkpt>
      <trkpt lat="44.07779" lon="1.911">
        <ele>243</ele>
        <time>2011-08-28T09:25:42.000Z</time>
      </trkpt>
      <trkpt lat="44.07716" lon="1.91166">
        <ele>235</ele>
        <time>2011-08-28T09:25:52.000Z</time>
      </trkpt>
      <trkpt lat="44.07687" lon="1.91209">
        <ele>230</ele>
        <time>2011-08-28T09:26:02.000Z</time>
      </trkpt>
      <trkpt lat="44.07639" lon="1.91251">
        <ele>220</ele>
        <time>2011-08-28T09:26:12.000Z</time>
      </trkpt>
      <trkpt lat="44.07578" lon="1.91235">
        <ele>213</ele>
        <time>2011-08-28T09:26:22.000Z</time>
      </trkpt>
      <trkpt lat="44.07514" lon="1.91204">
        <ele>205</ele>
        <time>2011-08-28T09:26:32.000Z</time>
      </trkpt>
      <trkpt lat="44.07439" lon="1.91166">
        <ele>201</ele>
        <time>2011-08-28T09:26:42.000Z</time>
      </trkpt>
      <trkpt lat="44.07375" lon="1.91104">
        <ele>199</ele>
        <time>2011-08-28T09:26:52.000Z</time>
      </trkpt>
      <trkpt lat="44.07293" lon="1.9106">
        <ele>192</ele>
        <time>2011-08-28T09:27:02.000Z</time>
      </trkpt>
      <trkpt lat="44.07267" lon="1.91051">
        <ele>188</ele>
        <time>2011-08-28T09:27:12.000Z</time>
      </trkpt>
      <trkpt lat="44.0735" lon="1.91001">
        <ele>185</ele>
        <time>2011-08-28T09:27:23.000Z</time>
      </trkpt>
      <trkpt lat="44.07465" lon="1.90998">
        <ele>177</ele>
        <time>2011-08-28T09:27:33.000Z</time>
      </trkpt>
      <trkpt lat="44.07513" lon="1.90915">
        <ele>169</ele>
        <time>2011-08-28T09:27:43.000Z</time>
      </trkpt>
      <trkpt lat="44.0753" lon="1.90787">
        <ele>159</ele>
        <time>2011-08-28T09:27:53.000Z</time>
      </trkpt>
      <trkpt lat="44.07595" lon="1.90761">
        <ele>156</ele>
        <time>2011-08-28T09:28:03.000Z</time>
      </trkpt>
      <trkpt lat="44.07653" lon="1.90768">
        <ele>157</ele>
        <time>2011-08-28T09:28:13.000Z</time>
      </trkpt>
      <trkpt lat="44.07698" lon="1.90746">
        <ele>157</ele>
        <time>2011-08-28T09:28:23.000Z</time>
      </trkpt>
      <trkpt lat="44.07706" lon="1.90663">
        <ele>155</ele>
        <time>2011-08-28T09:28:33.000Z</time>
      </trkpt>
      <trkpt lat="44.07708" lon="1.90569">
        <ele>153</ele>
        <time>2011-08-28T09:28:43.000Z</time>
      </trkpt>
      <trkpt lat="44.07726" lon="1.90485">
        <ele>152</ele>
        <time>2011-08-28T09:28:53.000Z</time>
      </trkpt>
      <trkpt lat="44.07767" lon="1.90416">
        <ele>152</ele>
        <time>2011-08-28T09:29:03.000Z</time>
      </trkpt>
      <trkpt lat="44.07813" lon="1.90357">
        <ele>152</ele>
        <time>2011-08-28T09:29:13.000Z</time>
      </trkpt>
      <trkpt lat="44.0783" lon="1.90283">
        <ele>152</ele>
        <time>2011-08-28T09:29:23.000Z</time>
      </trkpt>
      <trkpt lat="44.07858" lon="1.90217">
        <ele>152</ele>
        <time>2011-08-28T09:29:33.000Z</time>
      </trkpt>
      <trkpt lat="44.07881" lon="1.90145">
        <ele>152</ele>
        <time>2011-08-28T09:29:43.000Z</time>
      </trkpt>
      <trkpt lat="44.07902" lon="1.90066">
        <ele>151</ele>
        <time>2011-08-28T09:29:53.000Z</time>
      </trkpt>
      <trkpt lat="44.07932" lon="1.89998">
        <ele>151</ele>
        <time>2011-08-28T09:30:03.000Z</time>
      </trkpt>
      <trkpt lat="44.0795" lon="1.89978">
        <ele>151</ele>
        <time>2011-08-28T09:30:16.000Z</time>
      </trkpt>
      <trkpt lat="44.07943" lon="1.89958">
        <ele>151</ele>
        <time>2011-08-28T09:30:26.000Z</time>
      </trkpt>
      <trkpt lat="44.07917" lon="1.89915">
        <ele>151</ele>
        <time>2011-08-28T09:30:37.000Z</time>
      </trkpt>
      <trkpt lat="44.07884" lon="1.89886">
        <ele>151</ele>
        <time>2011-08-28T09:30:47.000Z</time>
      </trkpt>
      <trkpt lat="44.07847" lon="1.89856">
        <ele>151</ele>
        <time>2011-08-28T09:30:57.000Z</time>
      </trkpt>
      <trkpt lat="44.07813" lon="1.89809">
        <ele>151</ele>
        <time>2011-08-28T09:31:08.000Z</time>
      </trkpt>
      <trkpt lat="44.07808" lon="1.8976">
        <ele>154</ele>
        <time>2011-08-28T09:31:19.000Z</time>
      </trkpt>
      <trkpt lat="44.07816" lon="1.89729">
        <ele>155</ele>
        <time>2011-08-28T09:31:29.000Z</time>
      </trkpt>
      <trkpt lat="44.07818" lon="1.89703">
        <ele>155</ele>
        <time>2011-08-28T09:31:39.000Z</time>
      </trkpt>
      <trkpt lat="44.07815" lon="1.89677">
        <ele>157</ele>
        <time>2011-08-28T09:31:50.000Z</time>
      </trkpt>
      <trkpt lat="44.07803" lon="1.89666">
        <ele>163</ele>
        <time>2011-08-28T09:32:00.000Z</time>
      </trkpt>
      <trkpt lat="44.07781" lon="1.89647">
        <ele>164</ele>
        <time>2011-08-28T09:32:10.000Z</time>
      </trkpt>
      <trkpt lat="44.07752" lon="1.89611">
        <ele>164</ele>
        <time>2011-08-28T09:32:20.000Z</time>
      </trkpt>
      <trkpt lat="44.07732" lon="1.89562">
        <ele>165</ele>
        <time>2011-08-28T09:32:30.000Z</time>
      </trkpt>
      <trkpt lat="44.07711" lon="1.89502">
        <ele>165</ele>
        <time>2011-08-28T09:32:40.000Z</time>
      </trkpt>
      <trkpt lat="44.07697" lon="1.89453">
        <ele>165</ele>
        <time>2011-08-28T09:32:50.000Z</time>
      </trkpt>
      <trkpt lat="44.07737" lon="1.89421">
        <ele>165</ele>
        <time>2011-08-28T09:33:01.000Z</time>
      </trkpt>
      <trkpt lat="44.07781" lon="1.8939">
        <ele>159</ele>
        <time>2011-08-28T09:33:11.000Z</time>
      </trkpt>
      <trkpt lat="44.07837" lon="1.89353">
        <ele>156</ele>
        <time>2011-08-28T09:33:22.000Z</time>
      </trkpt>
      <trkpt lat="44.0789" lon="1.89315">
        <ele>155</ele>
        <time>2011-08-28T09:33:32.000Z</time>
      </trkpt>
      <trkpt lat="44.07952" lon="1.8927">
        <ele>155</ele>
        <time>2011-08-28T09:33:42.000Z</time>
      </trkpt>
      <trkpt lat="44.08013" lon="1.89226">
        <ele>156</ele>
        <time>2011-08-28T09:33:52.000Z</time>
      </trkpt>
      <trkpt lat="44.08062" lon="1.89191">
        <ele>157</ele>
        <time>2011-08-28T09:34:02.000Z</time>
      </trkpt>
      <trkpt lat="44.08107" lon="1.89159">
        <ele>157</ele>
        <time>2011-08-28T09:34:12.000Z</time>
      </trkpt>
      <trkpt lat="44.08139" lon="1.89119">
        <ele>157</ele>
        <time>2011-08-28T09:34:22.000Z</time>
      </trkpt>
      <trkpt lat="44.08142" lon="1.89066">
        <ele>160</ele>
        <time>2011-08-28T09:34:32.000Z</time>
      </trkpt>
      <trkpt lat="44.08146" lon="1.89018">
        <ele>161</ele>
        <time>2011-08-28T09:34:42.000Z</time>
      </trkpt>
      <trkpt lat="44.08149" lon="1.88974">
        <ele>162</ele>
        <time>2011-08-28T09:34:52.000Z</time>
      </trkpt>
      <trkpt lat="44.08155" lon="1.88928">
        <ele>163</ele>
        <time>2011-08-28T09:35:02.000Z</time>
      </trkpt>
      <trkpt lat="44.08159" lon="1.88883">
        <ele>163</ele>
        <time>2011-08-28T09:35:12.000Z</time>
      </trkpt>
      <trkpt lat="44.08164" lon="1.88828">
        <ele>163</ele>
        <time>2011-08-28T09:35:22.000Z</time>
      </trkpt>
      <trkpt lat="44.08169" lon="1.88766">
        <ele>163</ele>
        <time>2011-08-28T09:35:32.000Z</time>
      </trkpt>
      <trkpt lat="44.08177" lon="1.88691">
        <ele>164</ele>
        <time>2011-08-28T09:35:42.000Z</time>
      </trkpt>
      <trkpt lat="44.08185" lon="1.88608">
        <ele>162</ele>
        <time>2011-08-28T09:35:52.000Z</time>
      </trkpt>
      <trkpt lat="44.08165" lon="1.88524">
        <ele>156</ele>
        <time>2011-08-28T09:36:02.000Z</time>
      </trkpt>
      <trkpt lat="44.08133" lon="1.88469">
        <ele>156</ele>
        <time>2011-08-28T09:36:12.000Z</time>
      </trkpt>
      <trkpt lat="44.08115" lon="1.88398">
        <ele>156</ele>
        <time>2011-08-28T09:36:22.000Z</time>
      </trkpt>
      <trkpt lat="44.08101" lon="1.88333">
        <ele>157</ele>
        <time>2011-08-28T09:36:32.000Z</time>
      </trkpt>
      <trkpt lat="44.08085" lon="1.88282">
        <ele>159</ele>
        <time>2011-08-28T09:36:42.000Z</time>
      </trkpt>
      <trkpt lat="44.08062" lon="1.88241">
        <ele>165</ele>
        <time>2011-08-28T09:36:52.000Z</time>
      </trkpt>
      <trkpt lat="44.08045" lon="1.88195">
        <ele>168</ele>
        <time>2011-08-28T09:37:02.000Z</time>
      </trkpt>
      <trkpt lat="44.08032" lon="1.8816">
        <ele>168</ele>
        <time>2011-08-28T09:37:12.000Z</time>
      </trkpt>
      <trkpt lat="44.08015" lon="1.88134">
        <ele>168</ele>
        <time>2011-08-28T09:37:22.000Z</time>
      </trkpt>
      <trkpt lat="44.07992" lon="1.88095">
        <ele>171</ele>
        <time>2011-08-28T09:37:32.000Z</time>
      </trkpt>
      <trkpt lat="44.07972" lon="1.8804">
        <ele>171</ele>
        <time>2011-08-28T09:37:42.000Z</time>
      </trkpt>
      <trkpt lat="44.07949" lon="1.87971">
        <ele>171</ele>
        <time>2011-08-28T09:37:52.000Z</time>
      </trkpt>
      <trkpt lat="44.07938" lon="1.87902">
        <ele>171</ele>
        <time>2011-08-28T09:38:02.000Z</time>
      </trkpt>
      <trkpt lat="44.07935" lon="1.87863">
        <ele>171</ele>
        <time>2011-08-28T09:38:12.000Z</time>
      </trkpt>
      <trkpt lat="44.07925" lon="1.87867">
        <ele>171</ele>
        <time>2011-08-28T09:38:22.000Z</time>
      </trkpt>
      <trkpt lat="44.07912" lon="1.87892">
        <ele>171</ele>
        <time>2011-08-28T09:38:32.000Z</time>
      </trkpt>
      <trkpt lat="44.07891" lon="1.87902">
        <ele>171</ele>
        <time>2011-08-28T09:38:42.000Z</time>
      </trkpt>
      <trkpt lat="44.07873" lon="1.87921">
        <ele>171</ele>
        <time>2011-08-28T09:38:52.000Z</time>
      </trkpt>
      <trkpt lat="44.07851" lon="1.87931">
        <ele>171</ele>
        <time>2011-08-28T09:39:02.000Z</time>
      </trkpt>
      <trkpt lat="44.07828" lon="1.87948">
        <ele>171</ele>
        <time>2011-08-28T09:39:12.000Z</time>
      </trkpt>
      <trkpt lat="44.07795" lon="1.87969">
        <ele>171</ele>
        <time>2011-08-28T09:39:22.000Z</time>
      </trkpt>
      <trkpt lat="44.07749" lon="1.87986">
        <ele>170</ele>
        <time>2011-08-28T09:39:32.000Z</time>
      </trkpt>
      <trkpt lat="44.07728" lon="1.88009">
        <ele>170</ele>
        <time>2011-08-28T09:39:42.000Z</time>
      </trkpt>
      <trkpt lat="44.07708" lon="1.8803">
        <ele>170</ele>
        <time>2011-08-28T09:39:52.000Z</time>
      </trkpt>
      <trkpt lat="44.07692" lon="1.88048">
        <ele>173</ele>
        <time>2011-08-28T09:40:02.000Z</time>
      </trkpt>
      <trkpt lat="44.07676" lon="1.88064">
        <ele>177</ele>
        <time>2011-08-28T09:40:12.000Z</time>
      </trkpt>
      <trkpt lat="44.07657" lon="1.88083">
        <ele>179</ele>
        <time>2011-08-28T09:40:22.000Z</time>
      </trkpt>
      <trkpt lat="44.07638" lon="1.88105">
        <ele>180</ele>
        <time>2011-08-28T09:40:32.000Z</time>
      </trkpt>
      <trkpt lat="44.07626" lon="1.88131">
        <ele>180</ele>
        <time>2011-08-28T09:40:42.000Z</time>
      </trkpt>
      <trkpt lat="44.07611" lon="1.88135">
        <ele>183</ele>
        <time>2011-08-28T09:40:52.000Z</time>
      </trkpt>
      <trkpt lat="44.07594" lon="1.88144">
        <ele>184</ele>
        <time>2011-08-28T09:41:02.000Z</time>
      </trkpt>
      <trkpt lat="44.07578" lon="1.88151">
        <ele>184</ele>
        <time>2011-08-28T09:41:12.000Z</time>
      </trkpt>
      <trkpt lat="44.07563" lon="1.88164">
        <ele>187</ele>
        <time>2011-08-28T09:41:22.000Z</time>
      </trkpt>
      <trkpt lat="44.07547" lon="1.88172">
        <ele>191</ele>
        <time>2011-08-28T09:41:32.000Z</time>
      </trkpt>
      <trkpt lat="44.07534" lon="1.88184">
        <ele>196</ele>
        <time>2011-08-28T09:41:42.000Z</time>
      </trkpt>
      <trkpt lat="44.07526" lon="1.88188">
        <ele>200</ele>
        <time>2011-08-28T09:41:52.000Z</time>
      </trkpt>
      <trkpt lat="44.0752" lon="1.88199">
        <ele>201</ele>
        <time>2011-08-28T09:42:02.000Z</time>
      </trkpt>
      <trkpt lat="44.07504" lon="1.88226">
        <ele>201</ele>
        <time>2011-08-28T09:42:12.000Z</time>
      </trkpt>
      <trkpt lat="44.07481" lon="1.88266">
        <ele>201</ele>
        <time>2011-08-28T09:42:22.000Z</time>
      </trkpt>
      <trkpt lat="44.07469" lon="1.88298">
        <ele>201</ele>
        <time>2011-08-28T09:42:32.000Z</time>
      </trkpt>
      <trkpt lat="44.07465" lon="1.88335">
        <ele>201</ele>
        <time>2011-08-28T09:42:42.000Z</time>
      </trkpt>
      <trkpt lat="44.0746" lon="1.88358">
        <ele>201</ele>
        <time>2011-08-28T09:42:52.000Z</time>
      </trkpt>
      <trkpt lat="44.07452" lon="1.88379">
        <ele>201</ele>
        <time>2011-08-28T09:43:02.000Z</time>
      </trkpt>
      <trkpt lat="44.07443" lon="1.88401">
        <ele>202</ele>
        <time>2011-08-28T09:43:12.000Z</time>
      </trkpt>
      <trkpt lat="44.07441" lon="1.88412">
        <ele>203</ele>
        <time>2011-08-28T09:43:23.000Z</time>
      </trkpt>
      <trkpt lat="44.07404" lon="1.88402">
        <ele>203</ele>
        <time>2011-08-28T09:43:33.000Z</time>
      </trkpt>
      <trkpt lat="44.07385" lon="1.88426">
        <ele>203</ele>
        <time>2011-08-28T09:43:43.000Z</time>
      </trkpt>
      <trkpt lat="44.07359" lon="1.8846">
        <ele>203</ele>
        <time>2011-08-28T09:43:53.000Z</time>
      </trkpt>
      <trkpt lat="44.07336" lon="1.885">
        <ele>204</ele>
        <time>2011-08-28T09:44:03.000Z</time>
      </trkpt>
      <trkpt lat="44.07313" lon="1.88515">
        <ele>206</ele>
        <time>2011-08-28T09:44:13.000Z</time>
      </trkpt>
      <trkpt lat="44.07293" lon="1.88538">
        <ele>206</ele>
        <time>2011-08-28T09:44:23.000Z</time>
      </trkpt>
      <trkpt lat="44.0728" lon="1.88562">
        <ele>206</ele>
        <time>2011-08-28T09:44:33.000Z</time>
      </trkpt>
      <trkpt lat="44.07265" lon="1.88583">
        <ele>208</ele>
        <time>2011-08-28T09:44:43.000Z</time>
      </trkpt>
      <trkpt lat="44.07247" lon="1.88608">
        <ele>211</ele>
        <time>2011-08-28T09:44:53.000Z</time>
      </trkpt>
      <trkpt lat="44.07225" lon="1.88634">
        <ele>211</ele>
        <time>2011-08-28T09:45:03.000Z</time>
      </trkpt>
      <trkpt lat="44.07201" lon="1.88649">
        <ele>211</ele>
        <time>2011-08-28T09:45:13.000Z</time>
      </trkpt>
      <trkpt lat="44.07176" lon="1.88667">
        <ele>211</ele>
        <time>2011-08-28T09:45:23.000Z</time>
      </trkpt>
      <trkpt lat="44.07147" lon="1.8868">
        <ele>211</ele>
        <time>2011-08-28T09:45:33.000Z</time>
      </trkpt>
      <trkpt lat="44.0712" lon="1.88682">
        <ele>211</ele>
        <time>2011-08-28T09:45:43.000Z</time>
      </trkpt>
      <trkpt lat="44.07086" lon="1.88677">
        <ele>211</ele>
        <time>2011-08-28T09:45:53.000Z</time>
      </trkpt>
      <trkpt lat="44.07041" lon="1.88686">
        <ele>211</ele>
        <time>2011-08-28T09:46:03.000Z</time>
      </trkpt>
      <trkpt lat="44.06998" lon="1.88712">
        <ele>211</ele>
        <time>2011-08-28T09:46:13.000Z</time>
      </trkpt>
      <trkpt lat="44.06987" lon="1.88743">
        <ele>212</ele>
        <time>2011-08-28T09:46:23.000Z</time>
      </trkpt>
      <trkpt lat="44.06974" lon="1.88777">
        <ele>215</ele>
        <time>2011-08-28T09:46:33.000Z</time>
      </trkpt>
      <trkpt lat="44.0695" lon="1.88796">
        <ele>215</ele>
        <time>2011-08-28T09:46:43.000Z</time>
      </trkpt>
      <trkpt lat="44.06928" lon="1.88814">
        <ele>215</ele>
        <time>2011-08-28T09:46:53.000Z</time>
      </trkpt>
      <trkpt lat="44.06905" lon="1.88828">
        <ele>215</ele>
        <time>2011-08-28T09:47:03.000Z</time>
      </trkpt>
      <trkpt lat="44.06887" lon="1.88844">
        <ele>215</ele>
        <time>2011-08-28T09:47:13.000Z</time>
      </trkpt>
      <trkpt lat="44.06866" lon="1.88857">
        <ele>215</ele>
        <time>2011-08-28T09:47:23.000Z</time>
      </trkpt>
      <trkpt lat="44.0685" lon="1.88887">
        <ele>215</ele>
        <time>2011-08-28T09:47:33.000Z</time>
      </trkpt>
      <trkpt lat="44.06844" lon="1.88932">
        <ele>215</ele>
        <time>2011-08-28T09:47:43.000Z</time>
      </trkpt>
      <trkpt lat="44.06812" lon="1.8896">
        <ele>215</ele>
        <time>2011-08-28T09:47:53.000Z</time>
      </trkpt>
      <trkpt lat="44.06753" lon="1.88948">
        <ele>215</ele>
        <time>2011-08-28T09:48:03.000Z</time>
      </trkpt>
      <trkpt lat="44.06721" lon="1.88979">
        <ele>213</ele>
        <time>2011-08-28T09:48:13.000Z</time>
      </trkpt>
      <trkpt lat="44.06717" lon="1.89015">
        <ele>215</ele>
        <time>2011-08-28T09:48:23.000Z</time>
      </trkpt>
      <trkpt lat="44.06721" lon="1.89054">
        <ele>223</ele>
        <time>2011-08-28T09:48:33.000Z</time>
      </trkpt>
      <trkpt lat="44.06713" lon="1.89085">
        <ele>223</ele>
        <time>2011-08-28T09:48:43.000Z</time>
      </trkpt>
      <trkpt lat="44.06699" lon="1.89091">
        <ele>225</ele>
        <time>2011-08-28T09:48:53.000Z</time>
      </trkpt>
      <trkpt lat="44.06682" lon="1.8909">
        <ele>226</ele>
        <time>2011-08-28T09:49:03.000Z</time>
      </trkpt>
      <trkpt lat="44.06664" lon="1.89088">
        <ele>228</ele>
        <time>2011-08-28T09:49:13.000Z</time>
      </trkpt>
      <trkpt lat="44.06648" lon="1.89083">
        <ele>228</ele>
        <time>2011-08-28T09:49:23.000Z</time>
      </trkpt>
      <trkpt lat="44.06633" lon="1.89074">
        <ele>228</ele>
        <time>2011-08-28T09:49:33.000Z</time>
      </trkpt>
      <trkpt lat="44.06619" lon="1.89067">
        <ele>228</ele>
        <time>2011-08-28T09:49:43.000Z</time>
      </trkpt>
      <trkpt lat="44.066" lon="1.89064">
        <ele>228</ele>
        <time>2011-08-28T09:49:53.000Z</time>
      </trkpt>
      <trkpt lat="44.06585" lon="1.89064">
        <ele>229</ele>
        <time>2011-08-28T09:50:03.000Z</time>
      </trkpt>
      <trkpt lat="44.0657" lon="1.89065">
        <ele>229</ele>
        <time>2011-08-28T09:50:13.000Z</time>
      </trkpt>
      <trkpt lat="44.06551" lon="1.89066">
        <ele>229</ele>
        <time>2011-08-28T09:50:23.000Z</time>
      </trkpt>
      <trkpt lat="44.06534" lon="1.89062">
        <ele>231</ele>
        <time>2011-08-28T09:50:33.000Z</time>
      </trkpt>
      <trkpt lat="44.06517" lon="1.89055">
        <ele>234</ele>
        <time>2011-08-28T09:50:43.000Z</time>
      </trkpt>
      <trkpt lat="44.065" lon="1.89048">
        <ele>236</ele>
        <time>2011-08-28T09:50:53.000Z</time>
      </trkpt>
      <trkpt lat="44.06481" lon="1.8904">
        <ele>237</ele>
        <time>2011-08-28T09:51:03.000Z</time>
      </trkpt>
      <trkpt lat="44.06472" lon="1.89038">
        <ele>237</ele>
        <time>2011-08-28T09:51:16.000Z</time>
      </trkpt>
      <trkpt lat="44.06472" lon="1.89036">
        <ele>237</ele>
        <time>2011-08-28T09:51:40.000Z</time>
      </trkpt>
      <trkpt lat="44.06472" lon="1.89035">
        <ele>237</ele>
        <time>2011-08-28T09:51:58.000Z</time>
      </trkpt>
      <trkpt lat="44.06472" lon="1.89032">
        <ele>237</ele>
        <time>2011-08-28T09:52:09.000Z</time>
      </trkpt>
      <trkpt lat="44.06469" lon="1.89033">
        <ele>237</ele>
        <time>2011-08-28T09:52:20.000Z</time>
      </trkpt>
      <trkpt lat="44.06468" lon="1.89034">
        <ele>237</ele>
        <time>2011-08-28T09:52:32.000Z</time>
      </trkpt>
      <trkpt lat="44.06467" lon="1.89033">
        <ele>237</ele>
        <time>2011-08-28T09:52:55.000Z</time>
      </trkpt>
      <trkpt lat="44.06467" lon="1.89032">
        <ele>237</ele>
        <time>2011-08-28T09:53:13.000Z</time>
      </trkpt>
      <trkpt lat="44.0647" lon="1.89031">
        <ele>237</ele>
        <time>2011-08-28T09:53:27.000Z</time>
      </trkpt>
      <trkpt lat="44.06472" lon="1.89031">
        <ele>237</ele>
        <time>2011-08-28T09:53:48.000Z</time>
      </trkpt>
      <trkpt lat="44.06472" lon="1.8903">
        <ele>237</ele>
        <time>2011-08-28T09:53:59.000Z</time>
      </trkpt>
      <trkpt lat="44.06474" lon="1.8903">
        <ele>236</ele>
        <time>2011-08-28T09:54:26.000Z</time>
      </trkpt>
      <trkpt lat="44.06472" lon="1.89031">
        <ele>236</ele>
        <time>2011-08-28T09:54:41.000Z</time>
      </trkpt>
      <trkpt lat="44.06472" lon="1.89032">
        <ele>236</ele>
        <time>2011-08-28T09:54:54.000Z</time>
      </trkpt>
      <trkpt lat="44.06471" lon="1.89033">
        <ele>239</ele>
        <time>2011-08-28T09:55:39.000Z</time>
      </trkpt>
      <trkpt lat="44.06469" lon="1.89031">
        <ele>239</ele>
        <time>2011-08-28T09:55:49.000Z</time>
      </trkpt>
      <trkpt lat="44.06468" lon="1.89032">
        <ele>239</ele>
        <time>2011-08-28T09:56:10.000Z</time>
      </trkpt>
      <trkpt lat="44.06464" lon="1.8903">
        <ele>239</ele>
        <time>2011-08-28T09:56:21.000Z</time>
      </trkpt>
      <trkpt lat="44.06442" lon="1.89008">
        <ele>239</ele>
        <time>2011-08-28T09:56:31.000Z</time>
      </trkpt>
      <trkpt lat="44.06385" lon="1.88965">
        <ele>235</ele>
        <time>2011-08-28T09:56:41.000Z</time>
      </trkpt>
      <trkpt lat="44.06309" lon="1.88895">
        <ele>230</ele>
        <time>2011-08-28T09:56:51.000Z</time>
      </trkpt>
      <trkpt lat="44.06242" lon="1.88902">
        <ele>230</ele>
        <time>2011-08-28T09:57:01.000Z</time>
      </trkpt>
      <trkpt lat="44.06216" lon="1.88906">
        <ele>232</ele>
        <time>2011-08-28T09:57:11.000Z</time>
      </trkpt>
      <trkpt lat="44.06192" lon="1.8891">
        <ele>235</ele>
        <time>2011-08-28T09:57:21.000Z</time>
      </trkpt>
      <trkpt lat="44.06176" lon="1.88908">
        <ele>238</ele>
        <time>2011-08-28T09:57:31.000Z</time>
      </trkpt>
      <trkpt lat="44.06163" lon="1.88896">
        <ele>240</ele>
        <time>2011-08-28T09:57:41.000Z</time>
      </trkpt>
      <trkpt lat="44.06145" lon="1.88893">
        <ele>242</ele>
        <time>2011-08-28T09:57:51.000Z</time>
      </trkpt>
      <trkpt lat="44.06101" lon="1.88896">
        <ele>242</ele>
        <time>2011-08-28T09:58:01.000Z</time>
      </trkpt>
      <trkpt lat="44.0603" lon="1.88981">
        <ele>233</ele>
        <time>2011-08-28T09:58:11.000Z</time>
      </trkpt>
      <trkpt lat="44.05946" lon="1.89094">
        <ele>223</ele>
        <time>2011-08-28T09:58:21.000Z</time>
      </trkpt>
      <trkpt lat="44.05868" lon="1.89191">
        <ele>213</ele>
        <time>2011-08-28T09:58:31.000Z</time>
      </trkpt>
      <trkpt lat="44.05812" lon="1.89254">
        <ele>199</ele>
        <time>2011-08-28T09:58:41.000Z</time>
      </trkpt>
      <trkpt lat="44.0575" lon="1.89285">
        <ele>188</ele>
        <time>2011-08-28T09:58:51.000Z</time>
      </trkpt>
      <trkpt lat="44.05716" lon="1.893">
        <ele>188</ele>
        <time>2011-08-28T09:59:01.000Z</time>
      </trkpt>
      <trkpt lat="44.05699" lon="1.89321">
        <ele>188</ele>
        <time>2011-08-28T09:59:11.000Z</time>
      </trkpt>
      <trkpt lat="44.05702" lon="1.89346">
        <ele>198</ele>
        <time>2011-08-28T09:59:21.000Z</time>
      </trkpt>
      <trkpt lat="44.05698" lon="1.89368">
        <ele>205</ele>
        <time>2011-08-28T09:59:31.000Z</time>
      </trkpt>
      <trkpt lat="44.05694" lon="1.8939">
        <ele>209</ele>
        <time>2011-08-28T09:59:41.000Z</time>
      </trkpt>
      <trkpt lat="44.05693" lon="1.89413">
        <ele>216</ele>
        <time>2011-08-28T09:59:51.000Z</time>
      </trkpt>
      <trkpt lat="44.05707" lon="1.89438">
        <ele>225</ele>
        <time>2011-08-28T10:00:02.000Z</time>
      </trkpt>
      <trkpt lat="44.05715" lon="1.89457">
        <ele>226</ele>
        <time>2011-08-28T10:00:12.000Z</time>
      </trkpt>
      <trkpt lat="44.05728" lon="1.89474">
        <ele>226</ele>
        <time>2011-08-28T10:00:22.000Z</time>
      </trkpt>
      <trkpt lat="44.0574" lon="1.89492">
        <ele>226</ele>
        <time>2011-08-28T10:00:32.000Z</time>
      </trkpt>
      <trkpt lat="44.05752" lon="1.89511">
        <ele>220</ele>
        <time>2011-08-28T10:00:42.000Z</time>
      </trkpt>
      <trkpt lat="44.05758" lon="1.89533">
        <ele>220</ele>
        <time>2011-08-28T10:00:52.000Z</time>
      </trkpt>
      <trkpt lat="44.0576" lon="1.89555">
        <ele>220</ele>
        <time>2011-08-28T10:01:02.000Z</time>
      </trkpt>
      <trkpt lat="44.05765" lon="1.89576">
        <ele>220</ele>
        <time>2011-08-28T10:01:12.000Z</time>
      </trkpt>
      <trkpt lat="44.05764" lon="1.89599">
        <ele>225</ele>
        <time>2011-08-28T10:01:22.000Z</time>
      </trkpt>
      <trkpt lat="44.05759" lon="1.89622">
        <ele>229</ele>
        <time>2011-08-28T10:01:32.000Z</time>
      </trkpt>
      <trkpt lat="44.05752" lon="1.89642">
        <ele>230</ele>
        <time>2011-08-28T10:01:42.000Z</time>
      </trkpt>
      <trkpt lat="44.05742" lon="1.89663">
        <ele>234</ele>
        <time>2011-08-28T10:01:52.000Z</time>
      </trkpt>
      <trkpt lat="44.05736" lon="1.89684">
        <ele>236</ele>
        <time>2011-08-28T10:02:02.000Z</time>
      </trkpt>
      <trkpt lat="44.05729" lon="1.89707">
        <ele>236</ele>
        <time>2011-08-28T10:02:12.000Z</time>
      </trkpt>
      <trkpt lat="44.0573" lon="1.89729">
        <ele>236</ele>
        <time>2011-08-28T10:02:22.000Z</time>
      </trkpt>
      <trkpt lat="44.05731" lon="1.8975">
        <ele>240</ele>
        <time>2011-08-28T10:02:32.000Z</time>
      </trkpt>
      <trkpt lat="44.05735" lon="1.89768">
        <ele>241</ele>
        <time>2011-08-28T10:02:42.000Z</time>
      </trkpt>
      <trkpt lat="44.05745" lon="1.89781">
        <ele>240</ele>
        <time>2011-08-28T10:02:52.000Z</time>
      </trkpt>
      <trkpt lat="44.05757" lon="1.89795">
        <ele>240</ele>
        <time>2011-08-28T10:03:02.000Z</time>
      </trkpt>
      <trkpt lat="44.05771" lon="1.89809">
        <ele>245</ele>
        <time>2011-08-28T10:03:12.000Z</time>
      </trkpt>
      <trkpt lat="44.05786" lon="1.89822">
        <ele>248</ele>
        <time>2011-08-28T10:03:22.000Z</time>
      </trkpt>
      <trkpt lat="44.05801" lon="1.89836">
        <ele>250</ele>
        <time>2011-08-28T10:03:32.000Z</time>
      </trkpt>
      <trkpt lat="44.05817" lon="1.89852">
        <ele>250</ele>
        <time>2011-08-28T10:03:42.000Z</time>
      </trkpt>
      <trkpt lat="44.0583" lon="1.89871">
        <ele>250</ele>
        <time>2011-08-28T10:03:52.000Z</time>
      </trkpt>
      <trkpt lat="44.05842" lon="1.89892">
        <ele>250</ele>
        <time>2011-08-28T10:04:02.000Z</time>
      </trkpt>
      <trkpt lat="44.05851" lon="1.89915">
        <ele>242</ele>
        <time>2011-08-28T10:04:12.000Z</time>
      </trkpt>
      <trkpt lat="44.05855" lon="1.8994">
        <ele>241</ele>
        <time>2011-08-28T10:04:22.000Z</time>
      </trkpt>
      <trkpt lat="44.05854" lon="1.89961">
        <ele>241</ele>
        <time>2011-08-28T10:04:32.000Z</time>
      </trkpt>
      <trkpt lat="44.05856" lon="1.89985">
        <ele>241</ele>
        <time>2011-08-28T10:04:42.000Z</time>
      </trkpt>
      <trkpt lat="44.05856" lon="1.9001">
        <ele>245</ele>
        <time>2011-08-28T10:04:52.000Z</time>
      </trkpt>
      <trkpt lat="44.05856" lon="1.90033">
        <ele>248</ele>
        <time>2011-08-28T10:05:02.000Z</time>
      </trkpt>
      <trkpt lat="44.05855" lon="1.9006">
        <ele>249</ele>
        <time>2011-08-28T10:05:12.000Z</time>
      </trkpt>
      <trkpt lat="44.05847" lon="1.90085">
        <ele>251</ele>
        <time>2011-08-28T10:05:22.000Z</time>
      </trkpt>
      <trkpt lat="44.05832" lon="1.90103">
        <ele>251</ele>
        <time>2011-08-28T10:05:32.000Z</time>
      </trkpt>
      <trkpt lat="44.05826" lon="1.90121">
        <ele>251</ele>
        <time>2011-08-28T10:05:42.000Z</time>
      </trkpt>
      <trkpt lat="44.05819" lon="1.90138">
        <ele>251</ele>
        <time>2011-08-28T10:05:52.000Z</time>
      </trkpt>
      <trkpt lat="44.05807" lon="1.90155">
        <ele>258</ele>
        <time>2011-08-28T10:06:02.000Z</time>
      </trkpt>
      <trkpt lat="44.05798" lon="1.90174">
        <ele>261</ele>
        <time>2011-08-28T10:06:12.000Z</time>
      </trkpt>
      <trkpt lat="44.05782" lon="1.90183">
        <ele>261</ele>
        <time>2011-08-28T10:06:23.000Z</time>
      </trkpt>
      <trkpt lat="44.05767" lon="1.90176">
        <ele>264</ele>
        <time>2011-08-28T10:06:33.000Z</time>
      </trkpt>
      <trkpt lat="44.05753" lon="1.90156">
        <ele>266</ele>
        <time>2011-08-28T10:06:43.000Z</time>
      </trkpt>
      <trkpt lat="44.05735" lon="1.90131">
        <ele>266</ele>
        <time>2011-08-28T10:06:53.000Z</time>
      </trkpt>
      <trkpt lat="44.05724" lon="1.90099">
        <ele>266</ele>
        <time>2011-08-28T10:07:03.000Z</time>
      </trkpt>
      <trkpt lat="44.05708" lon="1.90067">
        <ele>266</ele>
        <time>2011-08-28T10:07:13.000Z</time>
      </trkpt>
      <trkpt lat="44.05676" lon="1.90047">
        <ele>266</ele>
        <time>2011-08-28T10:07:23.000Z</time>
      </trkpt>
      <trkpt lat="44.05635" lon="1.90045">
        <ele>262</ele>
        <time>2011-08-28T10:07:33.000Z</time>
      </trkpt>
      <trkpt lat="44.05604" lon="1.90035">
        <ele>262</ele>
        <time>2011-08-28T10:07:43.000Z</time>
      </trkpt>
      <trkpt lat="44.05589" lon="1.89981">
        <ele>262</ele>
        <time>2011-08-28T10:07:53.000Z</time>
      </trkpt>
      <trkpt lat="44.05578" lon="1.89926">
        <ele>261</ele>
        <time>2011-08-28T10:08:03.000Z</time>
      </trkpt>
      <trkpt lat="44.05562" lon="1.8987">
        <ele>261</ele>
        <time>2011-08-28T10:08:13.000Z</time>
      </trkpt>
      <trkpt lat="44.05543" lon="1.89822">
        <ele>261</ele>
        <time>2011-08-28T10:08:23.000Z</time>
      </trkpt>
      <trkpt lat="44.05524" lon="1.89772">
        <ele>260</ele>
        <time>2011-08-28T10:08:33.000Z</time>
      </trkpt>
      <trkpt lat="44.05508" lon="1.89732">
        <ele>260</ele>
        <time>2011-08-28T10:08:43.000Z</time>
      </trkpt>
      <trkpt lat="44.05503" lon="1.89707">
        <ele>260</ele>
        <time>2011-08-28T10:08:53.000Z</time>
      </trkpt>
      <trkpt lat="44.05497" lon="1.89687">
        <ele>264</ele>
        <time>2011-08-28T10:09:03.000Z</time>
      </trkpt>
      <trkpt lat="44.05493" lon="1.89666">
        <ele>264</ele>
        <time>2011-08-28T10:09:13.000Z</time>
      </trkpt>
      <trkpt lat="44.05484" lon="1.89642">
        <ele>264</ele>
        <time>2011-08-28T10:09:23.000Z</time>
      </trkpt>
      <trkpt lat="44.0547" lon="1.89612">
        <ele>264</ele>
        <time>2011-08-28T10:09:33.000Z</time>
      </trkpt>
      <trkpt lat="44.0545" lon="1.89583">
        <ele>264</ele>
        <time>2011-08-28T10:09:43.000Z</time>
      </trkpt>
      <trkpt lat="44.05433" lon="1.89557">
        <ele>265</ele>
        <time>2011-08-28T10:09:53.000Z</time>
      </trkpt>
      <trkpt lat="44.05412" lon="1.8953">
        <ele>271</ele>
        <time>2011-08-28T10:10:03.000Z</time>
      </trkpt>
      <trkpt lat="44.05383" lon="1.8951">
        <ele>274</ele>
        <time>2011-08-28T10:10:13.000Z</time>
      </trkpt>
      <trkpt lat="44.05365" lon="1.89491">
        <ele>275</ele>
        <time>2011-08-28T10:10:23.000Z</time>
      </trkpt>
      <trkpt lat="44.05337" lon="1.89454">
        <ele>275</ele>
        <time>2011-08-28T10:10:33.000Z</time>
      </trkpt>
      <trkpt lat="44.05313" lon="1.89416">
        <ele>274</ele>
        <time>2011-08-28T10:10:43.000Z</time>
      </trkpt>
      <trkpt lat="44.05299" lon="1.89389">
        <ele>274</ele>
        <time>2011-08-28T10:10:53.000Z</time>
      </trkpt>
      <trkpt lat="44.05282" lon="1.89359">
        <ele>273</ele>
        <time>2011-08-28T10:11:03.000Z</time>
      </trkpt>
      <trkpt lat="44.05245" lon="1.89324">
        <ele>268</ele>
        <time>2011-08-28T10:11:13.000Z</time>
      </trkpt>
      <trkpt lat="44.05204" lon="1.89279">
        <ele>266</ele>
        <time>2011-08-28T10:11:23.000Z</time>
      </trkpt>
      <trkpt lat="44.05167" lon="1.89227">
        <ele>266</ele>
        <time>2011-08-28T10:11:33.000Z</time>
      </trkpt>
      <trkpt lat="44.05137" lon="1.89177">
        <ele>266</ele>
        <time>2011-08-28T10:11:43.000Z</time>
      </trkpt>
      <trkpt lat="44.05115" lon="1.89134">
        <ele>266</ele>
        <time>2011-08-28T10:11:53.000Z</time>
      </trkpt>
      <trkpt lat="44.05104" lon="1.891">
        <ele>266</ele>
        <time>2011-08-28T10:12:03.000Z</time>
      </trkpt>
      <trkpt lat="44.05102" lon="1.89068">
        <ele>269</ele>
        <time>2011-08-28T10:12:13.000Z</time>
      </trkpt>
      <trkpt lat="44.05098" lon="1.89032">
        <ele>270</ele>
        <time>2011-08-28T10:12:23.000Z</time>
      </trkpt>
      <trkpt lat="44.05088" lon="1.88996">
        <ele>272</ele>
        <time>2011-08-28T10:12:33.000Z</time>
      </trkpt>
      <trkpt lat="44.05069" lon="1.88964">
        <ele>273</ele>
        <time>2011-08-28T10:12:43.000Z</time>
      </trkpt>
      <trkpt lat="44.05045" lon="1.88939">
        <ele>276</ele>
        <time>2011-08-28T10:12:53.000Z</time>
      </trkpt>
      <trkpt lat="44.05016" lon="1.88912">
        <ele>276</ele>
        <time>2011-08-28T10:13:03.000Z</time>
      </trkpt>
      <trkpt lat="44.04998" lon="1.88899">
        <ele>276</ele>
        <time>2011-08-28T10:13:13.000Z</time>
      </trkpt>
      <trkpt lat="44.04995" lon="1.88899">
        <ele>279</ele>
        <time>2011-08-28T10:13:37.000Z</time>
      </trkpt>
      <trkpt lat="44.04982" lon="1.88882">
        <ele>280</ele>
        <time>2011-08-28T10:13:47.000Z</time>
      </trkpt>
      <trkpt lat="44.04953" lon="1.88849">
        <ele>280</ele>
        <time>2011-08-28T10:13:57.000Z</time>
      </trkpt>
      <trkpt lat="44.04915" lon="1.88806">
        <ele>280</ele>
        <time>2011-08-28T10:14:07.000Z</time>
      </trkpt>
      <trkpt lat="44.04886" lon="1.88768">
        <ele>278</ele>
        <time>2011-08-28T10:14:17.000Z</time>
      </trkpt>
      <trkpt lat="44.04866" lon="1.88719">
        <ele>275</ele>
        <time>2011-08-28T10:14:27.000Z</time>
      </trkpt>
      <trkpt lat="44.04848" lon="1.88669">
        <ele>273</ele>
        <time>2011-08-28T10:14:37.000Z</time>
      </trkpt>
      <trkpt lat="44.04828" lon="1.88626">
        <ele>273</ele>
        <time>2011-08-28T10:14:47.000Z</time>
      </trkpt>
      <trkpt lat="44.04794" lon="1.88622">
        <ele>273</ele>
        <time>2011-08-28T10:14:57.000Z</time>
      </trkpt>
      <trkpt lat="44.04764" lon="1.88622">
        <ele>274</ele>
        <time>2011-08-28T10:15:07.000Z</time>
      </trkpt>
      <trkpt lat="44.04733" lon="1.88615">
        <ele>275</ele>
        <time>2011-08-28T10:15:17.000Z</time>
      </trkpt>
      <trkpt lat="44.04704" lon="1.88596">
        <ele>275</ele>
        <time>2011-08-28T10:15:27.000Z</time>
      </trkpt>
      <trkpt lat="44.04676" lon="1.88576">
        <ele>275</ele>
        <time>2011-08-28T10:15:37.000Z</time>
      </trkpt>
      <trkpt lat="44.04651" lon="1.88554">
        <ele>274</ele>
        <time>2011-08-28T10:15:47.000Z</time>
      </trkpt>
      <trkpt lat="44.04632" lon="1.88534">
        <ele>274</ele>
        <time>2011-08-28T10:15:57.000Z</time>
      </trkpt>
      <trkpt lat="44.04618" lon="1.8852">
        <ele>281</ele>
        <time>2011-08-28T10:16:07.000Z</time>
      </trkpt>
      <trkpt lat="44.04603" lon="1.88504">
        <ele>283</ele>
        <time>2011-08-28T10:16:18.000Z</time>
      </trkpt>
      <trkpt lat="44.04595" lon="1.88502">
        <ele>283</ele>
        <time>2011-08-28T10:16:29.000Z</time>
      </trkpt>
      <trkpt lat="44.04596" lon="1.88505">
        <ele>289</ele>
        <time>2011-08-28T10:16:39.000Z</time>
      </trkpt>
      <trkpt lat="44.04597" lon="1.88508">
        <ele>296</ele>
        <time>2011-08-28T10:16:56.000Z</time>
      </trkpt>
      <trkpt lat="44.04593" lon="1.88507">
        <ele>301</ele>
        <time>2011-08-28T10:17:12.000Z</time>
      </trkpt>
      <trkpt lat="44.04596" lon="1.88507">
        <ele>305</ele>
        <time>2011-08-28T10:17:26.000Z</time>
      </trkpt>
      <trkpt lat="44.04598" lon="1.88507">
        <ele>306</ele>
        <time>2011-08-28T10:17:38.000Z</time>
      </trkpt>
      <trkpt lat="44.04599" lon="1.88508">
        <ele>306</ele>
        <time>2011-08-28T10:17:50.000Z</time>
      </trkpt>
      <trkpt lat="44.04604" lon="1.8851">
        <ele>306</ele>
        <time>2011-08-28T10:18:01.000Z</time>
      </trkpt>
      <trkpt lat="44.04607" lon="1.88512">
        <ele>304</ele>
        <time>2011-08-28T10:18:15.000Z</time>
      </trkpt>
      <trkpt lat="44.04607" lon="1.88514">
        <ele>304</ele>
        <time>2011-08-28T10:18:26.000Z</time>
      </trkpt>
      <trkpt lat="44.04606" lon="1.88513">
        <ele>304</ele>
        <time>2011-08-28T10:18:44.000Z</time>
      </trkpt>
      <trkpt lat="44.04605" lon="1.88513">
        <ele>305</ele>
        <time>2011-08-28T10:18:57.000Z</time>
      </trkpt>
      <trkpt lat="44.04606" lon="1.88514">
        <ele>301</ele>
        <time>2011-08-28T10:19:39.000Z</time>
      </trkpt>
      <trkpt lat="44.04607" lon="1.88515">
        <ele>297</ele>
        <time>2011-08-28T10:19:50.000Z</time>
      </trkpt>
      <trkpt lat="44.04605" lon="1.88514">
        <ele>292</ele>
        <time>2011-08-28T10:20:12.000Z</time>
      </trkpt>
      <trkpt lat="44.04601" lon="1.88513">
        <ele>292</ele>
        <time>2011-08-28T10:20:23.000Z</time>
      </trkpt>
      <trkpt lat="44.04599" lon="1.88513">
        <ele>295</ele>
        <time>2011-08-28T10:20:36.000Z</time>
      </trkpt>
      <trkpt lat="44.04596" lon="1.88512">
        <ele>300</ele>
        <time>2011-08-28T10:20:59.000Z</time>
      </trkpt>
      <trkpt lat="44.04595" lon="1.88512">
        <ele>301</ele>
        <time>2011-08-28T10:21:12.000Z</time>
      </trkpt>
      <trkpt lat="44.04596" lon="1.88511">
        <ele>308</ele>
        <time>2011-08-28T10:21:29.000Z</time>
      </trkpt>
      <trkpt lat="44.04593" lon="1.88508">
        <ele>307</ele>
        <time>2011-08-28T10:21:41.000Z</time>
      </trkpt>
      <trkpt lat="44.0459" lon="1.88506">
        <ele>307</ele>
        <time>2011-08-28T10:21:51.000Z</time>
      </trkpt>
      <trkpt lat="44.04586" lon="1.88503">
        <ele>307</ele>
        <time>2011-08-28T10:22:07.000Z</time>
      </trkpt>
      <trkpt lat="44.04587" lon="1.88502">
        <ele>307</ele>
        <time>2011-08-28T10:22:29.000Z</time>
      </trkpt>
      <trkpt lat="44.0459" lon="1.88504">
        <ele>307</ele>
        <time>2011-08-28T10:22:42.000Z</time>
      </trkpt>
      <trkpt lat="44.04592" lon="1.88505">
        <ele>304</ele>
        <time>2011-08-28T10:22:54.000Z</time>
      </trkpt>
      <trkpt lat="44.04593" lon="1.88506">
        <ele>300</ele>
        <time>2011-08-28T10:23:11.000Z</time>
      </trkpt>
      <trkpt lat="44.04593" lon="1.88506">
        <ele>295</ele>
        <time>2011-08-28T10:23:28.000Z</time>
      </trkpt>
      <trkpt lat="44.04592" lon="1.88504">
        <ele>293</ele>
        <time>2011-08-28T10:23:57.000Z</time>
      </trkpt>
      <trkpt lat="44.04588" lon="1.88502">
        <ele>305</ele>
        <time>2011-08-28T10:24:25.000Z</time>
      </trkpt>
      <trkpt lat="44.0459" lon="1.88501">
        <ele>302</ele>
        <time>2011-08-28T10:25:34.000Z</time>
      </trkpt>
      <trkpt lat="44.04578" lon="1.88494">
        <ele>294</ele>
        <time>2011-08-28T10:25:45.000Z</time>
      </trkpt>
      <trkpt lat="44.04555" lon="1.88481">
        <ele>290</ele>
        <time>2011-08-28T10:25:55.000Z</time>
      </trkpt>
      <trkpt lat="44.04528" lon="1.88471">
        <ele>289</ele>
        <time>2011-08-28T10:26:05.000Z</time>
      </trkpt>
      <trkpt lat="44.04497" lon="1.88466">
        <ele>285</ele>
        <time>2011-08-28T10:26:15.000Z</time>
      </trkpt>
      <trkpt lat="44.04469" lon="1.88465">
        <ele>285</ele>
        <time>2011-08-28T10:26:25.000Z</time>
      </trkpt>
      <trkpt lat="44.04443" lon="1.88458">
        <ele>285</ele>
        <time>2011-08-28T10:26:35.000Z</time>
      </trkpt>
      <trkpt lat="44.04421" lon="1.8847">
        <ele>285</ele>
        <time>2011-08-28T10:26:45.000Z</time>
      </trkpt>
      <trkpt lat="44.044" lon="1.88512">
        <ele>288</ele>
        <time>2011-08-28T10:26:55.000Z</time>
      </trkpt>
      <trkpt lat="44.04377" lon="1.88558">
        <ele>292</ele>
        <time>2011-08-28T10:27:05.000Z</time>
      </trkpt>
      <trkpt lat="44.04346" lon="1.88606">
        <ele>296</ele>
        <time>2011-08-28T10:27:15.000Z</time>
      </trkpt>
      <trkpt lat="44.04314" lon="1.88657">
        <ele>296</ele>
        <time>2011-08-28T10:27:25.000Z</time>
      </trkpt>
      <trkpt lat="44.04286" lon="1.88708">
        <ele>296</ele>
        <time>2011-08-28T10:27:35.000Z</time>
      </trkpt>
      <trkpt lat="44.04274" lon="1.88695">
        <ele>296</ele>
        <time>2011-08-28T10:27:45.000Z</time>
      </trkpt>
      <trkpt lat="44.04276" lon="1.88631">
        <ele>295</ele>
        <time>2011-08-28T10:27:55.000Z</time>
      </trkpt>
      <trkpt lat="44.0428" lon="1.88551">
        <ele>289</ele>
        <time>2011-08-28T10:28:05.000Z</time>
      </trkpt>
      <trkpt lat="44.04243" lon="1.88497">
        <ele>287</ele>
        <time>2011-08-28T10:28:15.000Z</time>
      </trkpt>
      <trkpt lat="44.04163" lon="1.88447">
        <ele>283</ele>
        <time>2011-08-28T10:28:25.000Z</time>
      </trkpt>
      <trkpt lat="44.04097" lon="1.88368">
        <ele>277</ele>
        <time>2011-08-28T10:28:35.000Z</time>
      </trkpt>
      <trkpt lat="44.0404" lon="1.88313">
        <ele>276</ele>
        <time>2011-08-28T10:28:45.000Z</time>
      </trkpt>
      <trkpt lat="44.04007" lon="1.88258">
        <ele>274</ele>
        <time>2011-08-28T10:28:55.000Z</time>
      </trkpt>
      <trkpt lat="44.03981" lon="1.88212">
        <ele>273</ele>
        <time>2011-08-28T10:29:05.000Z</time>
      </trkpt>
      <trkpt lat="44.03935" lon="1.88179">
        <ele>270</ele>
        <time>2011-08-28T10:29:15.000Z</time>
      </trkpt>
      <trkpt lat="44.03867" lon="1.88166">
        <ele>269</ele>
        <time>2011-08-28T10:29:25.000Z</time>
      </trkpt>
      <trkpt lat="44.03813" lon="1.88097">
        <ele>263</ele>
        <time>2011-08-28T10:29:35.000Z</time>
      </trkpt>
      <trkpt lat="44.03764" lon="1.88028">
        <ele>260</ele>
        <time>2011-08-28T10:29:45.000Z</time>
      </trkpt>
      <trkpt lat="44.03697" lon="1.87985">
        <ele>259</ele>
        <time>2011-08-28T10:29:55.000Z</time>
      </trkpt>
      <trkpt lat="44.03624" lon="1.87966">
        <ele>257</ele>
        <time>2011-08-28T10:30:05.000Z</time>
      </trkpt>
      <trkpt lat="44.0355" lon="1.87966">
        <ele>256</ele>
        <time>2011-08-28T10:30:15.000Z</time>
      </trkpt>
      <trkpt lat="44.03494" lon="1.87939">
        <ele>252</ele>
        <time>2011-08-28T10:30:25.000Z</time>
      </trkpt>
      <trkpt lat="44.03498" lon="1.87912">
        <ele>251</ele>
        <time>2011-08-28T10:30:35.000Z</time>
      </trkpt>
      <trkpt lat="44.03503" lon="1.87888">
        <ele>253</ele>
        <time>2011-08-28T10:30:46.000Z</time>
      </trkpt>
      <trkpt lat="44.03509" lon="1.87872">
        <ele>258</ele>
        <time>2011-08-28T10:30:57.000Z</time>
      </trkpt>
      <trkpt lat="44.03512" lon="1.87854">
        <ele>260</ele>
        <time>2011-08-28T10:31:08.000Z</time>
      </trkpt>
      <trkpt lat="44.03513" lon="1.87838">
        <ele>265</ele>
        <time>2011-08-28T10:31:18.000Z</time>
      </trkpt>
      <trkpt lat="44.03515" lon="1.87822">
        <ele>268</ele>
        <time>2011-08-28T10:31:29.000Z</time>
      </trkpt>
      <trkpt lat="44.0352" lon="1.87807">
        <ele>271</ele>
        <time>2011-08-28T10:31:39.000Z</time>
      </trkpt>
      <trkpt lat="44.03525" lon="1.87792">
        <ele>271</ele>
        <time>2011-08-28T10:31:50.000Z</time>
      </trkpt>
      <trkpt lat="44.0353" lon="1.87778">
        <ele>271</ele>
        <time>2011-08-28T10:32:00.000Z</time>
      </trkpt>
      <trkpt lat="44.03534" lon="1.87763">
        <ele>271</ele>
        <time>2011-08-28T10:32:10.000Z</time>
      </trkpt>
      <trkpt lat="44.0354" lon="1.87747">
        <ele>271</ele>
        <time>2011-08-28T10:32:20.000Z</time>
      </trkpt>
      <trkpt lat="44.03545" lon="1.87733">
        <ele>271</ele>
        <time>2011-08-28T10:32:30.000Z</time>
      </trkpt>
      <trkpt lat="44.03549" lon="1.87718">
        <ele>274</ele>
        <time>2011-08-28T10:32:40.000Z</time>
      </trkpt>
      <trkpt lat="44.0355" lon="1.87702">
        <ele>276</ele>
        <time>2011-08-28T10:32:50.000Z</time>
      </trkpt>
      <trkpt lat="44.03552" lon="1.87682">
        <ele>277</ele>
        <time>2011-08-28T10:33:02.000Z</time>
      </trkpt>
      <trkpt lat="44.03559" lon="1.87662">
        <ele>278</ele>
        <time>2011-08-28T10:33:13.000Z</time>
      </trkpt>
      <trkpt lat="44.0355" lon="1.87648">
        <ele>278</ele>
        <time>2011-08-28T10:33:24.000Z</time>
      </trkpt>
      <trkpt lat="44.03533" lon="1.87653">
        <ele>278</ele>
        <time>2011-08-28T10:33:34.000Z</time>
      </trkpt>
      <trkpt lat="44.0351" lon="1.87658">
        <ele>281</ele>
        <time>2011-08-28T10:33:44.000Z</time>
      </trkpt>
      <trkpt lat="44.03487" lon="1.87638">
        <ele>280</ele>
        <time>2011-08-28T10:33:55.000Z</time>
      </trkpt>
      <trkpt lat="44.03459" lon="1.87617">
        <ele>274</ele>
        <time>2011-08-28T10:34:06.000Z</time>
      </trkpt>
      <trkpt lat="44.03436" lon="1.876">
        <ele>274</ele>
        <time>2011-08-28T10:34:16.000Z</time>
      </trkpt>
      <trkpt lat="44.03413" lon="1.8758">
        <ele>274</ele>
        <time>2011-08-28T10:34:26.000Z</time>
      </trkpt>
      <trkpt lat="44.03403" lon="1.87546">
        <ele>274</ele>
        <time>2011-08-28T10:34:36.000Z</time>
      </trkpt>
      <trkpt lat="44.03394" lon="1.87514">
        <ele>274</ele>
        <time>2011-08-28T10:34:46.000Z</time>
      </trkpt>
      <trkpt lat="44.03382" lon="1.87486">
        <ele>277</ele>
        <time>2011-08-28T10:34:56.000Z</time>
      </trkpt>
      <trkpt lat="44.03372" lon="1.87456">
        <ele>283</ele>
        <time>2011-08-28T10:35:06.000Z</time>
      </trkpt>
      <trkpt lat="44.03363" lon="1.87425">
        <ele>287</ele>
        <time>2011-08-28T10:35:16.000Z</time>
      </trkpt>
      <trkpt lat="44.03351" lon="1.87394">
        <ele>290</ele>
        <time>2011-08-28T10:35:26.000Z</time>
      </trkpt>
      <trkpt lat="44.03336" lon="1.87416">
        <ele>292</ele>
        <time>2011-08-28T10:35:36.000Z</time>
      </trkpt>
      <trkpt lat="44.03314" lon="1.87445">
        <ele>292</ele>
        <time>2011-08-28T10:35:46.000Z</time>
      </trkpt>
      <trkpt lat="44.0328" lon="1.87471">
        <ele>292</ele>
        <time>2011-08-28T10:35:56.000Z</time>
      </trkpt>
      <trkpt lat="44.03238" lon="1.87514">
        <ele>292</ele>
        <time>2011-08-28T10:36:07.000Z</time>
      </trkpt>
      <trkpt lat="44.03191" lon="1.87522">
        <ele>290</ele>
        <time>2011-08-28T10:36:17.000Z</time>
      </trkpt>
      <trkpt lat="44.03133" lon="1.87587">
        <ele>286</ele>
        <time>2011-08-28T10:36:28.000Z</time>
      </trkpt>
      <trkpt lat="44.03088" lon="1.87693">
        <ele>284</ele>
        <time>2011-08-28T10:36:39.000Z</time>
      </trkpt>
      <trkpt lat="44.03043" lon="1.878">
        <ele>277</ele>
        <time>2011-08-28T10:36:49.000Z</time>
      </trkpt>
      <trkpt lat="44.03023" lon="1.87882">
        <ele>267</ele>
        <time>2011-08-28T10:36:59.000Z</time>
      </trkpt>
      <trkpt lat="44.03032" lon="1.87958">
        <ele>261</ele>
        <time>2011-08-28T10:37:10.000Z</time>
      </trkpt>
      <trkpt lat="44.03053" lon="1.88017">
        <ele>255</ele>
        <time>2011-08-28T10:37:20.000Z</time>
      </trkpt>
      <trkpt lat="44.03003" lon="1.88061">
        <ele>248</ele>
        <time>2011-08-28T10:37:30.000Z</time>
      </trkpt>
      <trkpt lat="44.02952" lon="1.88102">
        <ele>246</ele>
        <time>2011-08-28T10:37:40.000Z</time>
      </trkpt>
      <trkpt lat="44.02907" lon="1.8821">
        <ele>242</ele>
        <time>2011-08-28T10:37:50.000Z</time>
      </trkpt>
      <trkpt lat="44.02847" lon="1.88201">
        <ele>241</ele>
        <time>2011-08-28T10:38:01.000Z</time>
      </trkpt>
      <trkpt lat="44.02789" lon="1.88133">
        <ele>237</ele>
        <time>2011-08-28T10:38:11.000Z</time>
      </trkpt>
      <trkpt lat="44.02772" lon="1.88037">
        <ele>233</ele>
        <time>2011-08-28T10:38:21.000Z</time>
      </trkpt>
      <trkpt lat="44.0277" lon="1.88027">
        <ele>233</ele>
        <time>2011-08-28T10:38:32.000Z</time>
      </trkpt>
      <trkpt lat="44.02753" lon="1.88048">
        <ele>235</ele>
        <time>2011-08-28T10:38:42.000Z</time>
      </trkpt>
      <trkpt lat="44.02731" lon="1.88064">
        <ele>235</ele>
        <time>2011-08-28T10:38:52.000Z</time>
      </trkpt>
      <trkpt lat="44.0271" lon="1.88086">
        <ele>236</ele>
        <time>2011-08-28T10:39:02.000Z</time>
      </trkpt>
      <trkpt lat="44.02689" lon="1.88109">
        <ele>236</ele>
        <time>2011-08-28T10:39:12.000Z</time>
      </trkpt>
      <trkpt lat="44.02678" lon="1.88129">
        <ele>237</ele>
        <time>2011-08-28T10:39:22.000Z</time>
      </trkpt>
      <trkpt lat="44.02667" lon="1.88151">
        <ele>241</ele>
        <time>2011-08-28T10:39:33.000Z</time>
      </trkpt>
      <trkpt lat="44.02657" lon="1.8817">
        <ele>246</ele>
        <time>2011-08-28T10:39:43.000Z</time>
      </trkpt>
      <trkpt lat="44.02652" lon="1.8819">
        <ele>248</ele>
        <time>2011-08-28T10:39:53.000Z</time>
      </trkpt>
      <trkpt lat="44.02654" lon="1.88209">
        <ele>248</ele>
        <time>2011-08-28T10:40:03.000Z</time>
      </trkpt>
      <trkpt lat="44.02657" lon="1.88227">
        <ele>252</ele>
        <time>2011-08-28T10:40:13.000Z</time>
      </trkpt>
      <trkpt lat="44.0266" lon="1.88249">
        <ele>255</ele>
        <time>2011-08-28T10:40:24.000Z</time>
      </trkpt>
      <trkpt lat="44.02663" lon="1.8827">
        <ele>255</ele>
        <time>2011-08-28T10:40:34.000Z</time>
      </trkpt>
      <trkpt lat="44.02662" lon="1.88291">
        <ele>255</ele>
        <time>2011-08-28T10:40:45.000Z</time>
      </trkpt>
      <trkpt lat="44.02663" lon="1.88309">
        <ele>255</ele>
        <time>2011-08-28T10:40:55.000Z</time>
      </trkpt>
      <trkpt lat="44.02662" lon="1.8833">
        <ele>255</ele>
        <time>2011-08-28T10:41:06.000Z</time>
      </trkpt>
      <trkpt lat="44.02659" lon="1.88351">
        <ele>258</ele>
        <time>2011-08-28T10:41:16.000Z</time>
      </trkpt>
      <trkpt lat="44.02659" lon="1.88374">
        <ele>257</ele>
        <time>2011-08-28T10:41:26.000Z</time>
      </trkpt>
      <trkpt lat="44.02655" lon="1.88398">
        <ele>254</ele>
        <time>2011-08-28T10:41:36.000Z</time>
      </trkpt>
      <trkpt lat="44.02651" lon="1.88422">
        <ele>254</ele>
        <time>2011-08-28T10:41:46.000Z</time>
      </trkpt>
      <trkpt lat="44.02647" lon="1.88445">
        <ele>254</ele>
        <time>2011-08-28T10:41:56.000Z</time>
      </trkpt>
      <trkpt lat="44.02642" lon="1.88464">
        <ele>254</ele>
        <time>2011-08-28T10:42:06.000Z</time>
      </trkpt>
      <trkpt lat="44.02637" lon="1.88481">
        <ele>259</ele>
        <time>2011-08-28T10:42:16.000Z</time>
      </trkpt>
      <trkpt lat="44.0263" lon="1.88506">
        <ele>260</ele>
        <time>2011-08-28T10:42:26.000Z</time>
      </trkpt>
      <trkpt lat="44.02628" lon="1.88533">
        <ele>260</ele>
        <time>2011-08-28T10:42:37.000Z</time>
      </trkpt>
      <trkpt lat="44.02624" lon="1.88566">
        <ele>261</ele>
        <time>2011-08-28T10:42:47.000Z</time>
      </trkpt>
      <trkpt lat="44.02612" lon="1.88603">
        <ele>262</ele>
        <time>2011-08-28T10:42:58.000Z</time>
      </trkpt>
      <trkpt lat="44.02602" lon="1.88631">
        <ele>264</ele>
        <time>2011-08-28T10:43:08.000Z</time>
      </trkpt>
      <trkpt lat="44.02592" lon="1.88655">
        <ele>266</ele>
        <time>2011-08-28T10:43:18.000Z</time>
      </trkpt>
      <trkpt lat="44.02574" lon="1.88669">
        <ele>267</ele>
        <time>2011-08-28T10:43:29.000Z</time>
      </trkpt>
      <trkpt lat="44.02556" lon="1.88675">
        <ele>269</ele>
        <time>2011-08-28T10:43:39.000Z</time>
      </trkpt>
      <trkpt lat="44.02538" lon="1.88689">
        <ele>272</ele>
        <time>2011-08-28T10:43:50.000Z</time>
      </trkpt>
      <trkpt lat="44.0252" lon="1.88714">
        <ele>273</ele>
        <time>2011-08-28T10:44:00.000Z</time>
      </trkpt>
      <trkpt lat="44.02494" lon="1.88754">
        <ele>273</ele>
        <time>2011-08-28T10:44:11.000Z</time>
      </trkpt>
      <trkpt lat="44.02469" lon="1.88794">
        <ele>275</ele>
        <time>2011-08-28T10:44:21.000Z</time>
      </trkpt>
      <trkpt lat="44.02441" lon="1.88838">
        <ele>278</ele>
        <time>2011-08-28T10:44:32.000Z</time>
      </trkpt>
      <trkpt lat="44.02418" lon="1.88866">
        <ele>278</ele>
        <time>2011-08-28T10:44:42.000Z</time>
      </trkpt>
      <trkpt lat="44.02399" lon="1.889">
        <ele>279</ele>
        <time>2011-08-28T10:44:53.000Z</time>
      </trkpt>
      <trkpt lat="44.02387" lon="1.88933">
        <ele>280</ele>
        <time>2011-08-28T10:45:03.000Z</time>
      </trkpt>
      <trkpt lat="44.02371" lon="1.88915">
        <ele>280</ele>
        <time>2011-08-28T10:45:13.000Z</time>
      </trkpt>
      <trkpt lat="44.02301" lon="1.88889">
        <ele>279</ele>
        <time>2011-08-28T10:45:23.000Z</time>
      </trkpt>
      <trkpt lat="44.02236" lon="1.88869">
        <ele>274</ele>
        <time>2011-08-28T10:45:33.000Z</time>
      </trkpt>
      <trkpt lat="44.0221" lon="1.88849">
        <ele>272</ele>
        <time>2011-08-28T10:45:43.000Z</time>
      </trkpt>
      <trkpt lat="44.02191" lon="1.88793">
        <ele>268</ele>
        <time>2011-08-28T10:45:53.000Z</time>
      </trkpt>
      <trkpt lat="44.02155" lon="1.88751">
        <ele>267</ele>
        <time>2011-08-28T10:46:03.000Z</time>
      </trkpt>
      <trkpt lat="44.02123" lon="1.88713">
        <ele>267</ele>
        <time>2011-08-28T10:46:13.000Z</time>
      </trkpt>
      <trkpt lat="44.02094" lon="1.88679">
        <ele>267</ele>
        <time>2011-08-28T10:46:23.000Z</time>
      </trkpt>
      <trkpt lat="44.02073" lon="1.88683">
        <ele>267</ele>
        <time>2011-08-28T10:46:33.000Z</time>
      </trkpt>
      <trkpt lat="44.02052" lon="1.88726">
        <ele>274</ele>
        <time>2011-08-28T10:46:43.000Z</time>
      </trkpt>
      <trkpt lat="44.0203" lon="1.88767">
        <ele>275</ele>
        <time>2011-08-28T10:46:53.000Z</time>
      </trkpt>
      <trkpt lat="44.02005" lon="1.88813">
        <ele>275</ele>
        <time>2011-08-28T10:47:03.000Z</time>
      </trkpt>
      <trkpt lat="44.01978" lon="1.88858">
        <ele>275</ele>
        <time>2011-08-28T10:47:13.000Z</time>
      </trkpt>
      <trkpt lat="44.01942" lon="1.88914">
        <ele>275</ele>
        <time>2011-08-28T10:47:23.000Z</time>
      </trkpt>
      <trkpt lat="44.01909" lon="1.88967">
        <ele>275</ele>
        <time>2011-08-28T10:47:33.000Z</time>
      </trkpt>
      <trkpt lat="44.01861" lon="1.88948">
        <ele>273</ele>
        <time>2011-08-28T10:47:43.000Z</time>
      </trkpt>
      <trkpt lat="44.0179" lon="1.88867">
        <ele>263</ele>
        <time>2011-08-28T10:47:53.000Z</time>
      </trkpt>
      <trkpt lat="44.01756" lon="1.8883">
        <ele>258</ele>
        <time>2011-08-28T10:48:03.000Z</time>
      </trkpt>
      <trkpt lat="44.0173" lon="1.88836">
        <ele>258</ele>
        <time>2011-08-28T10:48:13.000Z</time>
      </trkpt>
      <trkpt lat="44.01703" lon="1.88845">
        <ele>259</ele>
        <time>2011-08-28T10:48:23.000Z</time>
      </trkpt>
      <trkpt lat="44.01648" lon="1.88841">
        <ele>259</ele>
        <time>2011-08-28T10:48:33.000Z</time>
      </trkpt>
      <trkpt lat="44.01548" lon="1.88809">
        <ele>252</ele>
        <time>2011-08-28T10:48:43.000Z</time>
      </trkpt>
      <trkpt lat="44.01494" lon="1.88834">
        <ele>252</ele>
        <time>2011-08-28T10:48:53.000Z</time>
      </trkpt>
      <trkpt lat="44.01471" lon="1.88821">
        <ele>252</ele>
        <time>2011-08-28T10:49:03.000Z</time>
      </trkpt>
      <trkpt lat="44.01457" lon="1.88812">
        <ele>252</ele>
        <time>2011-08-28T10:49:13.000Z</time>
      </trkpt>
      <trkpt lat="44.0144" lon="1.88801">
        <ele>256</ele>
        <time>2011-08-28T10:49:23.000Z</time>
      </trkpt>
      <trkpt lat="44.01425" lon="1.88791">
        <ele>259</ele>
        <time>2011-08-28T10:49:33.000Z</time>
      </trkpt>
      <trkpt lat="44.01409" lon="1.88782">
        <ele>261</ele>
        <time>2011-08-28T10:49:43.000Z</time>
      </trkpt>
      <trkpt lat="44.01394" lon="1.88771">
        <ele>263</ele>
        <time>2011-08-28T10:49:53.000Z</time>
      </trkpt>
      <trkpt lat="44.01379" lon="1.88758">
        <ele>265</ele>
        <time>2011-08-28T10:50:03.000Z</time>
      </trkpt>
      <trkpt lat="44.01367" lon="1.88782">
        <ele>266</ele>
        <time>2011-08-28T10:50:13.000Z</time>
      </trkpt>
      <trkpt lat="44.0135" lon="1.8878">
        <ele>268</ele>
        <time>2011-08-28T10:50:23.000Z</time>
      </trkpt>
      <trkpt lat="44.01334" lon="1.88766">
        <ele>269</ele>
        <time>2011-08-28T10:50:33.000Z</time>
      </trkpt>
      <trkpt lat="44.01319" lon="1.88753">
        <ele>270</ele>
        <time>2011-08-28T10:50:43.000Z</time>
      </trkpt>
      <trkpt lat="44.01303" lon="1.88739">
        <ele>273</ele>
        <time>2011-08-28T10:50:53.000Z</time>
      </trkpt>
      <trkpt lat="44.01286" lon="1.88724">
        <ele>275</ele>
        <time>2011-08-28T10:51:03.000Z</time>
      </trkpt>
      <trkpt lat="44.01293" lon="1.88699">
        <ele>275</ele>
        <time>2011-08-28T10:51:13.000Z</time>
      </trkpt>
      <trkpt lat="44.01313" lon="1.88669">
        <ele>275</ele>
        <time>2011-08-28T10:51:23.000Z</time>
      </trkpt>
      <trkpt lat="44.01326" lon="1.88626">
        <ele>275</ele>
        <time>2011-08-28T10:51:33.000Z</time>
      </trkpt>
      <trkpt lat="44.01335" lon="1.88577">
        <ele>275</ele>
        <time>2011-08-28T10:51:43.000Z</time>
      </trkpt>
      <trkpt lat="44.01341" lon="1.88521">
        <ele>275</ele>
        <time>2011-08-28T10:51:53.000Z</time>
      </trkpt>
      <trkpt lat="44.01346" lon="1.88474">
        <ele>274</ele>
        <time>2011-08-28T10:52:03.000Z</time>
      </trkpt>
      <trkpt lat="44.01366" lon="1.88465">
        <ele>274</ele>
        <time>2011-08-28T10:52:13.000Z</time>
      </trkpt>
      <trkpt lat="44.01376" lon="1.88435">
        <ele>274</ele>
        <time>2011-08-28T10:52:23.000Z</time>
      </trkpt>
      <trkpt lat="44.01359" lon="1.88402">
        <ele>274</ele>
        <time>2011-08-28T10:52:33.000Z</time>
      </trkpt>
      <trkpt lat="44.01338" lon="1.88376">
        <ele>274</ele>
        <time>2011-08-28T10:52:43.000Z</time>
      </trkpt>
      <trkpt lat="44.01317" lon="1.88362">
        <ele>274</ele>
        <time>2011-08-28T10:52:53.000Z</time>
      </trkpt>
      <trkpt lat="44.01314" lon="1.88361">
        <ele>277</ele>
        <time>2011-08-28T10:53:14.000Z</time>
      </trkpt>
      <trkpt lat="44.01314" lon="1.88364">
        <ele>278</ele>
        <time>2011-08-28T10:53:34.000Z</time>
      </trkpt>
      <trkpt lat="44.01316" lon="1.88363">
        <ele>278</ele>
        <time>2011-08-28T10:53:50.000Z</time>
      </trkpt>
      <trkpt lat="44.01317" lon="1.88359">
        <ele>278</ele>
        <time>2011-08-28T10:54:14.000Z</time>
      </trkpt>
      <trkpt lat="44.01318" lon="1.88359">
        <ele>278</ele>
        <time>2011-08-28T10:54:56.000Z</time>
      </trkpt>
      <trkpt lat="44.01318" lon="1.8836">
        <ele>278</ele>
        <time>2011-08-28T10:56:18.000Z</time>
      </trkpt>
      <trkpt lat="44.01317" lon="1.88361">
        <ele>280</ele>
        <time>2011-08-28T10:57:12.000Z</time>
      </trkpt>
      <trkpt lat="44.01318" lon="1.8836">
        <ele>283</ele>
        <time>2011-08-28T10:58:36.000Z</time>
      </trkpt>
      <trkpt lat="44.01319" lon="1.88359">
        <ele>283</ele>
        <time>2011-08-28T10:58:54.000Z</time>
      </trkpt>
      <trkpt lat="44.01321" lon="1.8836">
        <ele>283</ele>
        <time>2011-08-28T10:59:17.000Z</time>
      </trkpt>
      <trkpt lat="44.01319" lon="1.8836">
        <ele>283</ele>
        <time>2011-08-28T10:59:57.000Z</time>
      </trkpt>
      <trkpt lat="44.01317" lon="1.88361">
        <ele>282</ele>
        <time>2011-08-28T11:00:08.000Z</time>
      </trkpt>
      <trkpt lat="44.01316" lon="1.88364">
        <ele>282</ele>
        <time>2011-08-28T11:00:21.000Z</time>
      </trkpt>
      <trkpt lat="44.01308" lon="1.88366">
        <ele>281</ele>
        <time>2011-08-28T11:00:31.000Z</time>
      </trkpt>
      <trkpt lat="44.01271" lon="1.88356">
        <ele>279</ele>
        <time>2011-08-28T11:00:41.000Z</time>
      </trkpt>
      <trkpt lat="44.01199" lon="1.8833">
        <ele>274</ele>
        <time>2011-08-28T11:00:51.000Z</time>
      </trkpt>
      <trkpt lat="44.01131" lon="1.8831">
        <ele>272</ele>
        <time>2011-08-28T11:01:01.000Z</time>
      </trkpt>
      <trkpt lat="44.01062" lon="1.8832">
        <ele>272</ele>
        <time>2011-08-28T11:01:11.000Z</time>
      </trkpt>
      <trkpt lat="44.01015" lon="1.88322">
        <ele>272</ele>
        <time>2011-08-28T11:01:21.000Z</time>
      </trkpt>
      <trkpt lat="44.00983" lon="1.88344">
        <ele>273</ele>
        <time>2011-08-28T11:01:31.000Z</time>
      </trkpt>
      <trkpt lat="44.00964" lon="1.88364">
        <ele>275</ele>
        <time>2011-08-28T11:01:41.000Z</time>
      </trkpt>
      <trkpt lat="44.00945" lon="1.88409">
        <ele>275</ele>
        <time>2011-08-28T11:01:51.000Z</time>
      </trkpt>
      <trkpt lat="44.00982" lon="1.88454">
        <ele>272</ele>
        <time>2011-08-28T11:02:01.000Z</time>
      </trkpt>
      <trkpt lat="44.00997" lon="1.88509">
        <ele>262</ele>
        <time>2011-08-28T11:02:11.000Z</time>
      </trkpt>
      <trkpt lat="44.00975" lon="1.88578">
        <ele>257</ele>
        <time>2011-08-28T11:02:21.000Z</time>
      </trkpt>
      <trkpt lat="44.00933" lon="1.88631">
        <ele>251</ele>
        <time>2011-08-28T11:02:31.000Z</time>
      </trkpt>
      <trkpt lat="44.00881" lon="1.88671">
        <ele>246</ele>
        <time>2011-08-28T11:02:41.000Z</time>
      </trkpt>
      <trkpt lat="44.00836" lon="1.88712">
        <ele>244</ele>
        <time>2011-08-28T11:02:51.000Z</time>
      </trkpt>
      <trkpt lat="44.00794" lon="1.88752">
        <ele>241</ele>
        <time>2011-08-28T11:03:01.000Z</time>
      </trkpt>
      <trkpt lat="44.00742" lon="1.88784">
        <ele>240</ele>
        <time>2011-08-28T11:03:11.000Z</time>
      </trkpt>
      <trkpt lat="44.00691" lon="1.88777">
        <ele>240</ele>
        <time>2011-08-28T11:03:21.000Z</time>
      </trkpt>
      <trkpt lat="44.00644" lon="1.88794">
        <ele>239</ele>
        <time>2011-08-28T11:03:31.000Z</time>
      </trkpt>
      <trkpt lat="44.006" lon="1.8883">
        <ele>238</ele>
        <time>2011-08-28T11:03:41.000Z</time>
      </trkpt>
      <trkpt lat="44.0056" lon="1.88859">
        <ele>238</ele>
        <time>2011-08-28T11:03:51.000Z</time>
      </trkpt>
      <trkpt lat="44.0053" lon="1.88927">
        <ele>242</ele>
        <time>2011-08-28T11:04:01.000Z</time>
      </trkpt>
      <trkpt lat="44.00479" lon="1.88982">
        <ele>242</ele>
        <time>2011-08-28T11:04:11.000Z</time>
      </trkpt>
      <trkpt lat="44.0043" lon="1.89053">
        <ele>240</ele>
        <time>2011-08-28T11:04:21.000Z</time>
      </trkpt>
      <trkpt lat="44.00376" lon="1.89147">
        <ele>234</ele>
        <time>2011-08-28T11:04:31.000Z</time>
      </trkpt>
      <trkpt lat="44.00333" lon="1.89244">
        <ele>231</ele>
        <time>2011-08-28T11:04:41.000Z</time>
      </trkpt>
      <trkpt lat="44.00294" lon="1.89325">
        <ele>231</ele>
        <time>2011-08-28T11:04:51.000Z</time>
      </trkpt>
      <trkpt lat="44.00264" lon="1.89329">
        <ele>231</ele>
        <time>2011-08-28T11:05:01.000Z</time>
      </trkpt>
      <trkpt lat="44.00238" lon="1.89329">
        <ele>231</ele>
        <time>2011-08-28T11:05:11.000Z</time>
      </trkpt>
      <trkpt lat="44.00212" lon="1.89329">
        <ele>231</ele>
        <time>2011-08-28T11:05:21.000Z</time>
      </trkpt>
      <trkpt lat="44.00179" lon="1.89321">
        <ele>231</ele>
        <time>2011-08-28T11:05:31.000Z</time>
      </trkpt>
      <trkpt lat="44.001" lon="1.8929">
        <ele>226</ele>
        <time>2011-08-28T11:05:41.000Z</time>
      </trkpt>
      <trkpt lat="44.00015" lon="1.89277">
        <ele>224</ele>
        <time>2011-08-28T11:05:51.000Z</time>
      </trkpt>
      <trkpt lat="44.00002" lon="1.89169">
        <ele>224</ele>
        <time>2011-08-28T11:06:01.000Z</time>
      </trkpt>
      <trkpt lat="43.99957" lon="1.89091">
        <ele>224</ele>
        <time>2011-08-28T11:06:11.000Z</time>
      </trkpt>
      <trkpt lat="43.9991" lon="1.89098">
        <ele>224</ele>
        <time>2011-08-28T11:06:21.000Z</time>
      </trkpt>
      <trkpt lat="43.99881" lon="1.89084">
        <ele>227</ele>
        <time>2011-08-28T11:06:31.000Z</time>
      </trkpt>
      <trkpt lat="43.9989" lon="1.89063">
        <ele>232</ele>
        <time>2011-08-28T11:06:43.000Z</time>
      </trkpt>
      <trkpt lat="43.99897" lon="1.89046">
        <ele>234</ele>
        <time>2011-08-28T11:06:53.000Z</time>
      </trkpt>
      <trkpt lat="43.99899" lon="1.89036">
        <ele>235</ele>
        <time>2011-08-28T11:07:03.000Z</time>
      </trkpt>
      <trkpt lat="43.99897" lon="1.89034">
        <ele>236</ele>
        <time>2011-08-28T11:07:15.000Z</time>
      </trkpt>
    </trkseg>
  </trk>
</gpx>